Provisional Data: Catatonk Creek near Spencer, NY


Please select a monitoring station.
Please select start date.
Please select start date.

Toggle Unit: C/F Toggle Unit: C/F
Sample Time Temperature (C) Temperature (F) Specific Conductivity (mS/cm) pH   Turbidity (NTU+) DO (mg/L)
6/22/2021 12:00:00 AM 20.74 69.332 0.386 7.58 11.61 5.45
6/22/2021 12:15:00 AM 20.59 69.062 0.388 7.58 10.77 5.35
6/22/2021 12:30:00 AM 20.59 69.062 0.387 7.59 10.58 5.55
6/22/2021 12:45:00 AM 20.54 68.972 0.387 7.59 10.3 5.49
6/22/2021 1:00:00 AM 20.45 68.81 0.387 7.58 10.05 5.63
6/22/2021 1:15:00 AM 20.34 68.612 0.387 7.58 25.97 5.62
6/22/2021 1:30:00 AM 20.28 68.504 0.386 7.58 12.04 5.59
6/22/2021 1:45:00 AM 20.34 68.612 0.382 7.59 11 5.75
6/22/2021 2:00:00 AM 20.45 68.81 0.378 7.61 13.19 5.99
6/22/2021 2:15:00 AM 20.66 69.188 0.371 7.63 15.73 6.15
6/22/2021 2:30:00 AM 20.82 69.476 0.364 7.64 19.64 6.28
6/22/2021 2:45:00 AM 20.91 69.638 0.357 7.65 22.53 6.36
6/22/2021 3:00:00 AM 20.91 69.638 0.352 7.65 21.32 6.42
6/22/2021 3:15:00 AM 20.87 69.566 0.346 7.65 20.96 6.46
6/22/2021 3:30:00 AM 20.88 69.584 0.337 7.66 20.68 6.51
6/22/2021 3:45:00 AM 20.92 69.656 0.326 7.66 21.16 6.53
6/22/2021 4:00:00 AM 20.94 69.692 0.317 7.66 21.15 6.53
6/22/2021 4:15:00 AM 20.88 69.584 0.309 7.65 20.79 6.52
6/22/2021 4:30:00 AM 20.76 69.368 0.301 7.64 21.66 6.59
6/22/2021 4:45:00 AM 20.6 69.08 0.292 7.63 20.08 6.69
6/22/2021 5:00:00 AM 20.4 68.72 0.283 7.62 22.04 6.74
6/22/2021 5:15:00 AM 20.18 68.324 0.276 7.61 20.85 6.78
6/22/2021 5:30:00 AM 19.96 67.92799 0.27 7.6 20.85 6.84
6/22/2021 5:45:00 AM 19.73 67.514 0.266 7.59 19.05 6.87
6/22/2021 6:00:00 AM 19.54 67.172 0.263 7.59 18.4 6.91
6/22/2021 6:15:00 AM 19.37 66.866 0.262 7.59 17.39 6.97
6/22/2021 6:30:00 AM 19.21 66.578 0.263 7.58 15.91 6.98
6/22/2021 6:45:00 AM 19.08 66.344 0.263 7.58 16.35 7.01
6/22/2021 7:00:00 AM 18.96 66.128 0.265 7.58 19.23 7.04
6/22/2021 7:15:00 AM 18.87 65.966 0.267 7.58 17.35 7.06
6/22/2021 7:30:00 AM 18.8 65.84 0.268 7.58 15.4 7.08
6/22/2021 7:45:00 AM 18.72 65.696 0.271 7.58 16.24 7.08
6/22/2021 8:00:00 AM 18.66 65.588 0.273 7.58 13.89 7.1
6/22/2021 8:15:00 AM 18.64 65.552 0.275 7.59 12.53 7.14
6/22/2021 8:30:00 AM 18.59 65.462 0.277 7.59 16.28 7.14
6/22/2021 8:45:00 AM 18.55 65.39 0.279 7.6 13.88 7.23
6/22/2021 9:00:00 AM 18.5 65.3 0.282 7.61 14.12 7.25
6/22/2021 9:15:00 AM 18.48 65.264 0.283 7.62 12.13 7.33
6/22/2021 9:30:00 AM 18.45 65.21 0.285 7.62 11.5 7.37
6/22/2021 9:45:00 AM 18.42 65.156 0.286 7.63 11.29 7.45
6/22/2021 10:00:00 AM 18.37 65.066 0.287 7.63 11.24 7.44
6/22/2021 10:15:00 AM 18.32 64.976 0.288 7.64 11.14 7.49
6/22/2021 10:30:00 AM 18.26 64.868 0.289 7.64 18.89 7.52
6/22/2021 10:45:00 AM 18.23 64.814 0.289 7.65 15.01 7.58
6/22/2021 11:00:00 AM 18.16 64.688 0.29 7.65 13.08 7.63
6/22/2021 11:15:00 AM 18.14 64.652 0.289 7.65 22.08 7.65
6/22/2021 11:30:00 AM 18.11 64.598 0.289 7.66 12.1 7.76
6/22/2021 11:45:00 AM 18.1 64.58 0.288 7.67 10.31 7.85
6/22/2021 12:00:00 PM 18.08 64.544 0.288 7.69 9.47 7.96
6/22/2021 12:15:00 PM 18.04 64.472 0.289 7.7 9.44 8
6/22/2021 12:30:00 PM 18 64.4 0.289 7.7 9.29 8.03
6/22/2021 12:45:00 PM 17.99 64.382 0.288 7.71 9.11 8.13
6/22/2021 1:00:00 PM 17.92 64.256 0.289 7.71 10.25 8.18
6/22/2021 1:15:00 PM 17.89 64.202 0.289 7.72 9.55 8.17
6/22/2021 1:30:00 PM 17.87 64.166 0.29 7.72 9.98 8.28
6/22/2021 1:45:00 PM 17.84 64.112 0.29 7.73 9.03 8.35
6/22/2021 2:00:00 PM 17.81 64.058 0.289 7.74 9.53 8.34
6/22/2021 2:15:00 PM 17.74 63.932 0.291 7.73 9.29 8.27
6/22/2021 2:30:00 PM 17.68 63.824 0.291 7.73 11.54 8.21
6/22/2021 2:45:00 PM 17.62 63.716 0.292 7.72 9.83 8.21
6/22/2021 3:00:00 PM 17.56 63.608 0.293 7.73 10.58 8.2
6/22/2021 3:15:00 PM 17.52 63.536 0.293 7.73 9.55 8.2
6/22/2021 3:30:00 PM 17.48 63.464 0.295 7.73 9.03 8.27
6/22/2021 3:45:00 PM 17.48 63.464 0.295 7.74 9.45 8.32
6/22/2021 4:00:00 PM 17.45 63.41 0.296 7.74 9 8.34
6/22/2021 4:15:00 PM 17.41 63.338 0.296 7.75 8.9 8.36
6/22/2021 4:30:00 PM 17.34 63.212 0.297 7.74 9.39 8.33
6/22/2021 4:45:00 PM 17.3 63.14 0.298 7.74 9.23 8.3
6/22/2021 5:00:00 PM 17.28 63.104 0.299 7.75 9.63 8.35
6/22/2021 5:15:00 PM 17.28 63.104 0.299 7.76 9.2 8.39
6/22/2021 5:30:00 PM 17.33 63.194 0.298 7.78 9.57 8.49
6/22/2021 5:45:00 PM 17.31 63.158 0.298 7.79 8.82 8.6
6/22/2021 6:00:00 PM 17.28 63.104 0.301 7.77 9.08 8.43
6/22/2021 6:15:00 PM 17.28 63.104 0.301 7.77 10.28 8.44
6/22/2021 6:30:00 PM 17.22 62.996 0.302 7.77 8.91 8.4
6/22/2021 6:45:00 PM 17.18 62.924 0.302 7.77 9.51 8.42
6/22/2021 7:00:00 PM 17.14 62.852 0.303 7.77 9.78 8.34
6/22/2021 7:15:00 PM 17.11 62.798 0.303 7.77 20.63 8.34
6/22/2021 7:30:00 PM 17.07 62.726 0.305 7.75 11.29 8.2
6/22/2021 7:45:00 PM 17.02 62.636 0.305 7.75 9.52 8.22
6/22/2021 8:00:00 PM 16.93 62.474 0.308 7.74 9.03 8.13
6/22/2021 8:15:00 PM 16.88 62.384 0.308 7.73 9.47 8.08
6/22/2021 8:30:00 PM 16.82 62.276 0.308 7.72 9.49 8.02
6/22/2021 8:45:00 PM 16.75 62.15 0.309 7.72 9.43 7.88
6/22/2021 9:00:00 PM 16.67 62.006 0.309 7.71 9.89 7.89
6/22/2021 9:15:00 PM 16.57 61.826 0.311 7.7 10.58 7.88
6/22/2021 9:30:00 PM 16.49 61.682 0.312 7.69 11.11 7.76
6/22/2021 9:45:00 PM 16.4 61.52 0.314 7.68 16.35 7.72
6/22/2021 10:00:00 PM 16.35 61.43 0.313 7.68 12.59 7.74
6/22/2021 10:15:00 PM 16.27 61.286 0.314 7.68 12.01 7.59
6/22/2021 10:30:00 PM 16.2 61.16 0.314 7.67 12.58 7.69
6/22/2021 10:45:00 PM 16.12 61.016 0.314 7.67 12.28 7.61
6/22/2021 11:00:00 PM 16.02 60.836 0.316 7.66 13.33 7.53
6/22/2021 11:15:00 PM 15.91 60.638 0.319 7.65 12.69 7.48
6/22/2021 11:30:00 PM 15.86 60.548 0.317 7.64 13.17 7.51
6/22/2021 11:45:00 PM 15.78 60.404 0.318 7.64 13.03 7.44
6/23/2021 12:00:00 AM 15.7 60.26 0.319 7.64 12.54 7.33
6/23/2021 12:15:00 AM 15.63 60.134 0.319 7.64 12.5 7.43
6/23/2021 12:30:00 AM 15.54 59.972 0.321 7.63 12.63 7.39
6/23/2021 12:45:00 AM 15.46 59.828 0.321 7.63 13.42 7.36
6/23/2021 1:00:00 AM 15.4 59.72 0.32 7.63 12.77 7.3
6/23/2021 1:15:00 AM 15.29 59.522 0.323 7.62 12.91 7.32
6/23/2021 1:30:00 AM 15.22 59.396 0.321 7.62 12.96 7.42
6/23/2021 1:45:00 AM 15.12 59.216 0.321 7.62 13.29 7.45
6/23/2021 2:00:00 AM 15.03 59.054 0.322 7.62 13.34 7.39
6/23/2021 2:15:00 AM 14.95 58.91 0.322 7.61 13.67 7.43
6/23/2021 2:30:00 AM 14.85 58.73 0.323 7.61 19.14 7.3
6/23/2021 2:45:00 AM 14.75 58.55 0.324 7.61 30.24 7.3
6/23/2021 3:00:00 AM 14.67 58.406 0.323 7.61 15.76 7.26
6/23/2021 3:15:00 AM 14.57 58.226 0.324 7.61 13.75 7.27
6/23/2021 3:30:00 AM 14.49 58.082 0.325 7.61 13.7 7.24
6/23/2021 3:45:00 AM 14.41 57.938 0.325 7.61 14.35 7.39
6/23/2021 4:00:00 AM 14.31 57.758 0.328 7.6 13.96 7.23
6/23/2021 4:15:00 AM 14.23 57.614 0.327 7.61 14.93 7.33
6/23/2021 4:30:00 AM 14.16 57.488 0.328 7.61 16.3 7.32
6/23/2021 4:45:00 AM 14.07 57.326 0.328 7.61 19.63 7.52
6/23/2021 5:00:00 AM 14 57.2 0.33 7.6 14.01 7.53
6/23/2021 5:15:00 AM 13.94 57.092 0.33 7.61 13.66 7.38
6/23/2021 5:30:00 AM 13.99 57.182 0.328 7.61 13.53 7.39
6/23/2021 5:45:00 AM 13.93 57.074 0.328 7.61 13.81 7.38
6/23/2021 6:00:00 AM 13.87 56.966 0.329 7.61 13.71 7.48
6/23/2021 6:15:00 AM 13.81 56.858 0.329 7.61 14.17 7.5
6/23/2021 6:30:00 AM 13.75 56.75 0.33 7.61 14.24 7.57
6/23/2021 6:45:00 AM 13.69 56.642 0.331 7.62 12.94 7.58
6/23/2021 7:00:00 AM 13.67 56.606 0.331 7.62 17.65 7.69
6/23/2021 7:15:00 AM 13.65 56.57 0.33 7.62 13.24 7.72
6/23/2021 7:30:00 AM 13.62 56.516 0.331 7.63 12.15 7.79
6/23/2021 7:45:00 AM 13.59 56.462 0.332 7.63 20.06 7.83
6/23/2021 8:00:00 AM 13.58 56.444 0.332 7.64 12.7 7.96
6/23/2021 8:15:00 AM 13.61 56.498 0.334 7.65 15.69 8.01
6/23/2021 8:30:00 AM 13.67 56.606 0.334 7.66 33.81 8.11
6/23/2021 8:45:00 AM 13.7 56.66 0.336 7.66 26.16 8.08
6/23/2021 9:00:00 AM 13.73 56.714 0.335 7.67 13.1 8.23
6/23/2021 9:15:00 AM 13.78 56.804 0.335 7.68 10.88 8.28
6/23/2021 9:30:00 AM 13.89 57.002 0.334 7.7 10.01 8.54
6/23/2021 9:45:00 AM 14 57.2 0.335 7.7 9.75 8.44
6/23/2021 10:00:00 AM 14.12 57.416 0.335 7.72 10.82 8.73
6/23/2021 10:15:00 AM 14.21 57.578 0.334 7.73 10.28 8.83
6/23/2021 10:30:00 AM 14.27 57.686 0.338 7.74 10.05 8.84
6/23/2021 10:45:00 AM 14.45 58.01 0.335 7.76 9.94 8.88
6/23/2021 11:00:00 AM 14.58 58.244 0.336 7.77 9.29 9.06
6/23/2021 11:15:00 AM 14.77 58.586 0.335 7.78 9.28 9.24
6/23/2021 11:30:00 AM 14.82 58.676 0.337 7.78 8.35 9.25
6/23/2021 11:45:00 AM 15.02 59.036 0.335 7.8 8.18 9.18
6/23/2021 12:00:00 PM 15.2 59.36 0.335 7.81 8.68 9.19
6/23/2021 12:15:00 PM 15.45 59.81 0.335 7.83 8.35 9.22
6/23/2021 12:30:00 PM 15.65 60.17 0.335 7.85 8.65 9.47
6/23/2021 12:45:00 PM 15.8 60.44 0.336 7.85 7.89 9.65
6/23/2021 1:00:00 PM 15.91 60.638 0.335 7.86 8.65 9.59
6/23/2021 1:15:00 PM 16.11 60.998 0.335 7.88 8.43 9.61
6/23/2021 1:30:00 PM 16.25 61.25 0.334 7.89 7.67 9.69
6/23/2021 1:45:00 PM 16.36 61.448 0.334 7.89 7.73 9.42
6/23/2021 2:00:00 PM 16.47 61.646 0.335 7.9 7.69 9.58
6/23/2021 2:15:00 PM 16.68 62.024 0.334 7.92 8.2 9.64
6/23/2021 2:30:00 PM 16.87 62.366 0.333 7.93 7.82 9.73
6/23/2021 2:45:00 PM 17.01 62.618 0.333 7.94 7.67 9.78
6/23/2021 3:00:00 PM 17.05 62.69 0.333 7.94 7.61 9.77
6/23/2021 3:15:00 PM 17.1 62.78 0.335 7.94 7.51 9.64
6/23/2021 3:30:00 PM 17.26 63.068 0.335 7.95 7.06 9.61
6/23/2021 3:45:00 PM 17.38 63.284 0.335 7.95 7.26 9.76
6/23/2021 4:00:00 PM 17.51 63.518 0.336 7.95 6.98 9.54
6/23/2021 4:15:00 PM 17.74 63.932 0.335 7.98 7.03 9.65
6/23/2021 4:30:00 PM 17.84 64.112 0.338 7.97 7.12 9.6
6/23/2021 4:45:00 PM 18.09 64.562 0.335 7.99 6.83 9.48
6/23/2021 5:00:00 PM 18.24 64.832 0.337 7.99 6.83 9.49
6/23/2021 5:15:00 PM 18.37 65.066 0.337 7.99 6.96 9.39
6/23/2021 5:30:00 PM 18.48 65.264 0.337 7.99 6.79 9.43
6/23/2021 5:45:00 PM 18.48 65.264 0.338 7.98 6.78 9.33
6/23/2021 6:00:00 PM 18.57 65.426 0.338 7.97 52.6 9.06
6/23/2021 6:15:00 PM 18.56 65.408 0.339 7.96 13.71 8.89
6/23/2021 6:30:00 PM 18.62 65.516 0.338 7.96 8.96 8.84
6/23/2021 6:45:00 PM 18.6 65.48 0.34 7.94 8.18 8.75
6/23/2021 7:00:00 PM 18.58 65.444 0.34 7.93 6.89 8.45
6/23/2021 7:15:00 PM 18.55 65.39 0.341 7.91 7.3 8.42
6/23/2021 7:30:00 PM 18.55 65.39 0.34 7.9 6.86 8.2
6/23/2021 7:45:00 PM 18.5 65.3 0.341 7.89 7.02 8.15
6/23/2021 8:00:00 PM 18.43 65.174 0.341 7.87 7.32 8.2
6/23/2021 8:15:00 PM 18.36 65.048 0.341 7.86 6.99 8.07
6/23/2021 8:30:00 PM 18.28 64.904 0.342 7.84 7.2 7.97
6/23/2021 8:45:00 PM 18.16 64.688 0.344 7.82 7.57 7.78
6/23/2021 9:00:00 PM 18.08 64.544 0.344 7.81 7.95 7.64
6/23/2021 9:15:00 PM 17.96 64.328 0.346 7.79 8 7.69
6/23/2021 9:30:00 PM 17.89 64.202 0.345 7.78 8.04 7.69
6/23/2021 9:45:00 PM 17.78 64.004 0.346 7.77 8.5 7.49
6/23/2021 10:00:00 PM 17.66 63.788 0.347 7.76 9.35 7.32
6/23/2021 10:15:00 PM 17.57 63.626 0.348 7.75 8.91 7.29
6/23/2021 10:30:00 PM 17.48 63.464 0.349 7.74 8.4 7.15
6/23/2021 10:45:00 PM 17.36 63.248 0.351 7.72 8.35 7.2
6/23/2021 11:00:00 PM 17.31 63.158 0.35 7.72 8.99 7.19
6/23/2021 11:15:00 PM 17.19 62.942 0.352 7.7 8.34 6.98
6/23/2021 11:30:00 PM 17.15 62.87 0.351 7.7 9.17 7.12
6/23/2021 11:45:00 PM 17.07 62.726 0.351 7.7 9.25 7.14
6/24/2021 12:00:00 AM 16.99 62.582 0.351 7.69 8.99 7.14
6/24/2021 12:15:00 AM 16.89 62.402 0.353 7.68 9.19 6.99
6/24/2021 12:30:00 AM 16.82 62.276 0.353 7.68 9.05 6.97
6/24/2021 12:45:00 AM 16.72 62.096 0.355 7.67 9.01 7.06
6/24/2021 1:00:00 AM 16.64 61.952 0.355 7.66 8.59 6.91
6/24/2021 1:15:00 AM 16.52 61.736 0.359 7.66 8.87 6.97
6/24/2021 1:30:00 AM 16.49 61.682 0.356 7.66 9.44 6.93
6/24/2021 1:45:00 AM 16.4 61.52 0.356 7.66 9.18 6.79
6/24/2021 2:00:00 AM 16.3 61.34 0.358 7.65 9.48 7.01
6/24/2021 2:15:00 AM 16.19 61.142 0.36 7.65 9.09 6.85
6/24/2021 2:30:00 AM 16.11 60.998 0.36 7.64 8.94 6.86
6/24/2021 2:45:00 AM 16.03 60.854 0.36 7.65 9.81 6.86
6/24/2021 3:00:00 AM 15.88 60.584 0.364 7.64 10.08 6.9
6/24/2021 3:15:00 AM 15.82 60.476 0.363 7.64 9.52 6.87
6/24/2021 3:30:00 AM 15.75 60.35 0.362 7.64 9.55 6.9
6/24/2021 3:45:00 AM 15.67 60.206 0.362 7.64 9.23 7.06
6/24/2021 4:00:00 AM 15.55 59.99 0.364 7.64 9.56 6.94
6/24/2021 4:15:00 AM 15.46 59.828 0.364 7.63 10.42 6.91
6/24/2021 4:30:00 AM 15.37 59.666 0.365 7.63 93.86 7.08
6/24/2021 4:45:00 AM 15.27 59.486 0.366 7.63 21.18 7.11
6/24/2021 5:00:00 AM 15.19 59.342 0.366 7.63 11.04 7.09
6/24/2021 5:15:00 AM 15.1 59.18 0.367 7.63 10.72 6.98
6/24/2021 5:30:00 AM 15.02 59.036 0.367 7.63 11.33 7.16
6/24/2021 5:45:00 AM 14.94 58.892 0.367 7.63 9.88 7.19
6/24/2021 6:00:00 AM 14.86 58.748 0.367 7.63 9.9 7.13
6/24/2021 6:15:00 AM 14.8 58.64 0.367 7.63 9.48 7.29
6/24/2021 6:30:00 AM 14.75 58.55 0.367 7.64 9.36 7.26
6/24/2021 6:45:00 AM 14.69 58.442 0.367 7.64 8.45 7.4
6/24/2021 7:00:00 AM 14.64 58.352 0.368 7.64 8.94 7.36
6/24/2021 7:15:00 AM 14.6 58.28 0.368 7.65 9.36 7.48
6/24/2021 7:30:00 AM 14.58 58.244 0.368 7.65 8.99 7.49
6/24/2021 7:45:00 AM 14.56 58.208 0.367 7.66 8.55 7.57
6/24/2021 8:00:00 AM 14.53 58.154 0.369 7.66 8.93 7.68
6/24/2021 8:15:00 AM 14.53 58.154 0.37 7.66 8.22 7.65
6/24/2021 8:30:00 AM 14.58 58.244 0.369 7.68 7.81 7.87
6/24/2021 8:45:00 AM 14.64 58.352 0.368 7.68 7.6 7.97
6/24/2021 9:00:00 AM 14.71 58.478 0.368 7.7 7.69 7.91
6/24/2021 9:15:00 AM 14.8 58.64 0.368 7.7 7.3 8.02
6/24/2021 9:30:00 AM 14.87 58.766 0.371 7.7 6.91 8.11
6/24/2021 9:45:00 AM 15.05 59.09 0.368 7.72 6.82 8.39
6/24/2021 10:00:00 AM 15.17 59.306 0.369 7.73 7.83 8.37
6/24/2021 10:15:00 AM 15.34 59.612 0.367 7.75 7.64 8.44
6/24/2021 10:30:00 AM 15.46 59.828 0.37 7.75 7.44 8.58
6/24/2021 10:45:00 AM 15.62 60.116 0.372 7.74 6.74 8.68
6/24/2021 11:00:00 AM 15.83 60.494 0.367 7.78 7.54 8.79
6/24/2021 11:15:00 AM 15.99 60.782 0.369 7.79 6.51 8.91
6/24/2021 11:30:00 AM 16.14 61.052 0.369 7.79 6.48 8.82
6/24/2021 11:45:00 AM 16.37 61.466 0.369 7.81 6.58 8.99
6/24/2021 12:00:00 PM 16.6 61.88 0.367 7.84 6.65 9.12
6/24/2021 12:15:00 PM 16.77 62.186 0.367 7.85 7.21 9.3
6/24/2021 12:30:00 PM 16.96 62.528 0.367 7.86 6.32 9.41
6/24/2021 12:45:00 PM 17.18 62.924 0.366 7.87 6.32 9.38
6/24/2021 1:00:00 PM 17.31 63.158 0.37 7.87 6.21 9.53
6/24/2021 1:15:00 PM 17.53 63.554 0.368 7.88 6.53 9.52
6/24/2021 1:30:00 PM 17.69 63.842 0.369 7.88 6.07 9.56
6/24/2021 1:45:00 PM 17.89 64.202 0.369 7.91 5.96 9.42
6/24/2021 2:00:00 PM 18.09 64.562 0.368 7.92 8.33 9.66
6/24/2021 2:15:00 PM 18.22 64.796 0.371 7.92 6.56 9.65
6/24/2021 2:30:00 PM 18.47 65.246 0.37 7.94 6.25 9.71
6/24/2021 2:45:00 PM 18.52 65.336 0.374 7.92 6.71 9.54
6/24/2021 3:00:00 PM 18.84 65.912 0.37 7.97 6.03 9.86
6/24/2021 3:15:00 PM 19.04 66.272 0.368 7.98 5.81 9.67
6/24/2021 3:30:00 PM 19.22 66.596 0.369 7.99 7 9.9
6/24/2021 3:45:00 PM 19.39 66.902 0.367 8 7.04 9.81
6/24/2021 4:00:00 PM 19.49 67.082 0.369 8.01 5.99 9.86
6/24/2021 4:15:00 PM 19.52 67.136 0.37 7.99 5.86 9.62
6/24/2021 4:30:00 PM 19.58 67.244 0.372 7.98 6.03 9.59
6/24/2021 4:45:00 PM 19.75 67.55 0.369 8.01 6.21 9.71
6/24/2021 5:00:00 PM 19.76 67.568 0.372 7.99 6 9.38
6/24/2021 5:15:00 PM 19.91 67.838 0.37 8 5.98 9.26
6/24/2021 5:30:00 PM 19.92 67.856 0.372 8 85.24 9.35
6/24/2021 5:45:00 PM 19.96 67.92799 0.37 7.98 17.76 9.09
6/24/2021 6:00:00 PM 19.89 67.802 0.372 7.98 8.02 8.97
6/24/2021 6:15:00 PM 19.77 67.586 0.373 7.95 15.46 8.8
6/24/2021 6:30:00 PM 19.75 67.55 0.374 7.95 8.65 8.7
6/24/2021 6:45:00 PM 19.6 67.28 0.377 7.92 6.77 8.37
6/24/2021 7:00:00 PM 19.74 67.532 0.375 7.93 6.51 8.45
6/24/2021 7:15:00 PM 19.7 67.46 0.375 7.91 6.19 8.24
6/24/2021 7:30:00 PM 19.62 67.316 0.377 7.89 8.63 8.17
6/24/2021 7:45:00 PM 19.65 67.37 0.375 7.9 6.44 8.04
6/24/2021 8:00:00 PM 19.59 67.262 0.377 7.87 6.28 7.86
6/24/2021 8:15:00 PM 19.51 67.118 0.377 7.86 6.35 7.79
6/24/2021 8:30:00 PM 19.49 67.082 0.376 7.85 6.33 7.73
6/24/2021 8:45:00 PM 19.4 66.92 0.378 7.83 6.4 7.59
6/24/2021 9:00:00 PM 19.31 66.758 0.378 7.82 6.49 7.47
6/24/2021 9:15:00 PM 19.15 66.47 0.382 7.8 6.64 7.34
6/24/2021 9:30:00 PM 19.04 66.272 0.382 7.78 7.47 7.19
6/24/2021 9:45:00 PM 19 66.2 0.382 7.77 7.61 7.12
6/24/2021 10:00:00 PM 18.82 65.876 0.384 7.74 7.69 7
6/24/2021 10:15:00 PM 18.83 65.894 0.383 7.75 7.59 6.97
6/24/2021 10:30:00 PM 18.68 65.624 0.383 7.72 7.65 6.84
6/24/2021 10:45:00 PM 18.63 65.534 0.384 7.73 8.14 6.83
6/24/2021 11:00:00 PM 18.53 65.354 0.382 7.72 8.12 6.84
6/24/2021 11:15:00 PM 18.42 65.156 0.384 7.71 7.72 6.73
6/24/2021 11:30:00 PM 18.33 64.994 0.383 7.7 8.29 6.72
6/24/2021 11:45:00 PM 18.22 64.796 0.385 7.7 8.9 6.72
6/25/2021 12:00:00 AM 18.11 64.598 0.387 7.69 8.69 6.59
6/25/2021 12:15:00 AM 17.9 64.22 0.391 7.66 8.34 6.48
6/25/2021 12:30:00 AM 17.87 64.166 0.389 7.67 9.45 6.63
6/25/2021 12:45:00 AM 17.44 63.392 0.398 7.63 8.65 6.32
6/25/2021 1:00:00 AM 17.46 63.428 0.393 7.62 8.38 6.31
6/25/2021 1:15:00 AM 17.59 63.662 0.388 7.65 8.53 6.47
6/25/2021 1:30:00 AM 17.29 63.122 0.399 7.62 13.28 6.4
6/25/2021 1:45:00 AM 17.14 62.852 0.4 7.59 9.24 6.35
6/25/2021 2:00:00 AM 17.13 62.834 0.397 7.6 8.04 6.19
6/25/2021 2:15:00 AM 16.99 62.582 0.402 7.59 8.13 6.19
6/25/2021 2:30:00 AM 17.12 62.816 0.395 7.62 8.8 6.41
6/25/2021 2:45:00 AM 16.97 62.546 0.397 7.61 7.93 6.38
6/25/2021 3:00:00 AM 16.91 62.438 0.395 7.6 8.47 6.3
6/25/2021 3:15:00 AM 16.87 62.366 0.393 7.61 9.13 6.49
6/25/2021 3:30:00 AM 16.7 62.06 0.398 7.6 8.54 6.35
6/25/2021 3:45:00 AM 16.67 62.006 0.395 7.61 8.4 6.37
6/25/2021 4:00:00 AM 16.56 61.808 0.396 7.6 8.69 6.31
6/25/2021 4:15:00 AM 16.32 61.376 0.402 7.58 8.25 6.12
6/25/2021 4:30:00 AM 16.48 61.664 0.392 7.61 8.66 6.3
6/25/2021 4:45:00 AM 16.38 61.484 0.395 7.59 10.21 6.52
6/25/2021 5:00:00 AM 16.17 61.106 0.401 7.58 8.9 6.35
6/25/2021 5:15:00 AM 16.02 60.836 0.402 7.57 9.22 6.28
6/25/2021 5:30:00 AM 16.01 60.818 0.4 7.59 9.7 6.41
6/25/2021 5:45:00 AM 15.79 60.422 0.407 7.56 14.74 6.35
6/25/2021 6:00:00 AM 15.71 60.278 0.407 7.58 9.35 6.19
6/25/2021 6:15:00 AM 15.8 60.44 0.401 7.59 8.47 6.37
6/25/2021 6:30:00 AM 15.82 60.476 0.399 7.6 9.46 6.52
6/25/2021 6:45:00 AM 15.67 60.206 0.404 7.59 8.95 6.47
6/25/2021 7:00:00 AM 15.55 59.99 0.406 7.58 8.57 6.53
6/25/2021 7:15:00 AM 15.57 60.026 0.405 7.59 7.98 6.68
6/25/2021 7:30:00 AM 15.45 59.81 0.407 7.58 35.64 6.74
6/25/2021 7:45:00 AM 15.5 59.9 0.404 7.6 11.93 6.92
6/25/2021 8:00:00 AM 15.47 59.846 0.406 7.59 8.7 6.91
6/25/2021 8:15:00 AM 15.61 60.098 0.399 7.63 7.78 6.96
6/25/2021 8:30:00 AM 15.81 60.458 0.396 7.66 7.93 7.26
6/25/2021 8:45:00 AM 15.8 60.44 0.396 7.67 7.87 7.5
6/25/2021 9:00:00 AM 15.84 60.512 0.398 7.68 7.89 7.56
6/25/2021 9:15:00 AM 15.87 60.566 0.398 7.69 7.06 7.75
6/25/2021 9:30:00 AM 16.08 60.944 0.396 7.72 7.02 7.93
6/25/2021 9:45:00 AM 16.02 60.836 0.399 7.7 9.13 7.98
6/25/2021 10:00:00 AM 16.27 61.286 0.395 7.74 7.05 8.07
6/25/2021 10:15:00 AM 16.24 61.232 0.401 7.73 6.32 8.33
6/25/2021 10:30:00 AM 16.44 61.592 0.398 7.76 6.49 8.25
6/25/2021 10:45:00 AM 16.6 61.88 0.396 7.77 6.11 8.46
6/25/2021 11:00:00 AM 16.61 61.898 0.398 7.75 5.94 8.32
6/25/2021 11:15:00 AM 16.77 62.186 0.4 7.77 6.15 8.56
6/25/2021 11:30:00 AM 16.73 62.114 0.41 7.75 5.77 8.36
6/25/2021 11:45:00 AM 16.93 62.474 0.405 7.76 5.81 8.46
6/25/2021 12:00:00 PM 17.15 62.87 0.404 7.78 6 8.5
6/25/2021 12:15:00 PM 17.4 63.32 0.402 7.82 6.1 9.04
6/25/2021 12:30:00 PM 17.61 63.698 0.401 7.85 5.93 9.16
6/25/2021 12:45:00 PM 17.1 62.78 0.421 7.73 5.06 8.05
6/25/2021 1:00:00 PM 17.79 64.022 0.405 7.84 20.03 9.14
6/25/2021 1:15:00 PM 18.03 64.454 0.405 7.85 7.96 8.93
6/25/2021 1:30:00 PM 18.31 64.958 0.402 7.89 5.99 9.2
6/25/2021 1:45:00 PM 18.34 65.012 0.405 7.85 5.37 8.92
6/25/2021 2:00:00 PM 18.44 65.192 0.407 7.89 5.36 9.22
6/25/2021 2:15:00 PM 18.21 64.778 0.414 7.86 4.96 9.03
6/25/2021 2:30:00 PM 18.73 65.714 0.403 7.91 5.07 9.3
6/25/2021 2:45:00 PM 18.9 66.02 0.403 7.91 5.29 9.48
6/25/2021 3:00:00 PM 19.19 66.542 0.398 7.96 5.7 9.53
6/25/2021 3:15:00 PM 19.05 66.29 0.401 7.95 5.72 9.38
6/25/2021 3:30:00 PM 19.37 66.866 0.396 7.97 5.58 9.52
6/25/2021 3:45:00 PM 19.2 66.56 0.403 7.91 5.39 9.11
6/25/2021 4:00:00 PM 19.46 67.028 0.398 7.95 5.47 9.35
6/25/2021 4:15:00 PM 19.16 66.488 0.408 7.93 5.29 9
6/25/2021 4:30:00 PM 19.13 66.434 0.409 7.94 5.38 8.89
6/25/2021 4:45:00 PM 19.33 66.794 0.404 7.95 5.41 8.76
6/25/2021 5:00:00 PM 19.59 67.262 0.404 7.95 5.53 8.72
6/25/2021 5:15:00 PM 19.74 67.532 0.4 7.94 5.49 9.33
6/25/2021 5:30:00 PM 19.43 66.974 0.407 7.91 5.5 8.64
6/25/2021 5:45:00 PM 19.59 67.262 0.403 7.91 5.64 8.13
6/25/2021 6:00:00 PM 19.54 67.172 0.404 7.92 5.65 8.66
6/25/2021 6:15:00 PM 19.31 66.758 0.41 7.87 5.55 7.79
6/25/2021 6:30:00 PM 19.21 66.578 0.413 7.79 5.37 7.73
6/25/2021 6:45:00 PM 19.38 66.884 0.406 7.87 5.63 7.95
6/25/2021 7:00:00 PM 19.47 67.046 0.406 7.85 5.36 7.98
6/25/2021 7:15:00 PM 19.45 67.01 0.403 7.84 7.23 7.69
6/25/2021 7:30:00 PM 19.22 66.596 0.411 7.81 5.69 7.54
6/25/2021 7:45:00 PM 19.02 66.236 0.415 7.78 5.51 7.26
6/25/2021 8:00:00 PM 19.1 66.38 0.414 7.75 5.5 7.1
6/25/2021 8:15:00 PM 19.4 66.92 0.408 7.8 5.69 7.34
6/25/2021 8:30:00 PM 19.38 66.884 0.408 7.79 5.68 7.29
6/25/2021 8:45:00 PM 18.97 66.146 0.417 7.74 5.69 6.87
6/25/2021 9:00:00 PM 19.43 66.974 0.405 7.79 6.88 7.04
6/25/2021 9:15:00 PM 19.1 66.38 0.411 7.73 6.76 6.55
6/25/2021 9:30:00 PM 19.03 66.254 0.411 7.73 6.75 6.67
6/25/2021 9:45:00 PM 18.98 66.164 0.411 7.71 6.83 6.42
6/25/2021 10:00:00 PM 18.76 65.768 0.414 7.71 7.07 6.39
6/25/2021 10:15:00 PM 19.18 66.524 0.407 7.74 7.45 6.7
6/25/2021 10:30:00 PM 19.04 66.272 0.404 7.72 7.25 6.34
6/25/2021 10:45:00 PM 18.85 65.93 0.409 7.7 7.43 6.35
6/25/2021 11:00:00 PM 18.62 65.516 0.414 7.68 7.06 6.42
6/25/2021 11:15:00 PM 18.85 65.93 0.409 7.69 7.65 6.41
6/25/2021 11:30:00 PM 18.4 65.12 0.414 7.63 7.34 6.12
6/25/2021 11:45:00 PM 18.03 64.454 0.422 7.6 6.98 5.77
6/26/2021 12:00:00 AM 18.32 64.976 0.414 7.65 7.67 6.1
6/26/2021 12:15:00 AM 17.93 64.274 0.422 7.61 7.35 5.89
6/26/2021 12:30:00 AM 17.32 63.176 0.436 7.55 7.69 5.63
6/26/2021 12:45:00 AM 17.67 63.806 0.426 7.58 8.27 5.82
6/26/2021 1:00:00 AM 17.69 63.842 0.423 7.58 7.69 5.72
6/26/2021 1:15:00 AM 17.67 63.806 0.422 7.61 7.47 5.89
6/26/2021 1:30:00 AM 17.95 64.31 0.413 7.61 7.99 5.97
6/26/2021 1:45:00 AM 17.71 63.878 0.415 7.61 7.47 5.87
6/26/2021 2:00:00 AM 17.95 64.31 0.409 7.64 7.58 6.07
6/26/2021 2:15:00 AM 17.95 64.31 0.411 7.64 7.86 6.17
6/26/2021 2:30:00 AM 17.68 63.824 0.414 7.62 7.53 5.87
6/26/2021 2:45:00 AM 17.75 63.95 0.411 7.63 7.93 6.1
6/26/2021 3:00:00 AM 17.58 63.644 0.414 7.61 8.05 6.11
6/26/2021 3:15:00 AM 17.42 63.356 0.418 7.57 7.99 5.74
6/26/2021 3:30:00 AM 17.27 63.086 0.423 7.56 7.92 5.9
6/26/2021 3:45:00 AM 17.45 63.41 0.413 7.58 9.38 5.93
6/26/2021 4:00:00 AM 17.38 63.284 0.413 7.6 10.63 6.09
6/26/2021 4:15:00 AM 17.44 63.392 0.414 7.62 9.48 6.2
6/26/2021 4:30:00 AM 17.21 62.978 0.416 7.59 8.33 5.93
6/26/2021 4:45:00 AM 16.88 62.384 0.425 7.54 8.93 5.83
6/26/2021 5:00:00 AM 17.35 63.23 0.413 7.61 8.91 6.19
6/26/2021 5:15:00 AM 17.19 62.942 0.415 7.6 8.65 6.07
6/26/2021 5:30:00 AM 17 62.6 0.424 7.57 8.99 5.91
6/26/2021 5:45:00 AM 17.06 62.708 0.419 7.58 10.19 6.04
6/26/2021 6:00:00 AM 16.99 62.582 0.419 7.58 8.44 5.97
6/26/2021 6:15:00 AM 17.12 62.816 0.415 7.6 8.52 6.11
6/26/2021 6:30:00 AM 16.99 62.582 0.423 7.57 8.71 5.82
6/26/2021 6:45:00 AM 16.61 61.898 0.433 7.56 7.82 5.78
6/26/2021 7:00:00 AM 16.82 62.276 0.421 7.58 7.53 6.01
6/26/2021 7:15:00 AM 17.07 62.726 0.417 7.61 8.31 6.34
6/26/2021 7:30:00 AM 17.02 62.636 0.416 7.62 7.7 6.36
6/26/2021 7:45:00 AM 16.83 62.294 0.423 7.6 7.47 6.15
6/26/2021 8:00:00 AM 16.83 62.294 0.422 7.6 7.56 6.08
6/26/2021 8:15:00 AM 16.79 62.222 0.424 7.59 7.15 6.22
6/26/2021 8:30:00 AM 16.66 61.988 0.429 7.61 6.45 6.36
6/26/2021 8:45:00 AM 16.93 62.474 0.421 7.61 6.58 6.32
6/26/2021 9:00:00 AM 16.63 61.934 0.431 7.59 6.93 6.4
6/26/2021 9:15:00 AM 16.81 62.258 0.427 7.62 6.78 6.67
6/26/2021 9:30:00 AM 16.9 62.42 0.426 7.64 6.44 6.78
6/26/2021 9:45:00 AM 16.83 62.294 0.43 7.63 5.94 6.66
6/26/2021 10:00:00 AM 16.76 62.168 0.43 7.62 6.53 6.61
6/26/2021 10:15:00 AM 17.15 62.87 0.421 7.69 5.94 7.27
6/26/2021 10:30:00 AM 17.43 63.374 0.418 7.72 8.91 7.72
6/26/2021 10:45:00 AM 17.6 63.68 0.414 7.75 6.33 7.75
6/26/2021 11:00:00 AM 17.4 63.32 0.423 7.7 5.76 7.57
6/26/2021 11:15:00 AM 17.64 63.752 0.419 7.73 6.27 7.9
6/26/2021 11:30:00 AM 17.41 63.338 0.426 7.68 6 7.22
6/26/2021 11:45:00 AM 17.65 63.77 0.423 7.72 5.52 7.74
6/26/2021 12:00:00 PM 18.11 64.598 0.416 7.8 5.64 8.2
6/26/2021 12:15:00 PM 18.15 64.67 0.418 7.79 6.15 8.18
6/26/2021 12:30:00 PM 18.17 64.706 0.417 7.77 7.63 7.98
6/26/2021 12:45:00 PM 18.3 64.94 0.42 7.76 6.52 8.23
6/26/2021 1:00:00 PM 18.65 65.57 0.413 7.83 5.8 8.41
6/26/2021 1:15:00 PM 18.78 65.804 0.415 7.82 5.5 8.72
6/26/2021 1:30:00 PM 19.2 66.56 0.412 7.85 5.6 8.5
6/26/2021 1:45:00 PM 19.41 66.938 0.413 7.87 5.52 8.7
6/26/2021 2:00:00 PM 19.4 66.92 0.416 7.83 5.5 8.74
6/26/2021 2:15:00 PM 19.91 67.838 0.407 7.9 5.74 8.71
6/26/2021 2:30:00 PM 20 68 0.409 7.9 5.84 9
6/26/2021 2:45:00 PM 20.34 68.612 0.407 7.94 5.39 8.95
6/26/2021 3:00:00 PM 20.35 68.63 0.412 7.9 5.25 9
6/26/2021 3:15:00 PM 20.46 68.828 0.412 7.93 5.61 9.47
6/26/2021 3:30:00 PM 20.68 69.224 0.411 7.96 5.74 9.35
6/26/2021 3:45:00 PM 20.85 69.53 0.41 7.96 5.39 9.46
6/26/2021 4:00:00 PM 21.04 69.872 0.407 7.97 5.48 9.22
6/26/2021 4:15:00 PM 20.75 69.35 0.412 7.9 5.29 8.93
6/26/2021 4:30:00 PM 21.04 69.872 0.41 7.95 5.26 9.05
6/26/2021 4:45:00 PM 20.94 69.692 0.412 7.9 5.56 8.74
6/26/2021 5:00:00 PM 21.17 70.106 0.409 7.96 5.47 8.96
6/26/2021 5:15:00 PM 21.3 70.34 0.407 7.97 5.26 8.94
6/26/2021 5:30:00 PM 21.05 69.89 0.413 7.93 5.51 8.78
6/26/2021 5:45:00 PM 21.08 69.944 0.411 7.93 5.41 8.67
6/26/2021 6:00:00 PM 21.2 70.16 0.408 7.89 5.53 8.6
6/26/2021 6:15:00 PM 21.05 69.89 0.409 7.88 5.33 8.55
6/26/2021 6:30:00 PM 21.03 69.854 0.41 7.87 5.46 8.05
6/26/2021 6:45:00 PM 20.86 69.548 0.412 7.86 5.56 7.98
6/26/2021 7:00:00 PM 20.9 69.62 0.412 7.88 5.49 7.83
6/26/2021 7:15:00 PM 20.65 69.17 0.416 7.84 5.55 7.57
6/26/2021 7:30:00 PM 20.59 69.062 0.415 7.76 5.53 7.44
6/26/2021 7:45:00 PM 20.57 69.026 0.415 7.79 5.63 7.34
6/26/2021 8:00:00 PM 20.57 69.026 0.413 7.79 5.32 6.96
6/26/2021 8:15:00 PM 20.91 69.638 0.409 7.85 5.6 7.26
6/26/2021 8:30:00 PM 20.82 69.476 0.41 7.83 5.9 7.15
6/26/2021 8:45:00 PM 20.61 69.098 0.414 7.78 6.79 6.89
6/26/2021 9:00:00 PM 20.47 68.846 0.415 7.75 11.19 6.78
6/26/2021 9:15:00 PM 20.36 68.648 0.418 7.73 7.99 6.64
6/26/2021 9:30:00 PM 20.13 68.234 0.422 7.71 6.8 6.4
6/26/2021 9:45:00 PM 19.99 67.982 0.424 7.71 6.91 6.24
6/26/2021 10:00:00 PM 20.25 68.45 0.416 7.71 6.74 6.15
6/26/2021 10:15:00 PM 20.3 68.54 0.414 7.72 7.48 6.21
6/26/2021 10:30:00 PM 20.05 68.09 0.42 7.67 8.86 6.04
6/26/2021 10:45:00 PM 19.84 67.712 0.422 7.65 7.35 5.63
6/26/2021 11:00:00 PM 20.16 68.288 0.417 7.67 7.79 5.89
6/26/2021 11:15:00 PM 20.2 68.36 0.417 7.69 8.01 5.85
6/26/2021 11:30:00 PM 19.86 67.748 0.422 7.64 7.94 5.87
6/26/2021 11:45:00 PM 20.09 68.162 0.416 7.67 7.64 5.79
6/27/2021 12:00:00 AM 19.82 67.676 0.42 7.65 7.62 5.82
6/27/2021 12:15:00 AM 19.66 67.388 0.424 7.63 7.73 5.71
6/27/2021 12:30:00 AM 19.81 67.658 0.418 7.65 7.59 5.76
6/27/2021 12:45:00 AM 19.55 67.19 0.424 7.63 7.91 5.51
6/27/2021 1:00:00 AM 19.44 66.992 0.425 7.62 7.58 5.54
6/27/2021 1:15:00 AM 19.53 67.154 0.423 7.63 8.04 5.67
6/27/2021 1:30:00 AM 19.59 67.262 0.42 7.63 7.75 5.58
6/27/2021 1:45:00 AM 19.3 66.74 0.423 7.6 8.27 5.57
6/27/2021 2:00:00 AM 19.38 66.884 0.422 7.62 7.72 5.63
6/27/2021 2:15:00 AM 19.13 66.434 0.425 7.59 8.2 5.58
6/27/2021 2:30:00 AM 19.25 66.65 0.423 7.61 7.75 5.52
6/27/2021 2:45:00 AM 18.79 65.82201 0.434 7.58 7.55 5.44
6/27/2021 3:00:00 AM 18.95 66.11 0.426 7.59 8.31 5.47
6/27/2021 3:15:00 AM 18.81 65.858 0.428 7.57 8.51 5.44
6/27/2021 3:30:00 AM 18.87 65.966 0.427 7.58 8.47 5.42
6/27/2021 3:45:00 AM 18.8 65.84 0.429 7.57 8.1 5.45
6/27/2021 4:00:00 AM 18.9 66.02 0.426 7.6 8.8 5.57
6/27/2021 4:15:00 AM 18.83 65.894 0.426 7.59 8.85 5.51
6/27/2021 4:30:00 AM 18.7 65.66 0.425 7.59 9.16 5.46
6/27/2021 4:45:00 AM 18.51 65.318 0.429 7.57 8.45 5.59
6/27/2021 5:00:00 AM 18.37 65.066 0.433 7.56 8.46 5.48
6/27/2021 5:15:00 AM 17.98 64.364 0.439 7.53 8.27 5.13
6/27/2021 5:30:00 AM 18.29 64.922 0.431 7.56 8.91 5.34
6/27/2021 5:45:00 AM 18.24 64.832 0.432 7.54 8.23 5.35
6/27/2021 6:00:00 AM 18.27 64.886 0.434 7.58 7.83 5.55
6/27/2021 6:15:00 AM 18.25 64.85 0.433 7.59 7.66 5.58
6/27/2021 6:30:00 AM 18.16 64.688 0.434 7.57 7.69 5.51
6/27/2021 6:45:00 AM 18.19 64.742 0.431 7.59 7.96 5.77
6/27/2021 7:00:00 AM 18 64.4 0.434 7.57 7.67 5.61
6/27/2021 7:15:00 AM 17.79 64.022 0.441 7.54 7.39 5.56
6/27/2021 7:30:00 AM 18.01 64.418 0.437 7.56 7.4 5.75
6/27/2021 7:45:00 AM 18.15 64.67 0.431 7.6 7.28 5.86
6/27/2021 8:00:00 AM 17.95 64.31 0.435 7.59 7.84 5.87
6/27/2021 8:15:00 AM 18.12 64.616 0.432 7.61 6.92 6.09
6/27/2021 8:30:00 AM 18.21 64.778 0.43 7.63 7.04 6.17
6/27/2021 8:45:00 AM 18.28 64.904 0.431 7.63 6.96 6.3
6/27/2021 9:00:00 AM 18.05 64.49 0.436 7.62 6.96 6.28
6/27/2021 9:15:00 AM 18.22 64.796 0.435 7.6 6.65 6.35
6/27/2021 9:30:00 AM 18.39 65.102 0.432 7.64 6.36 6.68
6/27/2021 9:45:00 AM 18.57 65.426 0.433 7.65 6.35 6.92
6/27/2021 10:00:00 AM 18.61 65.498 0.434 7.66 6.48 6.96
6/27/2021 10:15:00 AM 18.89 66.002 0.43 7.68 6.29 7.22
6/27/2021 10:30:00 AM 19.02 66.236 0.427 7.7 6.66 7.21
6/27/2021 10:45:00 AM 18.97 66.146 0.431 7.7 6.02 7.35
6/27/2021 11:00:00 AM 18.98 66.164 0.432 7.7 5.74 7.44
6/27/2021 11:15:00 AM 19.29 66.722 0.43 7.73 6.12 7.53
6/27/2021 11:30:00 AM 19.11 66.398 0.434 7.7 5.82 7.47
6/27/2021 11:45:00 AM 19.71 67.478 0.426 7.78 5.76 7.83
6/27/2021 12:00:00 PM 19.95 67.91 0.423 7.81 6.98 8.25
6/27/2021 12:15:00 PM 19.87 67.766 0.427 7.78 5.94 8.12
6/27/2021 12:30:00 PM 19.95 67.91 0.427 7.78 5.58 8.11
6/27/2021 12:45:00 PM 20.14 68.252 0.425 7.79 5.54 8.17
6/27/2021 1:00:00 PM 20.54 68.972 0.423 7.82 5.86 8.39
6/27/2021 1:15:00 PM 20.7 69.26 0.425 7.84 5.7 8.65
6/27/2021 1:30:00 PM 20.6 69.08 0.426 7.8 5.72 8.72
6/27/2021 1:45:00 PM 20.82 69.476 0.424 7.87 6.11 8.82
6/27/2021 2:00:00 PM 21.02 69.836 0.422 7.89 5.64 8.86
6/27/2021 2:15:00 PM 21.22 70.196 0.421 7.89 5.48 8.78
6/27/2021 2:30:00 PM 21.34 70.412 0.42 7.89 5.56 8.87
6/27/2021 2:45:00 PM 21.49 70.682 0.421 7.89 5.89 8.68
6/27/2021 3:00:00 PM 21.03 69.854 0.428 7.81 5.46 8.6
6/27/2021 3:15:00 PM 21.38 70.484 0.423 7.86 7.35 8.61
6/27/2021 3:30:00 PM 21.82 71.276 0.42 7.9 7.94 8.66
6/27/2021 3:45:00 PM 21.39 70.502 0.427 7.82 5.94 8.62
6/27/2021 4:00:00 PM 21.62 70.916 0.424 7.84 5.55 8.46
6/27/2021 4:15:00 PM 21.65 70.97 0.424 7.86 5.7 8.6
6/27/2021 4:30:00 PM 21.91 71.438 0.42 7.9 5.55 8.43
6/27/2021 4:45:00 PM 22.21 71.978 0.417 7.9 5.71 8.37
6/27/2021 5:00:00 PM 21.9 71.42 0.422 7.84 7.27 8.24
6/27/2021 5:15:00 PM 22.08 71.744 0.421 7.84 5.84 8.65
6/27/2021 5:30:00 PM 22.4 72.32 0.416 7.9 6.05 8.34
6/27/2021 5:45:00 PM 22.38 72.284 0.415 7.87 5.73 8.05
6/27/2021 6:00:00 PM 22.25 72.05 0.417 7.87 5.59 8.21
6/27/2021 6:15:00 PM 22.47 72.446 0.414 7.9 5.74 8.17
6/27/2021 6:30:00 PM 22.38 72.284 0.414 7.87 5.66 8
6/27/2021 6:45:00 PM 22.05 71.69 0.42 7.84 81.74 7.51
6/27/2021 7:00:00 PM 21.82 71.276 0.423 7.8 19.9 7.43
6/27/2021 7:15:00 PM 22.11 71.798 0.419 7.81 7.66 7.16
6/27/2021 7:30:00 PM 21.73 71.114 0.424 7.77 8.58 6.85
6/27/2021 7:45:00 PM 22.14 71.852 0.417 7.8 6.56 7.07
6/27/2021 8:00:00 PM 21.84 71.312 0.421 7.73 5.89 6.82
6/27/2021 8:15:00 PM 22.05 71.69 0.418 7.77 6.39 6.57
6/27/2021 8:30:00 PM 21.69 71.042 0.423 7.73 6.4 6.48
6/27/2021 8:45:00 PM 22 71.6 0.418 7.76 6.52 6.57
6/27/2021 9:00:00 PM 21.92 71.456 0.419 7.74 6.35 6.38
6/27/2021 9:15:00 PM 21.66 70.988 0.42 7.71 6.51 6.3
6/27/2021 9:30:00 PM 21.83 71.294 0.419 7.72 6.76 6.21
6/27/2021 9:45:00 PM 21.95 71.51 0.418 7.71 7.21 5.99
6/27/2021 10:00:00 PM 21.74 71.132 0.422 7.68 6.96 5.97
6/27/2021 10:15:00 PM 21.47 70.646 0.426 7.65 7.1 5.85
6/27/2021 10:30:00 PM 21.38 70.484 0.426 7.66 7.31 5.71
6/27/2021 10:45:00 PM 21.34 70.412 0.426 7.65 7.33 5.74
6/27/2021 11:00:00 PM 21.47 70.646 0.423 7.65 7.08 5.48
6/27/2021 11:15:00 PM 21.71 71.078 0.42 7.66 7.55 5.59
6/27/2021 11:30:00 PM 21.41 70.538 0.423 7.64 7.94 5.5
6/27/2021 11:45:00 PM 21.45 70.61 0.423 7.63 7.57 5.46
6/28/2021 12:00:00 AM 21.01 69.818 0.427 7.61 7.61 5.41
6/28/2021 12:15:00 AM 20.97 69.746 0.432 7.6 7.73 5.44
6/28/2021 12:30:00 AM 21.02 69.836 0.427 7.6 7.39 5.29
6/28/2021 12:45:00 AM 20.91 69.638 0.427 7.6 7.62 5.28
6/28/2021 1:00:00 AM 20.91 69.638 0.429 7.59 7.38 5.2
6/28/2021 1:15:00 AM 21.04 69.872 0.426 7.62 8.36 5.25
6/28/2021 1:30:00 AM 20.96 69.728 0.427 7.6 7.98 5.27
6/28/2021 1:45:00 AM 20.79 69.422 0.429 7.6 8.11 5.27
6/28/2021 2:00:00 AM 20.47 68.846 0.432 7.59 7.59 5.25
6/28/2021 2:15:00 AM 20.58 69.044 0.428 7.59 7.69 5.17
6/28/2021 2:30:00 AM 20.62 69.116 0.427 7.59 8.18 5.26
6/28/2021 2:45:00 AM 20.35 68.63 0.432 7.58 8.11 5.22
6/28/2021 3:00:00 AM 19.93 67.874 0.435 7.55 7.96 5.13
6/28/2021 3:15:00 AM 19.98 67.964 0.434 7.55 7.94 5.12
6/28/2021 3:30:00 AM 20.08 68.144 0.431 7.56 7.82 5.19
6/28/2021 3:45:00 AM 20.05 68.09 0.431 7.57 8.04 5.22
6/28/2021 4:00:00 AM 20.06 68.108 0.431 7.57 8.03 5.25
6/28/2021 4:15:00 AM 19.93 67.874 0.432 7.57 8.36 5.18
6/28/2021 4:30:00 AM 19.62 67.316 0.435 7.54 8.38 5.16
6/28/2021 4:45:00 AM 19.81 67.658 0.431 7.57 8.11 5.25
6/28/2021 5:00:00 AM 19.76 67.568 0.431 7.56 11.03 5.21
6/28/2021 5:15:00 AM 19.52 67.136 0.433 7.55 9.04 5.11
6/28/2021 5:30:00 AM 19.55 67.19 0.434 7.54 8.89 5.31
6/28/2021 5:45:00 AM 19.26 66.668 0.437 7.54 8.76 5.28
6/28/2021 6:00:00 AM 19.3 66.74 0.436 7.54 9.19 5.2
6/28/2021 6:15:00 AM 19.21 66.578 0.436 7.53 8.66 5.31
6/28/2021 6:30:00 AM 19.21 66.578 0.436 7.55 8.19 5.4
6/28/2021 6:45:00 AM 19.13 66.434 0.436 7.56 7.8 5.43
6/28/2021 7:00:00 AM 19.1 66.38 0.435 7.55 7.97 5.37
6/28/2021 7:15:00 AM 18.9 66.02 0.438 7.55 7.95 5.45
6/28/2021 7:30:00 AM 19.08 66.344 0.434 7.55 7.75 5.5
6/28/2021 7:45:00 AM 18.93 66.074 0.436 7.55 7.85 5.51
6/28/2021 8:00:00 AM 18.72 65.696 0.439 7.56 7.48 5.66
6/28/2021 8:15:00 AM 18.96 66.128 0.435 7.57 7.36 5.77
6/28/2021 8:30:00 AM 19.02 66.236 0.435 7.58 7.13 5.9
6/28/2021 8:45:00 AM 19.04 66.272 0.434 7.59 7.02 6.03
6/28/2021 9:00:00 AM 19.02 66.236 0.436 7.58 6.85 6.11
6/28/2021 9:15:00 AM 19.07 66.326 0.436 7.61 6.66 6.29
6/28/2021 9:30:00 AM 19.05 66.29 0.441 7.6 6.63 6.24
6/28/2021 9:45:00 AM 19.24 66.632 0.434 7.61 6.39 6.44
6/28/2021 10:00:00 AM 19.49 67.082 0.433 7.64 6.31 6.73
6/28/2021 10:15:00 AM 19.72 67.496 0.432 7.65 6.95 6.43
6/28/2021 10:30:00 AM 19.86 67.748 0.432 7.67 6.34 6.98
6/28/2021 10:45:00 AM 20.07 68.126 0.43 7.68 6.09 7.05
6/28/2021 11:00:00 AM 20.42 68.756 0.427 7.72 6.21 7.4
6/28/2021 11:15:00 AM 20.16 68.288 0.434 7.71 6.28 7.35
6/28/2021 11:30:00 AM 20.5 68.9 0.429 7.72 6.12 7.52
6/28/2021 11:45:00 AM 20.42 68.756 0.434 7.72 6.29 7.65
6/28/2021 12:00:00 PM 20.72 69.296 0.431 7.73 6.16 7.58
6/28/2021 12:15:00 PM 21.03 69.854 0.427 7.77 6.29 7.94
6/28/2021 12:30:00 PM 21.06 69.908 0.426 7.78 6.04 7.99
6/28/2021 12:45:00 PM 21.21 70.17799 0.425 7.78 5.99 8
6/28/2021 1:00:00 PM 21.14 70.052 0.429 7.76 6.05 8.13
6/28/2021 1:15:00 PM 21.48 70.664 0.427 7.8 5.93 8.22
6/28/2021 1:30:00 PM 21.85 71.33 0.424 7.81 5.98 8.33
6/28/2021 1:45:00 PM 20.76 69.368 0.394 7.32 5.34 7.97
6/28/2021 2:00:00 PM 21.86 71.348 0.422 7.74 5.67 8.19
6/28/2021 2:15:00 PM 22.19 71.942 0.423 7.81 5.98 8.28
6/28/2021 2:30:00 PM 22.36 72.248 0.424 7.83 6.01 8.43
6/28/2021 2:45:00 PM 22.79 73.022 0.42 7.86 5.82 8.62
6/28/2021 3:00:00 PM 23.07 73.526 0.42 7.88 5.92 8.72
6/28/2021 3:15:00 PM 23.2 73.76 0.419 7.89 15.9 8.48
6/28/2021 3:30:00 PM 23.26 73.868 0.419 7.87 7.53 8.64
6/28/2021 3:45:00 PM 23.15 73.67 0.421 7.85 6.93 8.35
6/28/2021 4:00:00 PM 23.26 73.868 0.421 7.87 6.9 8.49
6/28/2021 4:15:00 PM 23.33 73.994 0.419 7.88 6.09 8.51
6/28/2021 4:30:00 PM 23.11 73.598 0.421 7.86 7.03 8.36
6/28/2021 4:45:00 PM 22.98 73.364 0.422 7.84 7 7.83
6/28/2021 5:00:00 PM 22.91 73.238 0.42 7.83 6.98 7.87
6/28/2021 5:15:00 PM 23.14 73.652 0.416 7.85 7.46 7.84
6/28/2021 5:30:00 PM 22.68 72.824 0.422 7.8 6.27 7.53
6/28/2021 5:45:00 PM 23.01 73.418 0.417 7.83 7.84 7.49
6/28/2021 6:00:00 PM 22.94 73.292 0.418 7.83 6.39 7.49
6/28/2021 6:15:00 PM 22.98 73.364 0.418 7.83 153.3 7.4
6/28/2021 6:30:00 PM 22.97 73.346 0.417 7.82 26.42 7.33
6/28/2021 6:45:00 PM 22.71 72.878 0.421 7.78 8.77 7.13
6/28/2021 7:00:00 PM 22.63 72.734 0.421 7.77 6.36 6.92
6/28/2021 7:15:00 PM 22.61 72.698 0.421 7.76 6.09 6.82
6/28/2021 7:30:00 PM 22.85 73.13 0.418 7.78 6.19 6.76
6/28/2021 7:45:00 PM 22.62 72.716 0.42 7.76 5.93 6.5
6/28/2021 8:00:00 PM 22.67 72.806 0.419 7.74 6.01 6.45
6/28/2021 8:15:00 PM 22.38 72.284 0.423 7.71 6.31 6.38
6/28/2021 8:30:00 PM 22.6 72.68 0.421 7.72 6.61 6.37
6/28/2021 8:45:00 PM 22.56 72.608 0.42 7.72 6.83 6.21
6/28/2021 9:00:00 PM 22.39 72.302 0.421 7.7 6.87 6.08
6/28/2021 9:15:00 PM 22.37 72.266 0.422 7.69 7 6.04
6/28/2021 9:30:00 PM 22.26 72.068 0.423 7.67 7.21 5.95
6/28/2021 9:45:00 PM 22.3 72.14 0.424 7.66 8.2 5.83
6/28/2021 10:00:00 PM 22.27 72.086 0.424 7.66 7.75 5.53
6/28/2021 10:15:00 PM 22.21 71.978 0.424 7.65 7.93 5.54
6/28/2021 10:30:00 PM 22.31 72.158 0.423 7.65 7.96 5.61
6/28/2021 10:45:00 PM 22.25 72.05 0.424 7.63 7.97 5.49
6/28/2021 11:00:00 PM 22.1 71.78 0.425 7.63 7.85 5.42
6/28/2021 11:15:00 PM 22.14 71.852 0.424 7.63 7.96 5.38
6/28/2021 11:30:00 PM 22.11 71.798 0.424 7.61 7.93 5.22
6/28/2021 11:45:00 PM 22.05 71.69 0.424 7.61 8.29 5.3
6/29/2021 12:00:00 AM 22.05 71.69 0.423 7.6 13.32 5.22
6/29/2021 12:15:00 AM 21.73 71.114 0.427 7.6 9.11 5.17
6/29/2021 12:30:00 AM 21.69 71.042 0.427 7.58 8.68 5.08
6/29/2021 12:45:00 AM 21.76 71.168 0.425 7.59 8.89 5.2
6/29/2021 1:00:00 AM 21.52 70.736 0.428 7.58 8.07 5.13
6/29/2021 1:15:00 AM 21.3 70.34 0.431 7.57 7.95 5.13
6/29/2021 1:30:00 AM 21.39 70.502 0.428 7.58 8.4 5.2
6/29/2021 1:45:00 AM 21.23 70.214 0.429 7.58 8.2 5.06
6/29/2021 2:00:00 AM 21.14 70.052 0.43 7.57 7.96 5.12
6/29/2021 2:15:00 AM 21.19 70.142 0.429 7.58 8.79 5.12
6/29/2021 2:30:00 AM 21.14 70.052 0.428 7.58 8.33 5.14
6/29/2021 2:45:00 AM 20.79 69.422 0.432 7.56 8.16 5.11
6/29/2021 3:00:00 AM 20.85 69.53 0.43 7.57 9.3 5.12
6/29/2021 3:15:00 AM 20.85 69.53 0.429 7.58 8.91 5.22
6/29/2021 3:30:00 AM 20.63 69.134 0.432 7.56 9.19 5.17
6/29/2021 3:45:00 AM 20.61 69.098 0.432 7.57 8.82 5.21
6/29/2021 4:00:00 AM 20.31 68.558 0.436 7.56 8.83 5.13
6/29/2021 4:15:00 AM 20.23 68.414 0.435 7.55 8.73 5.14
6/29/2021 4:30:00 AM 20.3 68.54 0.434 7.56 8.71 5.2
6/29/2021 4:45:00 AM 20.39 68.702 0.432 7.57 8.86 5.32
6/29/2021 5:00:00 AM 20.25 68.45 0.434 7.56 13.26 5.24
6/29/2021 5:15:00 AM 20.05 68.09 0.435 7.56 9.86 5.21
6/29/2021 5:30:00 AM 19.58 67.244 0.442 7.53 22.09 5.15
6/29/2021 5:45:00 AM 19.72 67.496 0.44 7.54 10.96 5.21
6/29/2021 6:00:00 AM 19.78 67.604 0.437 7.55 9.36 5.24
6/29/2021 6:15:00 AM 19.82 67.676 0.435 7.55 9.82 5.35
6/29/2021 6:30:00 AM 19.63 67.334 0.439 7.54 8.74 5.23
6/29/2021 6:45:00 AM 19.82 67.676 0.436 7.56 8.32 5.43
6/29/2021 7:00:00 AM 19.6 67.28 0.438 7.55 7.95 5.48
6/29/2021 7:15:00 AM 19.56 67.208 0.437 7.55 7.89 5.47
6/29/2021 7:30:00 AM 19.55 67.19 0.438 7.55 7.68 5.65
6/29/2021 7:45:00 AM 19.83 67.694 0.434 7.58 8.46 5.75
6/29/2021 8:00:00 AM 19.79 67.622 0.434 7.59 8.9 5.65
6/29/2021 8:15:00 AM 19.81 67.658 0.434 7.6 8.11 5.81
6/29/2021 8:30:00 AM 19.86 67.748 0.433 7.61 7.81 5.92
6/29/2021 8:45:00 AM 19.84 67.712 0.433 7.61 7.75 6.19
6/29/2021 9:00:00 AM 19.72 67.496 0.435 7.62 8.15 6.16
6/29/2021 9:15:00 AM 19.48 67.064 0.441 7.61 6.96 6.14
6/29/2021 9:30:00 AM 19.87 67.766 0.434 7.62 6.7 6.22
6/29/2021 9:45:00 AM 20.19 68.342 0.43 7.66 6.57 6.48
6/29/2021 10:00:00 AM 20.24 68.432 0.429 7.67 7.9 6.58
6/29/2021 10:15:00 AM 20.41 68.738 0.431 7.69 7.92 6.82
6/29/2021 10:30:00 AM 20.54 68.972 0.429 7.69 7.02 6.88
6/29/2021 10:45:00 AM 20.82 69.476 0.428 7.71 6.51 7.21
6/29/2021 11:00:00 AM 21.07 69.926 0.425 7.72 6.55 7.27
6/29/2021 11:15:00 AM 21.03 69.854 0.426 7.72 6.7 7.33
6/29/2021 11:30:00 AM 21.31 70.358 0.424 7.74 6.3 7.5
6/29/2021 11:45:00 AM 21.5 70.7 0.424 7.76 6.41 7.61
6/29/2021 12:00:00 PM 21.64 70.952 0.425 7.77 6.21 7.78
6/29/2021 12:15:00 PM 21.73 71.114 0.425 7.78 6.32 7.85
6/29/2021 12:30:00 PM 22.27 72.086 0.421 7.82 6.23 8.18
6/29/2021 12:45:00 PM 22.51 72.518 0.419 7.82 5.96 8.13
6/29/2021 1:00:00 PM 22.53 72.554 0.419 7.82 6.58 8.19
6/29/2021 1:15:00 PM 22.64 72.752 0.419 7.83 5.95 8.37
6/29/2021 1:30:00 PM 22.68 72.824 0.421 7.82 5.98 8.2
6/29/2021 1:45:00 PM 23 73.4 0.419 7.85 6.45 8.46
6/29/2021 2:00:00 PM 22.88 73.184 0.424 7.84 5.98 8.31
6/29/2021 2:15:00 PM 23.35 74.03 0.419 7.87 6.03 8.48
6/29/2021 2:30:00 PM 23.48 74.264 0.418 7.88 7.01 8.46
6/29/2021 2:45:00 PM 23.67 74.606 0.417 7.88 6.11 8.7
6/29/2021 3:00:00 PM 23.91 75.038 0.416 7.89 6.5 8.55
6/29/2021 3:15:00 PM 24.02 75.236 0.416 7.89 5.9 8.64
6/29/2021 3:30:00 PM 24.03 75.254 0.418 7.88 6.13 8.6
6/29/2021 3:45:00 PM 24.34 75.812 0.415 7.9 6.26 8.6
6/29/2021 4:00:00 PM 24.43 75.974 0.415 7.9 6.09 8.6
6/29/2021 4:15:00 PM 24.4 75.92 0.415 7.88 6.75 8.54
6/29/2021 4:30:00 PM 24.17 75.506 0.418 7.85 6.26 8.31
6/29/2021 4:45:00 PM 24.35 75.83 0.416 7.86 6.22 8.1
6/29/2021 5:00:00 PM 24.38 75.884 0.416 7.87 6.69 8.29
6/29/2021 5:15:00 PM 24.56 76.208 0.413 7.88 6.65 8.22
6/29/2021 5:30:00 PM 24.48 76.064 0.414 7.89 6.5 8.12
6/29/2021 5:45:00 PM 24.21 75.578 0.417 7.86 6.41 7.93
6/29/2021 6:00:00 PM 24.3 75.74 0.416 7.84 6.17 7.73
6/29/2021 6:15:00 PM 24.22 75.596 0.417 7.84 6.29 7.54
6/29/2021 6:30:00 PM 24.25 75.65 0.417 7.82 6.5 7.44
6/29/2021 6:45:00 PM 24.13 75.434 0.416 7.82 6.97 7.19
6/29/2021 7:00:00 PM 23.95 75.11 0.416 7.8 7.46 7.02
6/29/2021 7:15:00 PM 24.07 75.326 0.413 7.8 6.71 6.81
6/29/2021 7:30:00 PM 23.77 74.786 0.417 7.75 6.51 6.63
6/29/2021 7:45:00 PM 23.56 74.408 0.418 7.73 7.32 6.48
6/29/2021 8:00:00 PM 23.72 74.696 0.41 7.77 9.23 6.42
6/29/2021 8:15:00 PM 23.55 74.39 0.411 7.74 8.3 6.29
6/29/2021 8:30:00 PM 23.44 74.192 0.411 7.71 8.3 6.08
6/29/2021 8:45:00 PM 23.59 74.462 0.403 7.74 9.92 6.07
6/29/2021 9:00:00 PM 23.48 74.264 0.398 7.72 12.36 6.05
6/29/2021 9:15:00 PM 23.45 74.21 0.398 7.7 12.67 5.95
6/29/2021 9:30:00 PM 23.38 74.084 0.401 7.69 12.36 5.79
6/29/2021 9:45:00 PM 23.13 73.634 0.406 7.67 12.72 5.64
6/29/2021 10:00:00 PM 23.13 73.634 0.404 7.65 14.12 5.52
6/29/2021 10:15:00 PM 23.33 73.994 0.398 7.67 14.14 5.58
6/29/2021 10:30:00 PM 23.14 73.652 0.4 7.64 13.61 5.43
6/29/2021 10:45:00 PM 23.32 73.976 0.398 7.65 12.81 5.44
6/29/2021 11:00:00 PM 23.43 74.174 0.397 7.65 11.55 5.38
6/29/2021 11:15:00 PM 23.51 74.318 0.396 7.65 11.84 5.32
6/29/2021 11:30:00 PM 23.57 74.426 0.396 7.65 11.72 5.29
6/29/2021 11:45:00 PM 23.44 74.192 0.397 7.63 12.57 5.25
6/30/2021 12:00:00 AM 23.44 74.192 0.394 7.62 12.62 5.18
6/30/2021 12:15:00 AM 23.34 74.012 0.393 7.61 11.73 4.98
6/30/2021 12:30:00 AM 23.31 73.958 0.388 7.6 12.16 5.02
6/30/2021 12:45:00 AM 23.23 73.814 0.385 7.59 12.37 4.96
6/30/2021 1:00:00 AM 23.05 73.49 0.384 7.58 12.18 4.94
6/30/2021 1:15:00 AM 23.05 73.49 0.38 7.58 12.63 4.99
6/30/2021 1:30:00 AM 22.89 73.202 0.38 7.57 13.25 4.95
6/30/2021 1:45:00 AM 22.79 73.022 0.38 7.57 12.8 4.89
6/30/2021 2:00:00 AM 22.78 73.004 0.378 7.58 12.66 5.04
6/30/2021 2:15:00 AM 22.7 72.86 0.378 7.58 12.34 5.16
6/30/2021 2:30:00 AM 22.69 72.842 0.376 7.58 12.29 5.17
6/30/2021 2:45:00 AM 22.74 72.932 0.373 7.59 13.24 5.35
6/30/2021 3:00:00 AM 22.79 73.022 0.371 7.59 14.66 5.43
6/30/2021 3:15:00 AM 22.86 73.148 0.367 7.61 15.49 5.59
6/30/2021 3:30:00 AM 22.93 73.274 0.364 7.61 16.95 5.69
6/30/2021 3:45:00 AM 22.95 73.31 0.362 7.62 16.61 5.77
6/30/2021 4:00:00 AM 23.04 73.472 0.359 7.62 19.03 5.81
6/30/2021 4:15:00 AM 23.07 73.526 0.355 7.63 18.29 5.87
6/30/2021 4:30:00 AM 23.14 73.652 0.349 7.63 18.31 5.91
6/30/2021 4:45:00 AM 23.18 73.724 0.343 7.63 18.75 5.92
6/30/2021 5:00:00 AM 23.22 73.796 0.338 7.63 19.89 5.95
6/30/2021 5:15:00 AM 23.27 73.886 0.332 7.63 25.63 5.96
6/30/2021 5:30:00 AM 23.22 73.796 0.327 7.62 26.66 5.97
6/30/2021 5:45:00 AM 23.17 73.706 0.321 7.61 21.28 5.98
6/30/2021 6:00:00 AM 23.11 73.598 0.314 7.61 24.31 6.02
6/30/2021 6:15:00 AM 22.99 73.382 0.308 7.6 20.7 6.07
6/30/2021 6:30:00 AM 22.85 73.13 0.303 7.6 20.25 6.09
6/30/2021 6:45:00 AM 22.71 72.878 0.299 7.59 20.24 6.17
6/30/2021 7:00:00 AM 22.54 72.57201 0.296 7.59 21.16 6.2
6/30/2021 7:15:00 AM 22.41 72.338 0.293 7.59 18.13 6.29
6/30/2021 7:30:00 AM 22.27 72.086 0.291 7.58 16.93 6.38
6/30/2021 7:45:00 AM 22.14 71.852 0.289 7.58 15.72 6.4
6/30/2021 8:00:00 AM 22.07 71.726 0.286 7.58 15.22 6.49
6/30/2021 8:15:00 AM 21.99 71.582 0.284 7.59 18.42 6.57
6/30/2021 8:30:00 AM 21.92 71.456 0.284 7.59 16.28 6.65
6/30/2021 8:45:00 AM 21.86 71.348 0.283 7.59 14.34 6.71
6/30/2021 9:00:00 AM 21.85 71.33 0.283 7.6 13.62 6.87
6/30/2021 9:15:00 AM 21.84 71.312 0.282 7.61 15.76 6.95
6/30/2021 9:30:00 AM 21.8 71.24 0.283 7.62 14.13 7.03
6/30/2021 9:45:00 AM 21.77 71.186 0.283 7.62 12.64 7.1
6/30/2021 10:00:00 AM 21.77 71.186 0.283 7.63 13.62 7.17
6/30/2021 10:15:00 AM 21.75 71.15 0.283 7.64 13 7.22
6/30/2021 10:30:00 AM 21.74 71.132 0.283 7.65 124 7.29
6/30/2021 10:45:00 AM 21.77 71.186 0.284 7.66 47.8 7.37
6/30/2021 11:00:00 AM 21.8 71.24 0.285 7.67 37.87 7.46
6/30/2021 11:15:00 AM 21.84 71.312 0.285 7.67 16.06 7.51
6/30/2021 11:30:00 AM 21.88 71.384 0.286 7.68 13.58 7.52
6/30/2021 11:45:00 AM 22.01 71.618 0.287 7.7 13.18 7.67
6/30/2021 12:00:00 PM 22.12 71.816 0.288 7.71 12.66 7.77
6/30/2021 12:15:00 PM 22.28 72.104 0.289 7.73 12.47 7.89
6/30/2021 12:30:00 PM 22.5 72.5 0.289 7.75 12.05 7.99
6/30/2021 12:45:00 PM 22.71 72.878 0.291 7.77 12.09 8.06
6/30/2021 1:00:00 PM 22.92 73.256 0.293 7.79 12.6 8.17
6/30/2021 1:15:00 PM 23.19 73.742 0.294 7.82 13.47 8.37
6/30/2021 1:30:00 PM 23.44 74.192 0.295 7.84 12.42 8.48
6/30/2021 1:45:00 PM 23.59 74.462 0.297 7.85 19.19 8.42
6/30/2021 2:00:00 PM 23.78 74.804 0.299 7.87 13.58 8.5
6/30/2021 2:15:00 PM 23.99 75.182 0.3 7.88 12.77 8.58
6/30/2021 2:30:00 PM 24.09 75.362 0.302 7.88 13.21 8.44
6/30/2021 2:45:00 PM 24.24 75.632 0.302 7.89 12.76 8.5
6/30/2021 3:00:00 PM 24.34 75.812 0.304 7.9 12.63 8.47
6/30/2021 3:15:00 PM 24.42 75.956 0.306 7.9 12.1 8.47
6/30/2021 3:30:00 PM 24.58 76.244 0.307 7.91 13.49 8.44
6/30/2021 3:45:00 PM 24.7 76.46 0.309 7.92 12.35 8.48
6/30/2021 4:00:00 PM 24.57 76.226 0.311 7.9 12.43 8.28
6/30/2021 4:15:00 PM 24.59 76.262 0.311 7.89 12.36 8.18
6/30/2021 4:30:00 PM 24.59 76.262 0.311 7.88 13.56 8.07
6/30/2021 4:45:00 PM 24.6 76.28 0.311 7.88 12.59 7.99
6/30/2021 5:00:00 PM 24.6 76.28 0.312 7.87 12.16 7.88
6/30/2021 5:15:00 PM 24.52 76.136 0.314 7.85 12.51 7.73
6/30/2021 5:30:00 PM 24.53 76.154 0.313 7.84 11.24 7.65
6/30/2021 5:45:00 PM 24.49 76.082 0.315 7.83 12.36 7.49
6/30/2021 6:00:00 PM 24.47 76.046 0.316 7.82 11.98 7.33
6/30/2021 6:15:00 PM 24.39 75.902 0.318 7.8 10.87 7.21
6/30/2021 6:30:00 PM 24.4 75.92 0.317 7.79 21.08 7.06
6/30/2021 6:45:00 PM 24.37 75.866 0.317 7.77 11.96 6.96
6/30/2021 7:00:00 PM 24.36 75.848 0.318 7.76 10.98 6.88
6/30/2021 7:15:00 PM 24.31 75.758 0.319 7.75 10.4 6.77
6/30/2021 7:30:00 PM 24.27 75.686 0.319 7.73 12.15 6.68
6/30/2021 7:45:00 PM 24.21 75.578 0.32 7.72 10.53 6.55
6/30/2021 8:00:00 PM 24.14 75.452 0.321 7.71 12.75 6.42
6/30/2021 8:15:00 PM 24.12 75.416 0.321 7.7 11.13 6.35
6/30/2021 8:30:00 PM 24.07 75.326 0.321 7.69 11 6.3
6/30/2021 8:45:00 PM 23.99 75.182 0.322 7.68 10.79 6.21
6/30/2021 9:00:00 PM 23.91 75.038 0.323 7.67 10.96 6.13
6/30/2021 9:15:00 PM 23.88 74.984 0.322 7.66 10.96 6.08
6/30/2021 9:30:00 PM 23.8 74.84 0.324 7.65 12.41 5.98
6/30/2021 9:45:00 PM 23.72 74.696 0.324 7.64 12.57 5.98
6/30/2021 10:00:00 PM 23.63 74.534 0.326 7.63 11.51 5.89
6/30/2021 10:15:00 PM 23.55 74.39 0.327 7.62 12.13 5.76
6/30/2021 10:30:00 PM 23.49 74.282 0.327 7.62 15.47 5.83
6/30/2021 10:45:00 PM 23.4 74.12 0.328 7.61 12.37 5.67
6/30/2021 11:00:00 PM 23.34 74.012 0.328 7.61 12.29 5.76
6/30/2021 11:15:00 PM 23.22 73.796 0.328 7.6 11.9 5.74
6/30/2021 11:30:00 PM 23.19 73.742 0.328 7.61 12.72 5.75
6/30/2021 11:45:00 PM 23.06 73.508 0.33 7.6 12.57 5.69
7/1/2021 12:00:00 AM 23 73.4 0.33 7.6 12.19 5.72
7/1/2021 12:15:00 AM 22.95 73.31 0.33 7.59 12.85 5.68
7/1/2021 12:30:00 AM 22.86 73.148 0.331 7.59 12.5 5.74
7/1/2021 12:45:00 AM 22.8 73.04 0.331 7.58 15.51 5.7
7/1/2021 1:00:00 AM 22.74 72.932 0.331 7.58 14.22 5.74
7/1/2021 1:15:00 AM 22.69 72.842 0.331 7.58 12.56 5.74
7/1/2021 1:30:00 AM 22.62 72.716 0.332 7.58 12.16 5.7
7/1/2021 1:45:00 AM 22.6 72.68 0.332 7.58 12.69 5.75
7/1/2021 2:00:00 AM 22.51 72.518 0.332 7.58 13.16 5.72
7/1/2021 2:15:00 AM 22.45 72.41 0.333 7.58 15.14 5.75
7/1/2021 2:30:00 AM 22.39 72.302 0.333 7.57 13.5 5.74
7/1/2021 2:45:00 AM 22.25 72.05 0.335 7.56 16.25 5.69
7/1/2021 3:00:00 AM 22.25 72.05 0.334 7.57 14.56 5.77
7/1/2021 3:15:00 AM 22.21 71.978 0.334 7.57 13.62 5.78
7/1/2021 3:30:00 AM 22.14 71.852 0.334 7.57 13.14 5.77
7/1/2021 3:45:00 AM 22.08 71.744 0.334 7.57 12.63 5.8
7/1/2021 4:00:00 AM 22.01 71.618 0.333 7.57 13.19 5.81
7/1/2021 4:15:00 AM 21.95 71.51 0.334 7.57 13.79 5.85
7/1/2021 4:30:00 AM 21.88 71.384 0.335 7.57 13.75 5.86
7/1/2021 4:45:00 AM 21.83 71.294 0.335 7.57 13.89 5.86
7/1/2021 5:00:00 AM 21.8 71.24 0.334 7.57 16.85 5.91
7/1/2021 5:15:00 AM 21.72 71.096 0.334 7.57 31.22 5.91
7/1/2021 5:30:00 AM 21.62 70.916 0.336 7.57 16.23 5.83
7/1/2021 5:45:00 AM 21.61 70.898 0.336 7.57 21.44 5.91
7/1/2021 6:00:00 AM 21.57 70.826 0.336 7.57 101.44 5.94
7/1/2021 6:15:00 AM 21.53 70.754 0.336 7.57 36.38 5.92
7/1/2021 6:30:00 AM 21.39 70.502 0.339 7.57 15.35 5.92
7/1/2021 6:45:00 AM 21.4 70.52 0.338 7.57 103.39 5.94
7/1/2021 7:00:00 AM 21.39 70.502 0.338 7.57 25.65 5.96
7/1/2021 7:15:00 AM 21.33 70.394 0.338 7.57 13.08 5.93
7/1/2021 7:30:00 AM 21.32 70.376 0.338 7.58 11.54 6.05
7/1/2021 7:45:00 AM 21.28 70.304 0.339 7.58 10.52 6.08
7/1/2021 8:00:00 AM 21.26 70.268 0.338 7.58 10.37 6.07
7/1/2021 8:15:00 AM 21.22 70.196 0.338 7.58 10.22 6.17
7/1/2021 8:30:00 AM 21.18 70.124 0.337 7.58 10.23 6.16
7/1/2021 8:45:00 AM 21.16 70.088 0.336 7.59 9.8 6.22
7/1/2021 9:00:00 AM 21.12 70.016 0.337 7.59 9.48 6.28
7/1/2021 9:15:00 AM 21.05 69.89 0.338 7.59 9.54 6.21
7/1/2021 9:30:00 AM 21.07 69.926 0.336 7.6 8.76 6.34
7/1/2021 9:45:00 AM 21.02 69.836 0.336 7.6 9.14 6.38
7/1/2021 10:00:00 AM 21.06 69.908 0.335 7.61 8.92 6.49
7/1/2021 10:15:00 AM 21.09 69.962 0.334 7.62 9.02 6.61
7/1/2021 10:30:00 AM 21.08 69.944 0.334 7.63 8.73 6.67
7/1/2021 10:45:00 AM 21.08 69.944 0.334 7.64 8.32 6.78
7/1/2021 11:00:00 AM 21.08 69.944 0.335 7.64 67.61 6.89
7/1/2021 11:15:00 AM 21.07 69.926 0.335 7.66 23.48 6.94
7/1/2021 11:30:00 AM 21.09 69.962 0.335 7.67 35.56 7.01
7/1/2021 11:45:00 AM 21.15 70.07 0.334 7.68 14.78 7.14
7/1/2021 12:00:00 PM 21.18 70.124 0.334 7.7 11.2 7.24
7/1/2021 12:15:00 PM 21.19 70.142 0.335 7.71 151.65 7.4
7/1/2021 12:30:00 PM 21.26 70.268 0.334 7.74 28.73 7.54
7/1/2021 12:45:00 PM 21.34 70.412 0.334 7.76 13.51 7.69
7/1/2021 1:00:00 PM 21.35 70.43 0.334 7.76 10.58 7.74
7/1/2021 1:15:00 PM 21.36 70.448 0.333 7.76 10.07 7.73
7/1/2021 1:30:00 PM 21.34 70.412 0.334 7.76 9.36 7.69
7/1/2021 1:45:00 PM 21.32 70.376 0.334 7.76 10.72 7.69
7/1/2021 2:00:00 PM 21.19 70.142 0.337 7.75 10.34 7.51
7/1/2021 2:15:00 PM 21.24 70.232 0.336 7.76 10.43 7.62
7/1/2021 2:30:00 PM 21.27 70.286 0.337 7.78 10.44 7.71
7/1/2021 2:45:00 PM 21.32 70.376 0.335 7.79 9.87 7.8
7/1/2021 3:00:00 PM 21.31 70.358 0.336 7.78 9.59 7.75
7/1/2021 3:15:00 PM 21.34 70.412 0.335 7.78 9.89 7.73
7/1/2021 3:30:00 PM 21.34 70.412 0.335 7.78 9.26 7.71
7/1/2021 3:45:00 PM 21.29 70.32201 0.336 7.78 8.54 7.7
7/1/2021 4:00:00 PM 21.36 70.448 0.334 7.8 8.49 7.8
7/1/2021 4:15:00 PM 21.42 70.556 0.333 7.81 8.99 7.95
7/1/2021 4:30:00 PM 21.39 70.502 0.334 7.81 10.58 7.88
7/1/2021 4:45:00 PM 21.36 70.448 0.335 7.8 9.64 7.59
7/1/2021 5:00:00 PM 21.33 70.394 0.335 7.79 9.03 7.56
7/1/2021 5:15:00 PM 21.31 70.358 0.336 7.79 12.91 7.58
7/1/2021 5:30:00 PM 21.27 70.286 0.335 7.78 9.24 7.4
7/1/2021 5:45:00 PM 21.28 70.304 0.335 7.78 8.98 7.46
7/1/2021 6:00:00 PM 21.22 70.196 0.335 7.77 9.55 7.33
7/1/2021 6:15:00 PM 21.21 70.17799 0.335 7.76 9.75 7.26
7/1/2021 6:30:00 PM 21.19 70.142 0.335 7.75 9.32 7.24
7/1/2021 6:45:00 PM 21.14 70.052 0.336 7.74 11.04 7.12
7/1/2021 7:00:00 PM 21.06 69.908 0.337 7.73 10.97 7.1
7/1/2021 7:15:00 PM 21.04 69.872 0.337 7.72 9.84 7.08
7/1/2021 7:30:00 PM 21.01 69.818 0.337 7.72 9.55 6.99
7/1/2021 7:45:00 PM 20.98 69.764 0.337 7.71 9.46 6.92
7/1/2021 8:00:00 PM 20.9 69.62 0.338 7.7 10.88 6.82
7/1/2021 8:15:00 PM 20.88 69.584 0.338 7.7 10.08 6.82
7/1/2021 8:30:00 PM 20.75 69.35 0.34 7.68 9.98 6.75
7/1/2021 8:45:00 PM 20.72 69.296 0.34 7.68 9.89 6.68
7/1/2021 9:00:00 PM 20.7 69.26 0.339 7.68 10.11 6.58
7/1/2021 9:15:00 PM 20.65 69.17 0.339 7.67 11.16 6.63
7/1/2021 9:30:00 PM 20.6 69.08 0.34 7.67 11.07 6.59
7/1/2021 9:45:00 PM 20.58 69.044 0.339 7.66 11.24 6.61
7/1/2021 10:00:00 PM 20.53 68.954 0.34 7.66 11.87 6.54
7/1/2021 10:15:00 PM 20.49 68.882 0.34 7.65 12.14 6.53
7/1/2021 10:30:00 PM 20.45 68.81 0.34 7.64 12.23 6.51
7/1/2021 10:45:00 PM 20.42 68.756 0.34 7.65 11.78 6.48
7/1/2021 11:00:00 PM 20.4 68.72 0.34 7.64 11.47 6.47
7/1/2021 11:15:00 PM 20.32 68.576 0.342 7.64 11.76 6.4
7/1/2021 11:30:00 PM 20.3 68.54 0.343 7.63 11.95 6.41
7/1/2021 11:45:00 PM 20.26 68.468 0.343 7.63 12.27 6.41
7/2/2021 12:00:00 AM 20.2 68.36 0.344 7.63 368.24 6.41
7/2/2021 12:15:00 AM 20.16 68.288 0.343 7.63 61.57 6.33
7/2/2021 12:30:00 AM 20.09 68.162 0.344 7.62 19.28 6.31
7/2/2021 12:45:00 AM 20.07 68.126 0.344 7.62 14.01 6.32
7/2/2021 1:00:00 AM 20.04 68.07201 0.344 7.62 12.73 6.33
7/2/2021 1:15:00 AM 19.18 66.524 0.33 7.3 11.77 6.08
7/2/2021 1:30:00 AM 19.84 67.712 0.343 7.58 13.13 6.34
7/2/2021 1:45:00 AM 19.9 67.82 0.344 7.61 13.4 6.32
7/2/2021 2:00:00 AM 19.82 67.676 0.346 7.61 12.81 6.23
7/2/2021 2:15:00 AM 19.83 67.694 0.345 7.61 12.83 6.25
7/2/2021 2:30:00 AM 19.8 67.64 0.346 7.61 13.19 6.31
7/2/2021 2:45:00 AM 19.72 67.496 0.347 7.6 13.47 6.29
7/2/2021 3:00:00 AM 19.69 67.442 0.347 7.6 14.91 6.33
7/2/2021 3:15:00 AM 19.68 67.424 0.346 7.6 13.37 6.29
7/2/2021 3:30:00 AM 19.68 67.424 0.345 7.6 30.94 6.3
7/2/2021 3:45:00 AM 19.62 67.316 0.345 7.6 23.68 6.32
7/2/2021 4:00:00 AM 19.54 67.172 0.346 7.6 15.54 6.32
7/2/2021 4:15:00 AM 19.49 67.082 0.345 7.61 13.99 6.31
7/2/2021 4:30:00 AM 19.43 66.974 0.345 7.61 14.02 6.33
7/2/2021 4:45:00 AM 19.41 66.938 0.344 7.61 13.73 6.44
7/2/2021 5:00:00 AM 19.4 66.92 0.341 7.61 13.56 6.47
7/2/2021 5:15:00 AM 19.34 66.812 0.342 7.61 14.14 6.41
7/2/2021 5:30:00 AM 19.34 66.812 0.339 7.62 102.22 6.53
7/2/2021 5:45:00 AM 19.3 66.74 0.339 7.62 27.56 6.53
7/2/2021 6:00:00 AM 19.22 66.596 0.338 7.62 15.99 6.56
7/2/2021 6:15:00 AM 19.2 66.56 0.336 7.63 14.34 6.67
7/2/2021 6:30:00 AM 19.14 66.452 0.336 7.62 13.88 6.63
7/2/2021 6:45:00 AM 19.12 66.416 0.336 7.63 13.17 6.67
7/2/2021 7:00:00 AM 19.12 66.416 0.334 7.64 12.89 6.71
7/2/2021 7:15:00 AM 19.14 66.452 0.333 7.64 12.65 6.76
7/2/2021 7:30:00 AM 19.06 66.308 0.334 7.64 12.32 6.72
7/2/2021 7:45:00 AM 19.06 66.308 0.333 7.64 12.15 6.83
7/2/2021 8:00:00 AM 19.1 66.38 0.331 7.65 13.89 6.89
7/2/2021 8:15:00 AM 19.12 66.416 0.331 7.66 12.44 6.97
7/2/2021 8:30:00 AM 19.11 66.398 0.331 7.67 12.18 7.02
7/2/2021 8:45:00 AM 19.14 66.452 0.329 7.68 13.02 7.18
7/2/2021 9:00:00 AM 19.11 66.398 0.329 7.69 11.45 7.27
7/2/2021 9:15:00 AM 19.08 66.344 0.329 7.69 10.8 7.21
7/2/2021 9:30:00 AM 19.03 66.254 0.329 7.68 11.06 7.24
7/2/2021 9:45:00 AM 19.09 66.362 0.326 7.7 39.24 7.32
7/2/2021 10:00:00 AM 19.09 66.362 0.325 7.71 15.39 7.43
7/2/2021 10:15:00 AM 19.08 66.344 0.324 7.72 22.84 7.55
7/2/2021 10:30:00 AM 19.1 66.38 0.323 7.73 12.72 7.69
7/2/2021 10:45:00 AM 19.1 66.38 0.322 7.74 10.47 7.79
7/2/2021 11:00:00 AM 19.1 66.38 0.321 7.75 9.75 7.78
7/2/2021 11:15:00 AM 19.13 66.434 0.321 7.76 10.57 7.87
7/2/2021 11:30:00 AM 19.16 66.488 0.32 7.78 9.71 8.03
7/2/2021 11:45:00 AM 19.17 66.506 0.319 7.78 9.7 8.13
7/2/2021 12:00:00 PM 19.16 66.488 0.319 7.79 9.86 8.11
7/2/2021 12:15:00 PM 19.14 66.452 0.32 7.79 11.44 8.16
7/2/2021 12:30:00 PM 19.18 66.524 0.318 7.81 9.7 8.24
7/2/2021 12:45:00 PM 19.25 66.65 0.318 7.82 9.55 8.31
7/2/2021 1:00:00 PM 19.39 66.902 0.317 7.84 9.96 8.43
7/2/2021 1:15:00 PM 19.57 67.226 0.318 7.85 10.05 8.51
7/2/2021 1:30:00 PM 19.74 67.532 0.318 7.86 11.08 8.48
7/2/2021 1:45:00 PM 19.97 67.946 0.318 7.87 13.35 8.64
7/2/2021 2:00:00 PM 20.11 68.198 0.318 7.87 12.03 8.61
7/2/2021 2:15:00 PM 20.23 68.414 0.318 7.89 10.43 8.65
7/2/2021 2:30:00 PM 20.48 68.864 0.317 7.91 10.35 8.84
7/2/2021 2:45:00 PM 20.67 69.206 0.318 7.93 9.75 8.87
7/2/2021 3:00:00 PM 20.89 69.602 0.318 7.95 9.65 9.02
7/2/2021 3:15:00 PM 20.97 69.746 0.318 7.96 9.11 8.95
7/2/2021 3:30:00 PM 21.05 69.89 0.319 7.96 9.03 8.86
7/2/2021 3:45:00 PM 21.18 70.124 0.321 7.96 9.57 8.92
7/2/2021 4:00:00 PM 21.3 70.34 0.321 7.97 9.87 8.91
7/2/2021 4:15:00 PM 21.33 70.394 0.32 7.98 9.3 8.78
7/2/2021 4:30:00 PM 21.18 70.124 0.321 7.96 36.09 8.61
7/2/2021 4:45:00 PM 21.16 70.088 0.321 7.95 14.91 8.56
7/2/2021 5:00:00 PM 21.1 69.98 0.322 7.95 9.56 8.44
7/2/2021 5:15:00 PM 20.99 69.782 0.323 7.94 8.95 8.39
7/2/2021 5:30:00 PM 20.89 69.602 0.324 7.93 8.55 8.35
7/2/2021 5:45:00 PM 20.9 69.62 0.324 7.92 9.08 8.25
7/2/2021 6:00:00 PM 20.89 69.602 0.323 7.91 8.65 8.14
7/2/2021 6:15:00 PM 20.88 69.584 0.323 7.9 9.37 7.9
7/2/2021 6:30:00 PM 20.84 69.512 0.326 7.88 24.22 7.87
7/2/2021 6:45:00 PM 20.74 69.332 0.325 7.86 11.5 7.83
7/2/2021 7:00:00 PM 20.68 69.224 0.316 7.85 9.08 7.53
7/2/2021 7:15:00 PM 20.71 69.278 0.324 7.84 8.94 7.59
7/2/2021 7:30:00 PM 20.67 69.206 0.325 7.82 9.99 7.39
7/2/2021 7:45:00 PM 20.6 69.08 0.327 7.8 9.14 7.19
7/2/2021 8:00:00 PM 20.62 69.116 0.326 7.79 9.99 7.19
7/2/2021 8:15:00 PM 20.5 68.9 0.324 7.79 10.83 7.21
7/2/2021 8:30:00 PM 20.46 68.828 0.322 7.78 11.72 7.11
7/2/2021 8:45:00 PM 20.37 68.666 0.32 7.77 12.23 7.11
7/2/2021 9:00:00 PM 20.33 68.594 0.323 7.75 12.81 6.88
7/2/2021 9:15:00 PM 20.3 68.54 0.324 7.75 12.67 6.84
7/2/2021 9:30:00 PM 20.28 68.504 0.324 7.73 13.42 6.83
7/2/2021 9:45:00 PM 20.22 68.396 0.324 7.72 13.07 6.8
7/2/2021 10:00:00 PM 20.15 68.27 0.325 7.71 13.03 6.68
7/2/2021 10:15:00 PM 20.06 68.108 0.326 7.7 12.65 6.68
7/2/2021 10:30:00 PM 19.98 67.964 0.327 7.69 12.83 6.63
7/2/2021 10:45:00 PM 19.91 67.838 0.327 7.68 12.31 6.58
7/2/2021 11:00:00 PM 19.87 67.766 0.328 7.68 13.54 6.61
7/2/2021 11:15:00 PM 19.78 67.604 0.329 7.67 14.06 6.53
7/2/2021 11:30:00 PM 19.74 67.532 0.329 7.66 14.66 6.51
7/2/2021 11:45:00 PM 19.68 67.424 0.33 7.66 13.51 6.52
7/3/2021 12:00:00 AM 19.66 67.388 0.33 7.65 14.51 6.46
7/3/2021 12:15:00 AM 19.56 67.208 0.332 7.64 12.92 6.41
7/3/2021 12:30:00 AM 19.53 67.154 0.332 7.64 12.79 6.43
7/3/2021 12:45:00 AM 19.44 66.992 0.335 7.63 12.95 6.34
7/3/2021 1:00:00 AM 19.42 66.956 0.335 7.64 12.55 6.36
7/3/2021 1:15:00 AM 19.35 66.83 0.336 7.63 12.93 6.33
7/3/2021 1:30:00 AM 19.29 66.722 0.337 7.63 12.97 6.34
7/3/2021 1:45:00 AM 19.26 66.668 0.337 7.63 13.76 6.37
7/3/2021 2:00:00 AM 19.19 66.542 0.34 7.62 12.92 6.39
7/3/2021 2:15:00 AM 19.14 66.452 0.339 7.63 13.73 6.39
7/3/2021 2:30:00 AM 19.1 66.38 0.338 7.62 12.97 6.37
7/3/2021 2:45:00 AM 19.02 66.236 0.339 7.62 12.7 6.34
7/3/2021 3:00:00 AM 18.98 66.164 0.339 7.62 12.65 6.41
7/3/2021 3:15:00 AM 18.93 66.074 0.339 7.62 13.31 6.42
7/3/2021 3:30:00 AM 18.9 66.02 0.338 7.62 13.28 6.35
7/3/2021 3:45:00 AM 18.84 65.912 0.338 7.62 13.52 6.41
7/3/2021 4:00:00 AM 18.81 65.858 0.337 7.62 14.63 6.55
7/3/2021 4:15:00 AM 18.72 65.696 0.338 7.62 13.37 6.48
7/3/2021 4:30:00 AM 18.68 65.624 0.337 7.62 13.67 6.52
7/3/2021 4:45:00 AM 18.62 65.516 0.337 7.62 13.83 6.55
7/3/2021 5:00:00 AM 18.62 65.516 0.335 7.62 15.12 6.61
7/3/2021 5:15:00 AM 18.56 65.408 0.336 7.62 19.91 6.52
7/3/2021 5:30:00 AM 18.55 65.39 0.335 7.62 15.12 6.61
7/3/2021 5:45:00 AM 18.48 65.264 0.336 7.62 13.61 6.51
7/3/2021 6:00:00 AM 18.45 65.21 0.336 7.62 13.56 6.61
7/3/2021 6:15:00 AM 18.39 65.102 0.337 7.62 12.74 6.66
7/3/2021 6:30:00 AM 18.38 65.084 0.337 7.62 12.3 6.68
7/3/2021 6:45:00 AM 18.34 65.012 0.337 7.62 12.44 6.68
7/3/2021 7:00:00 AM 18.28 64.904 0.339 7.62 12.11 6.64
7/3/2021 7:15:00 AM 18.26 64.868 0.339 7.62 11.89 6.63
7/3/2021 7:30:00 AM 18.24 64.832 0.34 7.63 11.93 6.73
7/3/2021 7:45:00 AM 18.22 64.796 0.34 7.63 11.43 6.79
7/3/2021 8:00:00 AM 18.21 64.778 0.34 7.64 11.64 6.88
7/3/2021 8:15:00 AM 18.19 64.742 0.341 7.64 10.91 6.95
7/3/2021 8:30:00 AM 18.17 64.706 0.342 7.65 11.26 6.98
7/3/2021 8:45:00 AM 18.16 64.688 0.343 7.65 18.03 7.06
7/3/2021 9:00:00 AM 18.15 64.67 0.343 7.66 12.04 7.19
7/3/2021 9:15:00 AM 18.19 64.742 0.343 7.68 10.8 7.28
7/3/2021 9:30:00 AM 18.19 64.742 0.344 7.69 10.77 7.29
7/3/2021 9:45:00 AM 18.23 64.814 0.344 7.7 15.33 7.4
7/3/2021 10:00:00 AM 18.23 64.814 0.345 7.71 10.74 7.4
7/3/2021 10:15:00 AM 18.29 64.922 0.344 7.72 10.01 7.59
7/3/2021 10:30:00 AM 18.25 64.85 0.345 7.73 9.61 7.63
7/3/2021 10:45:00 AM 18.29 64.922 0.345 7.74 10.03 7.69
7/3/2021 11:00:00 AM 18.35 65.03 0.344 7.76 10.38 7.77
7/3/2021 11:15:00 AM 18.4 65.12 0.345 7.78 9.56 8.01
7/3/2021 11:30:00 AM 18.56 65.408 0.343 7.8 8.93 8.27
7/3/2021 11:45:00 AM 18.71 65.67799 0.344 7.82 8.74 8.4
7/3/2021 12:00:00 PM 18.84 65.912 0.344 7.84 8.59 8.32
7/3/2021 12:15:00 PM 19.06 66.308 0.345 7.85 8.54 8.48
7/3/2021 12:30:00 PM 19.06 66.308 0.347 7.85 8.18 8.57
7/3/2021 12:45:00 PM 19.17 66.506 0.344 7.86 20.34 8.73
7/3/2021 1:00:00 PM 19.33 66.794 0.344 7.88 10.19 8.77
7/3/2021 1:15:00 PM 19.5 67.1 0.344 7.91 9.31 8.75
7/3/2021 1:30:00 PM 19.5 67.1 0.344 7.91 11.39 8.8
7/3/2021 1:45:00 PM 19.4 66.92 0.345 7.9 12.23 8.71
7/3/2021 2:00:00 PM 19.42 66.956 0.346 7.9 15.61 8.53
7/3/2021 2:15:00 PM 19.38 66.884 0.347 7.9 9.12 8.47
7/3/2021 2:30:00 PM 19.52 67.136 0.346 7.92 8.5 8.65
7/3/2021 2:45:00 PM 19.63 67.334 0.345 7.95 11.45 8.77
7/3/2021 3:00:00 PM 19.53 67.154 0.347 7.94 71.57 8.68
7/3/2021 3:15:00 PM 19.5 67.1 0.346 7.93 16.39 8.52
7/3/2021 3:30:00 PM 19.53 67.154 0.345 7.93 8.91 8.51
7/3/2021 3:45:00 PM 19.5 67.1 0.346 7.93 7.97 8.47
7/3/2021 4:00:00 PM 19.53 67.154 0.345 7.94 7.91 8.48
7/3/2021 4:15:00 PM 19.56 67.208 0.344 7.94 7.31 8.59
7/3/2021 4:30:00 PM 19.55 67.19 0.344 7.95 7.61 8.59
7/3/2021 4:45:00 PM 19.51 67.118 0.345 7.94 7.63 8.45
7/3/2021 5:00:00 PM 19.59 67.262 0.346 7.95 7.34 8.37
7/3/2021 5:15:00 PM 19.82 67.676 0.345 7.97 7.32 8.52
7/3/2021 5:30:00 PM 19.83 67.694 0.345 7.96 7.43 8.57
7/3/2021 5:45:00 PM 19.88 67.784 0.346 7.97 12.25 8.5
7/3/2021 6:00:00 PM 19.91 67.838 0.346 7.97 8.48 8.41
7/3/2021 6:15:00 PM 19.81 67.658 0.347 7.96 8.01 8.29
7/3/2021 6:30:00 PM 19.83 67.694 0.346 7.95 7.8 8.14
7/3/2021 6:45:00 PM 19.84 67.712 0.346 7.95 7.52 8.19
7/3/2021 7:00:00 PM 19.81 67.658 0.348 7.93 7.87 8.02
7/3/2021 7:15:00 PM 19.78 67.604 0.348 7.93 7.35 7.95
7/3/2021 7:30:00 PM 19.76 67.568 0.35 7.92 7.26 7.84
7/3/2021 7:45:00 PM 19.66 67.388 0.351 7.9 7.42 7.66
7/3/2021 8:00:00 PM 19.67 67.406 0.35 7.89 7.41 7.61
7/3/2021 8:15:00 PM 19.67 67.406 0.349 7.88 8.03 7.64
7/3/2021 8:30:00 PM 19.62 67.316 0.349 7.87 8.31 7.38
7/3/2021 8:45:00 PM 19.56 67.208 0.349 7.85 8.49 7.51
7/3/2021 9:00:00 PM 19.42 66.956 0.35 7.83 9.84 7.19
7/3/2021 9:15:00 PM 19.36 66.848 0.349 7.82 9.19 7.34
7/3/2021 9:30:00 PM 19.26 66.668 0.35 7.8 9.08 7.32
7/3/2021 9:45:00 PM 19.22 66.596 0.349 7.79 9.12 7.14
7/3/2021 10:00:00 PM 19.13 66.434 0.35 7.78 9.67 7.04
7/3/2021 10:15:00 PM 19.08 66.344 0.349 7.77 9.73 7.06
7/3/2021 10:30:00 PM 18.96 66.128 0.349 7.75 10.53 6.85
7/3/2021 10:45:00 PM 18.93 66.074 0.348 7.75 12.06 7.01
7/3/2021 11:00:00 PM 18.84 65.912 0.348 7.74 10.72 6.91
7/3/2021 11:15:00 PM 17.93 64.274 0.335 7.39 10.3 6.22
7/3/2021 11:30:00 PM 18.57 65.426 0.347 7.67 10.98 6.66
7/3/2021 11:45:00 PM 18.63 65.534 0.348 7.71 10.59 6.68
7/4/2021 12:00:00 AM 18.56 65.408 0.348 7.7 11.66 6.8
7/4/2021 12:15:00 AM 18.5 65.3 0.348 7.7 10.89 6.68
7/4/2021 12:30:00 AM 18.46 65.228 0.348 7.69 11.22 6.63
7/4/2021 12:45:00 AM 18.41 65.138 0.349 7.69 11.16 6.66
7/4/2021 1:00:00 AM 18.35 65.03 0.349 7.68 10.95 6.74
7/4/2021 1:15:00 AM 18.31 64.958 0.349 7.68 11.18 6.59
7/4/2021 1:30:00 AM 18.2 64.76 0.35 7.66 10.99 6.6
7/4/2021 1:45:00 AM 18.17 64.706 0.348 7.67 11.1 6.68
7/4/2021 2:00:00 AM 18.18 64.724 0.347 7.67 11.1 6.67
7/4/2021 2:15:00 AM 18.09 64.562 0.348 7.66 10.99 6.58
7/4/2021 2:30:00 AM 18.01 64.418 0.348 7.66 11.33 6.66
7/4/2021 2:45:00 AM 17.93 64.274 0.348 7.66 13 6.67
7/4/2021 3:00:00 AM 17.87 64.166 0.349 7.66 12.04 6.69
7/4/2021 3:15:00 AM 17.79 64.022 0.348 7.65 11.84 6.75
7/4/2021 3:30:00 AM 17.72 63.896 0.349 7.65 14.42 6.77
7/4/2021 3:45:00 AM 17.65 63.77 0.35 7.65 12.31 6.77
7/4/2021 4:00:00 AM 17.56 63.608 0.351 7.64 11.84 6.8
7/4/2021 4:15:00 AM 17.52 63.536 0.35 7.64 11.89 6.74
7/4/2021 4:30:00 AM 17.43 63.374 0.351 7.64 11.91 6.66
7/4/2021 4:45:00 AM 17.39 63.302 0.351 7.64 11.59 6.68
7/4/2021 5:00:00 AM 17.3 63.14 0.352 7.64 11.84 6.75
7/4/2021 5:15:00 AM 17.28 63.104 0.351 7.64 12.56 6.76
7/4/2021 5:30:00 AM 17.2 62.96 0.353 7.64 12.06 6.74
7/4/2021 5:45:00 AM 17.15 62.87 0.353 7.64 14.15 6.72
7/4/2021 6:00:00 AM 17.1 62.78 0.353 7.64 13.15 6.83
7/4/2021 6:15:00 AM 17.06 62.708 0.352 7.64 12.99 6.89
7/4/2021 6:30:00 AM 17.01 62.618 0.353 7.64 12.07 6.89
7/4/2021 6:45:00 AM 16.94 62.492 0.353 7.64 11.67 6.92
7/4/2021 7:00:00 AM 16.92 62.456 0.353 7.64 11.33 6.91
7/4/2021 7:15:00 AM 16.95 62.51 0.351 7.65 11.3 7.09
7/4/2021 7:30:00 AM 16.88 62.384 0.351 7.65 10.56 7.07
7/4/2021 7:45:00 AM 16.9 62.42 0.35 7.66 54.06 7.11
7/4/2021 8:00:00 AM 16.88 62.384 0.351 7.66 18.83 7.2
7/4/2021 8:15:00 AM 16.92 62.456 0.349 7.67 11.66 7.26
7/4/2021 8:30:00 AM 16.95 62.51 0.349 7.68 10.03 7.36
7/4/2021 8:45:00 AM 17.02 62.636 0.348 7.69 10.24 7.44
7/4/2021 9:00:00 AM 16.99 62.582 0.351 7.69 10.87 7.34
7/4/2021 9:15:00 AM 17.07 62.726 0.35 7.7 12.32 7.5
7/4/2021 9:30:00 AM 17.18 62.924 0.349 7.71 9.16 7.72
7/4/2021 9:45:00 AM 17.24 63.032 0.35 7.72 8.81 7.61
7/4/2021 10:00:00 AM 17.41 63.338 0.349 7.74 8.54 7.94
7/4/2021 10:15:00 AM 17.57 63.626 0.349 7.75 13.8 8.07
7/4/2021 10:30:00 AM 17.7 63.86 0.351 7.77 9.96 8.12
7/4/2021 10:45:00 AM 17.89 64.202 0.35 7.79 14.25 8.26
7/4/2021 11:00:00 AM 17.96 64.328 0.35 7.79 12.5 8.26
7/4/2021 11:15:00 AM 18.08 64.544 0.35 7.8 9.34 8.35
7/4/2021 11:30:00 AM 18.24 64.832 0.35 7.82 12.29 8.38
7/4/2021 11:45:00 AM 18.23 64.814 0.355 7.81 8.53 8.21
7/4/2021 12:00:00 PM 18.39 65.102 0.354 7.83 7.49 8.37
7/4/2021 12:15:00 PM 18.44 65.192 0.352 7.84 7.22 8.31
7/4/2021 12:30:00 PM 18.52 65.336 0.354 7.84 8.49 8.22
7/4/2021 12:45:00 PM 18.78 65.804 0.351 7.87 7.34 8.5
7/4/2021 1:00:00 PM 19.02 66.236 0.35 7.89 7.38 8.68
7/4/2021 1:15:00 PM 19.19 66.542 0.351 7.9 7.42 8.66
7/4/2021 1:30:00 PM 19.39 66.902 0.351 7.92 7.07 8.59
7/4/2021 1:45:00 PM 19.62 67.316 0.35 7.93 6.66 8.81
7/4/2021 2:00:00 PM 19.95 67.91 0.348 7.96 6.8 9.09
7/4/2021 2:15:00 PM 20.19 68.342 0.347 7.97 7.41 9.24
7/4/2021 2:30:00 PM 20.28 68.504 0.35 7.97 7.26 8.89
7/4/2021 2:45:00 PM 20.55 68.99 0.35 8 6.58 9.17
7/4/2021 3:00:00 PM 20.74 69.332 0.349 8.01 6.75 9.14
7/4/2021 3:15:00 PM 20.87 69.566 0.35 8 9.09 9.1
7/4/2021 3:30:00 PM 21.03 69.854 0.352 8 9.4 8.96
7/4/2021 3:45:00 PM 21.24 70.232 0.35 8.03 8.75 9
7/4/2021 4:00:00 PM 21.33 70.394 0.351 8.02 6.86 9.07
7/4/2021 4:15:00 PM 21.24 70.232 0.354 7.99 6.7 8.69
7/4/2021 4:30:00 PM 21.47 70.646 0.35 8.02 6.66 8.82
7/4/2021 4:45:00 PM 21.56 70.808 0.352 8.01 6.27 8.85
7/4/2021 5:00:00 PM 21.65 70.97 0.35 8.03 7.04 8.87
7/4/2021 5:15:00 PM 21.65 70.97 0.352 8.01 6.99 8.72
7/4/2021 5:30:00 PM 21.74 71.132 0.35 8.01 6.75 8.66
7/4/2021 5:45:00 PM 21.59 70.862 0.355 7.98 6.34 8.35
7/4/2021 6:00:00 PM 21.62 70.916 0.352 7.98 6.61 8.41
7/4/2021 6:15:00 PM 21.53 70.754 0.353 7.96 7.11 8.12
7/4/2021 6:30:00 PM 21.43 70.574 0.355 7.94 6.73 8.09
7/4/2021 6:45:00 PM 21.36 70.448 0.355 7.93 6.54 7.95
7/4/2021 7:00:00 PM 21.41 70.538 0.354 7.93 6.73 7.71
7/4/2021 7:15:00 PM 21.32 70.376 0.354 7.9 6.93 7.63
7/4/2021 7:30:00 PM 21.28 70.304 0.355 7.89 6.76 7.52
7/4/2021 7:45:00 PM 21.19 70.142 0.357 7.87 6.69 7.24
7/4/2021 8:00:00 PM 21.24 70.232 0.354 7.87 7.17 7.31
7/4/2021 8:15:00 PM 21.23 70.214 0.354 7.87 6.85 7.12
7/4/2021 8:30:00 PM 21.09 69.962 0.354 7.84 7.22 7.01
7/4/2021 8:45:00 PM 21.01 69.818 0.355 7.83 7.42 7.02
7/4/2021 9:00:00 PM 20.89 69.602 0.358 7.81 8.11 6.85
7/4/2021 9:15:00 PM 20.84 69.512 0.356 7.8 8.37 6.83
7/4/2021 9:30:00 PM 20.76 69.368 0.356 7.79 8.78 6.72
7/4/2021 9:45:00 PM 20.69 69.242 0.357 7.78 8.34 6.55
7/4/2021 10:00:00 PM 20.57 69.026 0.359 7.75 9.25 6.56
7/4/2021 10:15:00 PM 20.46 68.828 0.359 7.75 9.37 6.4
7/4/2021 10:30:00 PM 20.35 68.63 0.36 7.74 8.77 6.41
7/4/2021 10:45:00 PM 20.32 68.576 0.36 7.73 9.43 6.28
7/4/2021 11:00:00 PM 20.24 68.432 0.359 7.73 10.07 6.31
7/4/2021 11:15:00 PM 20.13 68.234 0.359 7.72 9.45 6.19
7/4/2021 11:30:00 PM 20.02 68.036 0.361 7.7 9.6 6.2
7/4/2021 11:45:00 PM 19.83 67.694 0.363 7.69 9.94 6.05
7/5/2021 12:00:00 AM 19.84 67.712 0.362 7.69 9.13 6.17
7/5/2021 12:15:00 AM 19.63 67.334 0.364 7.67 9.51 6.06
7/5/2021 12:30:00 AM 19.53 67.154 0.364 7.67 11.78 6.04
7/5/2021 12:45:00 AM 19.48 67.064 0.362 7.67 9.86 6.09
7/5/2021 1:00:00 AM 19.43 66.974 0.362 7.67 9.59 6.17
7/5/2021 1:15:00 AM 19.32 66.776 0.364 7.66 9.69 6
7/5/2021 1:30:00 AM 19.23 66.614 0.364 7.66 9.72 6.15
7/5/2021 1:45:00 AM 19.14 66.452 0.362 7.65 9.98 6.13
7/5/2021 2:00:00 AM 19.07 66.326 0.36 7.65 10.55 6.06
7/5/2021 2:15:00 AM 18.97 66.146 0.362 7.65 10.33 6.1
7/5/2021 2:30:00 AM 18.85 65.93 0.361 7.64 11.17 6.18
7/5/2021 2:45:00 AM 18.8 65.84 0.36 7.64 10.52 6.12
7/5/2021 3:00:00 AM 18.64 65.552 0.362 7.63 10.31 6.06
7/5/2021 3:15:00 AM 18.54 65.372 0.363 7.63 10.8 6.13
7/5/2021 3:30:00 AM 18.47 65.246 0.363 7.63 10.43 6.19
7/5/2021 3:45:00 AM 18.39 65.102 0.363 7.63 10.84 6.1
7/5/2021 4:00:00 AM 18.23 64.814 0.364 7.62 10.97 6.16
7/5/2021 4:15:00 AM 18.19 64.742 0.363 7.62 10.81 6.18
7/5/2021 4:30:00 AM 18.07 64.526 0.363 7.62 11.23 6.26
7/5/2021 4:45:00 AM 17.9 64.22 0.367 7.61 11.21 6.24
7/5/2021 5:00:00 AM 17.84 64.112 0.366 7.61 11.6 6.23
7/5/2021 5:15:00 AM 17.72 63.896 0.367 7.61 12.36 6.34
7/5/2021 5:30:00 AM 17.67 63.806 0.366 7.61 11.9 6.19
7/5/2021 5:45:00 AM 17.62 63.716 0.366 7.62 14.2 6.19
7/5/2021 6:00:00 AM 17.44 63.392 0.369 7.61 11.07 6.17
7/5/2021 6:15:00 AM 17.38 63.284 0.369 7.61 11.09 6.32
7/5/2021 6:30:00 AM 17.22 62.996 0.373 7.6 10.4 6.29
7/5/2021 6:45:00 AM 17.24 63.032 0.369 7.62 11.44 6.45
7/5/2021 7:00:00 AM 17.2 62.96 0.369 7.63 11.94 6.39
7/5/2021 7:15:00 AM 17.09 62.762 0.373 7.62 11.23 6.37
7/5/2021 7:30:00 AM 17.1 62.78 0.368 7.63 13.55 6.56
7/5/2021 7:45:00 AM 17.07 62.726 0.368 7.64 10.11 6.54
7/5/2021 8:00:00 AM 17.04 62.672 0.369 7.64 9.43 6.68
7/5/2021 8:15:00 AM 17.09 62.762 0.367 7.66 8.97 6.92
7/5/2021 8:30:00 AM 17.12 62.816 0.367 7.67 11.53 6.99
7/5/2021 8:45:00 AM 17.15 62.87 0.367 7.67 10.33 7.19
7/5/2021 9:00:00 AM 17.2 62.96 0.367 7.69 10.44 7.21
7/5/2021 9:15:00 AM 17.26 63.068 0.367 7.69 11.79 7.43
7/5/2021 9:30:00 AM 17.32 63.176 0.368 7.7 8.78 7.54
7/5/2021 9:45:00 AM 17.41 63.338 0.368 7.71 9.77 7.66
7/5/2021 10:00:00 AM 17.56 63.608 0.367 7.73 8.44 7.64
7/5/2021 10:15:00 AM 17.68 63.824 0.366 7.74 7.85 7.9
7/5/2021 10:30:00 AM 17.79 64.022 0.368 7.76 8.57 7.97
7/5/2021 10:45:00 AM 17.99 64.382 0.367 7.77 7.86 8.17
7/5/2021 11:00:00 AM 18.13 64.634 0.366 7.79 7.64 8.25
7/5/2021 11:15:00 AM 18.33 64.994 0.366 7.81 7.67 8.45
7/5/2021 11:30:00 AM 18.45 65.21 0.369 7.81 7.16 8.41
7/5/2021 11:45:00 AM 18.56 65.408 0.37 7.82 7.37 8.53
7/5/2021 12:00:00 PM 18.83 65.894 0.368 7.85 7.44 8.65
7/5/2021 12:15:00 PM 19 66.2 0.37 7.85 7.18 8.56
7/5/2021 12:30:00 PM 19.2 66.56 0.371 7.87 7.26 8.66
7/5/2021 12:45:00 PM 19.4 66.92 0.37 7.89 7.32 8.64
7/5/2021 1:00:00 PM 19.57 67.226 0.37 7.9 6.79 9.06
7/5/2021 1:15:00 PM 19.83 67.694 0.369 7.93 6.68 9.03
7/5/2021 1:30:00 PM 20.04 68.07201 0.368 7.93 8.04 9.26
7/5/2021 1:45:00 PM 20.1 68.18 0.373 7.94 7.02 9.36
7/5/2021 2:00:00 PM 20.34 68.612 0.37 7.96 7.19 9.39
7/5/2021 2:15:00 PM 20.51 68.918 0.369 7.97 6.92 9.12
7/5/2021 2:30:00 PM 20.67 69.206 0.37 7.97 7.48 9.25
7/5/2021 2:45:00 PM 20.82 69.476 0.37 7.97 6.8 9.24
7/5/2021 3:00:00 PM 21.04 69.872 0.369 7.99 6.75 9.42
7/5/2021 3:15:00 PM 21.23 70.214 0.368 8.01 6.93 9.46
7/5/2021 3:30:00 PM 21.24 70.232 0.372 7.99 6.97 9.34
7/5/2021 3:45:00 PM 21.51 70.718 0.369 8.02 7.1 9.36
7/5/2021 4:00:00 PM 21.62 70.916 0.369 8.02 6.86 9.26
7/5/2021 4:15:00 PM 21.64 70.952 0.371 8.02 7.17 9.03
7/5/2021 4:30:00 PM 21.76 71.168 0.369 8.02 18.19 9.15
7/5/2021 4:45:00 PM 21.76 71.168 0.373 8 8.7 9.12
7/5/2021 5:00:00 PM 21.79 71.222 0.372 8.02 7.38 9
7/5/2021 5:15:00 PM 21.99 71.582 0.369 8.01 7.23 8.72
7/5/2021 5:30:00 PM 22.06 71.708 0.369 8.03 7.81 8.62
7/5/2021 5:45:00 PM 22.12 71.816 0.369 8.02 6.91 8.9
7/5/2021 6:00:00 PM 21.96 71.528 0.373 8 6.52 8.13
7/5/2021 6:15:00 PM 22.14 71.852 0.369 8 6.38 8.39
7/5/2021 6:30:00 PM 22.13 71.834 0.369 7.98 6.57 8.29
7/5/2021 6:45:00 PM 22.05 71.69 0.372 7.97 6.86 7.99
7/5/2021 7:00:00 PM 22.04 71.672 0.373 7.95 6.9 7.82
7/5/2021 7:15:00 PM 22.13 71.834 0.371 7.94 6.73 7.71
7/5/2021 7:30:00 PM 22.03 71.654 0.373 7.91 8.34 7.63
7/5/2021 7:45:00 PM 22.06 71.708 0.372 7.9 7.14 7.41
7/5/2021 8:00:00 PM 22.08 71.744 0.374 7.9 6.86 7.25
7/5/2021 8:15:00 PM 22.05 71.69 0.375 7.88 6.99 7.22
7/5/2021 8:30:00 PM 21.98 71.564 0.375 7.85 7 7
7/5/2021 8:45:00 PM 21.95 71.51 0.374 7.84 7.42 6.92
7/5/2021 9:00:00 PM 21.96 71.528 0.374 7.82 7.55 6.83
7/5/2021 9:15:00 PM 21.81 71.258 0.378 7.8 7.97 6.61
7/5/2021 9:30:00 PM 21.84 71.312 0.377 7.8 8.22 6.52
7/5/2021 9:45:00 PM 21.72 71.096 0.379 7.77 8.15 6.32
7/5/2021 10:00:00 PM 21.67 71.006 0.38 7.76 9.18 6.21
7/5/2021 10:15:00 PM 21.58 70.844 0.38 7.76 9.17 6.18
7/5/2021 10:30:00 PM 21.33 70.394 0.385 7.71 8.4 6
7/5/2021 10:45:00 PM 21.35 70.43 0.384 7.71 8.55 6.03
7/5/2021 11:00:00 PM 21.27 70.286 0.384 7.71 8.71 6.07
7/5/2021 11:15:00 PM 21.37 70.466 0.382 7.72 8.47 6.02
7/5/2021 11:30:00 PM 21.24 70.232 0.383 7.7 8.45 6
7/5/2021 11:45:00 PM 21.2 70.16 0.385 7.69 8.85 5.79
7/6/2021 12:00:00 AM 20.9 69.62 0.387 7.67 8.31 5.72
7/6/2021 12:15:00 AM 20.92 69.656 0.389 7.67 8.44 5.81
7/6/2021 12:30:00 AM 20.93 69.674 0.386 7.67 8.68 5.77
7/6/2021 12:45:00 AM 20.92 69.656 0.386 7.66 8.58 5.76
7/6/2021 1:00:00 AM 20.81 69.458 0.387 7.65 9.38 5.83
7/6/2021 1:15:00 AM 20.78 69.404 0.386 7.65 9.16 5.74
7/6/2021 1:30:00 AM 20.59 69.062 0.391 7.63 9.02 5.64
7/6/2021 1:45:00 AM 20.65 69.17 0.387 7.64 9.85 5.63
7/6/2021 2:00:00 AM 20.46 68.828 0.39 7.63 9.45 5.51
7/6/2021 2:15:00 AM 20.36 68.648 0.391 7.62 9.42 5.73
7/6/2021 2:30:00 AM 20.16 68.288 0.395 7.62 8.99 5.52
7/6/2021 2:45:00 AM 20.2 68.36 0.393 7.61 9.05 5.62
7/6/2021 3:00:00 AM 20.06 68.108 0.395 7.6 9.62 5.61
7/6/2021 3:15:00 AM 20.18 68.324 0.391 7.61 9.62 5.72
7/6/2021 3:30:00 AM 20.12 68.216 0.391 7.6 9.75 5.68
7/6/2021 3:45:00 AM 20.08 68.144 0.389 7.6 9.53 5.67
7/6/2021 4:00:00 AM 20.03 68.054 0.389 7.6 10.39 5.65
7/6/2021 4:15:00 AM 19.99 67.982 0.39 7.61 10.33 5.65
7/6/2021 4:30:00 AM 19.93 67.874 0.39 7.6 10.88 5.7
7/6/2021 4:45:00 AM 19.83 67.694 0.39 7.6 10.15 5.64
7/6/2021 5:00:00 AM 19.78 67.604 0.391 7.6 11.05 5.68
7/6/2021 5:15:00 AM 19.61 67.298 0.395 7.58 13.42 5.69
7/6/2021 5:30:00 AM 19.57 67.226 0.392 7.59 11.94 5.8
7/6/2021 5:45:00 AM 19.25 66.65 0.397 7.58 275.48 5.45
7/6/2021 6:00:00 AM 19.41 66.938 0.395 7.58 59.22 5.61
7/6/2021 6:15:00 AM 19.44 66.992 0.393 7.59 17.65 5.76
7/6/2021 6:30:00 AM 19.33 66.794 0.395 7.59 10.61 5.69
7/6/2021 6:45:00 AM 19.3 66.74 0.394 7.59 9.49 5.87
7/6/2021 7:00:00 AM 19.23 66.614 0.395 7.58 9.14 5.85
7/6/2021 7:15:00 AM 19.32 66.776 0.39 7.6 9.46 6
7/6/2021 7:30:00 AM 19.22 66.596 0.392 7.59 9.34 6.03
7/6/2021 7:45:00 AM 19.28 66.704 0.391 7.6 9.27 5.73
7/6/2021 8:00:00 AM 19.3 66.74 0.391 7.61 9.63 6.14
7/6/2021 8:15:00 AM 19.24 66.632 0.393 7.6 9.44 6.08
7/6/2021 8:30:00 AM 19.31 66.758 0.393 7.62 14.74 6.36
7/6/2021 8:45:00 AM 19.29 66.722 0.391 7.63 10.37 6.38
7/6/2021 9:00:00 AM 19.33 66.794 0.394 7.64 9.13 6.49
7/6/2021 9:15:00 AM 19.29 66.722 0.397 7.64 10.89 6.32
7/6/2021 9:30:00 AM 19.39 66.902 0.394 7.65 8.55 6.56
7/6/2021 9:45:00 AM 19.5 67.1 0.395 7.67 8.09 6.89
7/6/2021 10:00:00 AM 19.72 67.496 0.39 7.7 8.65 7.01
7/6/2021 10:15:00 AM 19.74 67.532 0.392 7.71 8.07 7.07
7/6/2021 10:30:00 AM 19.94 67.892 0.39 7.73 7.62 7.42
7/6/2021 10:45:00 AM 20.04 68.07201 0.392 7.74 7.59 7.31
7/6/2021 11:00:00 AM 20.21 68.378 0.39 7.75 7.46 7.68
7/6/2021 11:15:00 AM 20.38 68.684 0.391 7.78 7.35 7.48
7/6/2021 11:30:00 AM 20.35 68.63 0.392 7.77 7.16 7.47
7/6/2021 11:45:00 AM 20.46 68.828 0.393 7.79 7.27 7.58
7/6/2021 12:00:00 PM 20.76 69.368 0.389 7.81 7.19 7.85
7/6/2021 12:15:00 PM 20.89 69.602 0.388 7.81 7.64 8.03
7/6/2021 12:30:00 PM 21.13 70.034 0.387 7.84 7.82 8.14
7/6/2021 12:45:00 PM 21.32 70.376 0.388 7.85 7.16 8.22
7/6/2021 1:00:00 PM 21.48 70.664 0.387 7.86 7.26 8.35
7/6/2021 1:15:00 PM 21.59 70.862 0.387 7.89 6.98 8.26
7/6/2021 1:30:00 PM 21.65 70.97 0.388 7.87 7.26 8.4
7/6/2021 1:45:00 PM 21.55 70.79 0.39 7.86 7.23 8.14
7/6/2021 2:00:00 PM 21.91 71.438 0.386 7.9 7.27 8.29
7/6/2021 2:15:00 PM 21.92 71.456 0.39 7.89 7.44 8.43
7/6/2021 2:30:00 PM 21.85 71.33 0.394 7.89 6.83 8.29
7/6/2021 2:45:00 PM 22.02 71.636 0.39 7.92 7.06 8.39
7/6/2021 3:00:00 PM 21.8 71.24 0.391 7.88 7.65 7.54
7/6/2021 3:15:00 PM 21.88 71.384 0.388 7.83 6.71 7.84
7/6/2021 3:30:00 PM 21.8 71.24 0.391 7.86 7.54 7.77
7/6/2021 3:45:00 PM 22 71.6 0.388 7.9 34.86 8.01
7/6/2021 4:00:00 PM 21.94 71.492 0.39 7.92 11.01 7.87
7/6/2021 4:15:00 PM 21.9 71.42 0.391 7.9 7.3 7.7
7/6/2021 4:30:00 PM 21.79 71.222 0.391 7.89 13.44 7.68
7/6/2021 4:45:00 PM 22.02 71.636 0.389 7.9 7.31 7.73
7/6/2021 5:00:00 PM 22.1 71.78 0.388 7.92 6.47 7.67
7/6/2021 5:15:00 PM 22.04 71.672 0.39 7.89 7.47 7.76
7/6/2021 5:30:00 PM 21.71 71.078 0.397 7.81 6.34 7.25
7/6/2021 5:45:00 PM 22.04 71.672 0.393 7.85 6.6 7.63
7/6/2021 6:00:00 PM 22.06 71.708 0.388 7.88 7.14 7.31
7/6/2021 6:15:00 PM 21.78 71.204 0.396 7.82 6.66 7.17
7/6/2021 6:30:00 PM 21.96 71.528 0.392 7.82 6.76 7.12
7/6/2021 6:45:00 PM 21.75 71.15 0.389 7.84 9.39 7.15
7/6/2021 7:00:00 PM 22.16 71.888 0.382 7.85 9.65 7.11
7/6/2021 7:15:00 PM 21.99 71.582 0.385 7.83 8.58 6.91
7/6/2021 7:30:00 PM 22.27 72.086 0.381 7.85 8.08 6.71
7/6/2021 7:45:00 PM 22.48 72.464 0.378 7.86 8.78 6.81
7/6/2021 8:00:00 PM 22.42 72.356 0.381 7.83 9.42 6.79
7/6/2021 8:15:00 PM 22.46 72.42799 0.379 7.81 11.15 6.68
7/6/2021 8:30:00 PM 22.33 72.194 0.38 7.79 9.88 6.34
7/6/2021 8:45:00 PM 22.24 72.032 0.382 7.77 9.05 6.38
7/6/2021 9:00:00 PM 22.26 72.068 0.382 7.76 9.11 6.08
7/6/2021 9:15:00 PM 22.05 71.69 0.385 7.75 8.75 6.18
7/6/2021 9:30:00 PM 22.16 71.888 0.381 7.74 9.36 6.06
7/6/2021 9:45:00 PM 21.5 70.7 0.394 7.7 9.26 5.78
7/6/2021 10:00:00 PM 21.58 70.844 0.392 7.69 9.3 5.79
7/6/2021 10:15:00 PM 21.56 70.808 0.392 7.69 8.99 5.67
7/6/2021 10:30:00 PM 21.63 70.934 0.391 7.68 9.11 5.64
7/6/2021 10:45:00 PM 21.52 70.736 0.392 7.67 9.61 5.62
7/6/2021 11:00:00 PM 21.38 70.484 0.395 7.66 9.33 5.31
7/6/2021 11:15:00 PM 20.96 69.728 0.4 7.61 9.9 5.23
7/6/2021 11:30:00 PM 21.23 70.214 0.392 7.63 10.25 5.51
7/6/2021 11:45:00 PM 21.1 69.98 0.395 7.62 9.69 5.2
7/7/2021 12:00:00 AM 20.93 69.674 0.395 7.6 10.01 5.21
7/7/2021 12:15:00 AM 21.04 69.872 0.391 7.61 10.08 5.26
7/7/2021 12:30:00 AM 20.76 69.368 0.398 7.58 9.99 5.14
7/7/2021 12:45:00 AM 20.64 69.152 0.399 7.57 10.77 5.07
7/7/2021 1:00:00 AM 20.91 69.638 0.394 7.58 10.51 5.08
7/7/2021 1:15:00 AM 20.59 69.062 0.4 7.57 10.4 5.09
7/7/2021 1:30:00 AM 20.66 69.188 0.398 7.59 10.96 5.3
7/7/2021 1:45:00 AM 20.69 69.242 0.397 7.59 11.08 5.3
7/7/2021 2:00:00 AM 20.57 69.026 0.399 7.59 10.22 5.18
7/7/2021 2:15:00 AM 20.32 68.576 0.402 7.58 9.86 5.08
7/7/2021 2:30:00 AM 20.28 68.504 0.402 7.57 9.8 5.01
7/7/2021 2:45:00 AM 20.1 68.18 0.406 7.57 10.29 5.16
7/7/2021 3:00:00 AM 20.26 68.468 0.399 7.57 9.44 5.17
7/7/2021 3:15:00 AM 20.35 68.63 0.397 7.59 10.1 5.31
7/7/2021 3:30:00 AM 20.07 68.126 0.403 7.56 10.64 5.22
7/7/2021 3:45:00 AM 20.29 68.522 0.397 7.58 10.37 5.31
7/7/2021 4:00:00 AM 20.3 68.54 0.395 7.6 13.03 5.44
7/7/2021 4:15:00 AM 20.16 68.288 0.397 7.57 11.19 5.31
7/7/2021 4:30:00 AM 20.26 68.468 0.394 7.59 10.73 5.54
7/7/2021 4:45:00 AM 20.3 68.54 0.393 7.6 11.58 5.61
7/7/2021 5:00:00 AM 20.18 68.324 0.394 7.59 11.27 5.68
7/7/2021 5:15:00 AM 20.12 68.216 0.394 7.58 11.4 5.65
7/7/2021 5:30:00 AM 20.19 68.342 0.392 7.59 12.33 5.66
7/7/2021 5:45:00 AM 20.04 68.07201 0.394 7.6 15.31 5.59
7/7/2021 6:00:00 AM 19.99 67.982 0.394 7.59 11.52 5.52
7/7/2021 6:15:00 AM 19.9 67.82 0.395 7.57 22.82 5.26
7/7/2021 6:30:00 AM 20.03 68.054 0.391 7.59 13.85 5.56
7/7/2021 6:45:00 AM 19.99 67.982 0.391 7.59 11.37 5.76
7/7/2021 7:00:00 AM 19.96 67.92799 0.392 7.6 10.99 5.82
7/7/2021 7:15:00 AM 19.9 67.82 0.393 7.6 11.56 5.85
7/7/2021 7:30:00 AM 19.86 67.748 0.391 7.58 10.69 5.84
7/7/2021 7:45:00 AM 19.8 67.64 0.393 7.6 9.94 5.75
7/7/2021 8:00:00 AM 19.9 67.82 0.39 7.62 10.35 5.9
7/7/2021 8:15:00 AM 19.61 67.298 0.395 7.6 27.3 5.98
7/7/2021 8:30:00 AM 19.77 67.586 0.392 7.62 15.45 6.24
7/7/2021 8:45:00 AM 19.82 67.676 0.392 7.63 20.42 6.24
7/7/2021 9:00:00 AM 19.89 67.802 0.39 7.64 11.28 6.16
7/7/2021 9:15:00 AM 19.89 67.802 0.392 7.65 10.12 6.47
7/7/2021 9:30:00 AM 19.92 67.856 0.393 7.65 10.02 6.55
7/7/2021 9:45:00 AM 20.04 68.07201 0.391 7.67 9.31 6.51
7/7/2021 10:00:00 AM 20.28 68.504 0.386 7.7 8.62 6.89
7/7/2021 10:15:00 AM 20.33 68.594 0.39 7.71 8.4 6.92
7/7/2021 10:30:00 AM 20.5 68.9 0.388 7.73 8.58 7.23
7/7/2021 10:45:00 AM 20.6 69.08 0.386 7.74 8.84 7.12
7/7/2021 11:00:00 AM 20.73 69.314 0.385 7.76 8.29 7.38
7/7/2021 11:15:00 AM 20.68 69.224 0.388 7.75 7.78 7.3
7/7/2021 11:30:00 AM 20.94 69.692 0.385 7.77 7.8 7.42
7/7/2021 11:45:00 AM 21.19 70.142 0.383 7.8 8.03 7.9
7/7/2021 12:00:00 PM 21.36 70.448 0.384 7.82 8.02 7.9
7/7/2021 12:15:00 PM 21.38 70.484 0.386 7.8 7.79 7.71
7/7/2021 12:30:00 PM 21.56 70.808 0.384 7.83 7.7 8.11
7/7/2021 12:45:00 PM 21.68 71.024 0.384 7.83 7.63 7.9
7/7/2021 1:00:00 PM 21.8 71.24 0.383 7.82 7.65 7.91
7/7/2021 1:15:00 PM 22.22 71.996 0.38 7.88 7.8 8.47
7/7/2021 1:30:00 PM 22.27 72.086 0.38 7.88 7.7 8.25
7/7/2021 1:45:00 PM 22.44 72.392 0.382 7.89 8.02 8.42
7/7/2021 2:00:00 PM 22.3 72.14 0.383 7.88 7.66 8.05
7/7/2021 2:15:00 PM 22.46 72.42799 0.381 7.9 7.58 8.04
7/7/2021 2:30:00 PM 22.68 72.824 0.379 7.91 8.81 8.25
7/7/2021 2:45:00 PM 22.77 72.986 0.381 7.92 8.25 8.51
7/7/2021 3:00:00 PM 22.7 72.86 0.38 7.91 7.68 8.39
7/7/2021 3:15:00 PM 22.66 72.788 0.382 7.89 9.69 8.13
7/7/2021 3:30:00 PM 22.75 72.95 0.383 7.92 7.8 8.19
7/7/2021 3:45:00 PM 21.69 71.042 0.351 7.58 10.79 7.46
7/7/2021 4:00:00 PM 22.42 72.356 0.365 7.86 11.14 7.48
7/7/2021 4:15:00 PM 22.63 72.734 0.365 7.9 10.55 7.55
7/7/2021 4:30:00 PM 22.58 72.644 0.368 7.88 9.92 7.5
7/7/2021 4:45:00 PM 22.55 72.59 0.369 7.87 11.02 7.57
7/7/2021 5:00:00 PM 22.66 72.788 0.369 7.88 11.28 7.67
7/7/2021 5:15:00 PM 23.05 73.49 0.362 7.91 11.45 7.75
7/7/2021 5:30:00 PM 22.85 73.13 0.365 7.87 11.67 7.42
7/7/2021 5:45:00 PM 22.68 72.824 0.37 7.83 10.66 7.31
7/7/2021 6:00:00 PM 22.66 72.788 0.368 7.82 9.85 7.22
7/7/2021 6:15:00 PM 22.43 72.374 0.371 7.8 8.93 6.79
7/7/2021 6:30:00 PM 22.32 72.176 0.377 7.76 8.7 6.74
7/7/2021 6:45:00 PM 22.97 73.346 0.354 7.84 14.84 7.16
7/7/2021 7:00:00 PM 22.15 71.87 0.365 7.73 12.64 6.19
7/7/2021 7:15:00 PM 22.01 71.618 0.37 7.73 12.09 6.1
7/7/2021 7:30:00 PM 21.94 71.492 0.37 7.71 10.7 6.07
7/7/2021 7:45:00 PM 22.13 71.834 0.368 7.71 12.65 6.14
7/7/2021 8:00:00 PM 22.19 71.942 0.366 7.7 12.12 5.93
7/7/2021 8:15:00 PM 21.79 71.222 0.37 7.64 11.88 5.64
7/7/2021 8:30:00 PM 22.03 71.654 0.367 7.66 12.02 5.6
7/7/2021 8:45:00 PM 22.04 71.672 0.365 7.65 12.35 5.42
7/7/2021 9:00:00 PM 21.69 71.042 0.368 7.63 11.96 5.27
7/7/2021 9:15:00 PM 21.47 70.646 0.375 7.6 12.19 5.18
7/7/2021 9:30:00 PM 21.4 70.52 0.377 7.58 11.91 5.2
7/7/2021 9:45:00 PM 21.87 71.366 0.346 7.68 19.04 6.11
7/7/2021 10:00:00 PM 21.75 71.15 0.347 7.66 19.76 6.06
7/7/2021 10:15:00 PM 21.73 71.114 0.351 7.65 17.24 6.01
7/7/2021 10:30:00 PM 21.52 70.736 0.358 7.63 18.08 5.74
7/7/2021 10:45:00 PM 21.48 70.664 0.359 7.63 21.07 5.78
7/7/2021 11:00:00 PM 21.48 70.664 0.359 7.63 20.58 5.85
7/7/2021 11:15:00 PM 21.3 70.34 0.364 7.61 19.7 5.66
7/7/2021 11:30:00 PM 21.38 70.484 0.361 7.62 17.34 5.8
7/7/2021 11:45:00 PM 21.22 70.196 0.365 7.59 16.26 5.65
7/8/2021 12:00:00 AM 20.97 69.746 0.37 7.58 14.37 5.33
7/8/2021 12:15:00 AM 21.18 70.124 0.367 7.59 15.45 5.61
7/8/2021 12:30:00 AM 21.08 69.944 0.369 7.59 14.19 5.53
7/8/2021 12:45:00 AM 21.1 69.98 0.369 7.59 13.36 5.52
7/8/2021 1:00:00 AM 21.13 70.034 0.368 7.6 13.05 5.6
7/8/2021 1:15:00 AM 21.12 70.016 0.371 7.6 12.77 5.46
7/8/2021 1:30:00 AM 21.03 69.854 0.371 7.59 12.58 5.47
7/8/2021 1:45:00 AM 20.93 69.674 0.371 7.58 12.83 5.53
7/8/2021 2:00:00 AM 20.7 69.26 0.373 7.57 13.12 5.57
7/8/2021 2:15:00 AM 20.8 69.44 0.37 7.57 13.03 5.44
7/8/2021 2:30:00 AM 20.77 69.386 0.366 7.57 13.06 5.46
7/8/2021 2:45:00 AM 20.38 68.684 0.372 7.55 13.22 5.4
7/8/2021 3:00:00 AM 20.47 68.846 0.372 7.56 12.99 5.41
7/8/2021 3:15:00 AM 20.37 68.666 0.371 7.55 13.62 5.52
7/8/2021 3:30:00 AM 20.36 68.648 0.369 7.55 13.3 5.46
7/8/2021 3:45:00 AM 20.11 68.198 0.372 7.54 11.97 5.38
7/8/2021 4:00:00 AM 20.3 68.54 0.371 7.56 13.25 5.45
7/8/2021 4:15:00 AM 20.29 68.522 0.37 7.55 13.25 5.47
7/8/2021 4:30:00 AM 20.43 68.774 0.364 7.57 14.78 5.68
7/8/2021 4:45:00 AM 20.49 68.882 0.36 7.58 14.94 5.77
7/8/2021 5:00:00 AM 20.6 69.08 0.357 7.59 16.02 5.96
7/8/2021 5:15:00 AM 20.7 69.26 0.353 7.6 17.38 6.07
7/8/2021 5:30:00 AM 20.84 69.512 0.349 7.62 26.86 6.17
7/8/2021 5:45:00 AM 20.94 69.692 0.345 7.63 33.9 6.27
7/8/2021 6:00:00 AM 21.09 69.962 0.34 7.64 34.06 6.37
7/8/2021 6:15:00 AM 21.23 70.214 0.334 7.65 33.97 6.46
7/8/2021 6:30:00 AM 21.24 70.232 0.329 7.66 26.59 6.52
7/8/2021 6:45:00 AM 21.31 70.358 0.322 7.66 28.4 6.58
7/8/2021 7:00:00 AM 21.39 70.502 0.314 7.67 25.5 6.64
7/8/2021 7:15:00 AM 21.45 70.61 0.307 7.67 23.26 6.69
7/8/2021 7:30:00 AM 21.43 70.574 0.301 7.67 29.83 6.7
7/8/2021 7:45:00 AM 21.41 70.538 0.296 7.67 25.77 6.74
7/8/2021 8:00:00 AM 21.34 70.412 0.291 7.66 23.06 6.83
7/8/2021 8:15:00 AM 21.27 70.286 0.285 7.67 35.92 6.93
7/8/2021 8:30:00 AM 21.16 70.088 0.28 7.67 21.55 7.01
7/8/2021 8:45:00 AM 21.07 69.926 0.275 7.67 18.62 7.13
7/8/2021 9:00:00 AM 20.98 69.764 0.271 7.67 19.27 7.24
7/8/2021 9:15:00 AM 20.9 69.62 0.268 7.68 20.25 7.35
7/8/2021 9:30:00 AM 20.79 69.422 0.266 7.68 17.95 7.41
7/8/2021 9:45:00 AM 20.75 69.35 0.265 7.68 20.23 7.54
7/8/2021 10:00:00 AM 20.75 69.35 0.264 7.7 15.47 7.7
7/8/2021 10:15:00 AM 20.81 69.458 0.263 7.71 17.67 7.79
7/8/2021 10:30:00 AM 20.87 69.566 0.262 7.73 16.6 7.95
7/8/2021 10:45:00 AM 20.95 69.71 0.262 7.74 15.97 8.07
7/8/2021 11:00:00 AM 20.98 69.764 0.262 7.76 15.66 8.11
7/8/2021 11:15:00 AM 21.02 69.836 0.263 7.76 15.15 8.22
7/8/2021 11:30:00 AM 21.06 69.908 0.263 7.77 15 8.24
7/8/2021 11:45:00 AM 21.12 70.016 0.263 7.78 14.8 8.29
7/8/2021 12:00:00 PM 21.16 70.088 0.263 7.79 16.76 8.31
7/8/2021 12:15:00 PM 21.18 70.124 0.265 7.79 15.31 8.3
7/8/2021 12:30:00 PM 21.23 70.214 0.265 7.79 16.55 8.35
7/8/2021 12:45:00 PM 21.24 70.232 0.265 7.8 19.16 8.31
7/8/2021 1:00:00 PM 21.24 70.232 0.266 7.79 16.35 8.26
7/8/2021 1:15:00 PM 21.24 70.232 0.268 7.78 16.2 8.15
7/8/2021 1:30:00 PM 21.3 70.34 0.268 7.79 15.89 8.16
7/8/2021 1:45:00 PM 21.41 70.538 0.268 7.81 21.2 8.29
7/8/2021 2:00:00 PM 21.54 70.772 0.268 7.83 15.9 8.35
7/8/2021 2:15:00 PM 21.61 70.898 0.27 7.83 15.28 8.38
7/8/2021 2:30:00 PM 21.64 70.952 0.271 7.83 14.89 8.29
7/8/2021 2:45:00 PM 21.66 70.988 0.272 7.82 14.95 8.21
7/8/2021 3:00:00 PM 21.67 71.006 0.273 7.82 14.35 8.15
7/8/2021 3:15:00 PM 21.72 71.096 0.273 7.83 13.37 8.17
7/8/2021 3:30:00 PM 21.75 71.15 0.274 7.84 13.35 8.19
7/8/2021 3:45:00 PM 21.78 71.204 0.275 7.85 13.99 8.21
7/8/2021 4:00:00 PM 21.84 71.312 0.276 7.85 13.66 8.21
7/8/2021 4:15:00 PM 21.86 71.348 0.276 7.85 12.76 8.17
7/8/2021 4:30:00 PM 21.84 71.312 0.276 7.84 13.64 8.09
7/8/2021 4:45:00 PM 21.8 71.24 0.278 7.83 13.84 8.07
7/8/2021 5:00:00 PM 21.85 71.33 0.278 7.84 14.55 8.14
7/8/2021 5:15:00 PM 21.87 71.366 0.278 7.85 13.3 8.13
7/8/2021 5:30:00 PM 21.84 71.312 0.279 7.84 13 8.1
7/8/2021 5:45:00 PM 21.82 71.276 0.281 7.83 12.18 8.04
7/8/2021 6:00:00 PM 21.81 71.258 0.281 7.83 12.59 7.98
7/8/2021 6:15:00 PM 21.79 71.222 0.282 7.82 13.34 7.85
7/8/2021 6:30:00 PM 21.76 71.168 0.282 7.8 12.57 7.74
7/8/2021 6:45:00 PM 21.71 71.078 0.283 7.79 12.61 7.68
7/8/2021 7:00:00 PM 21.66 70.988 0.284 7.78 12.22 7.6
7/8/2021 7:15:00 PM 21.59 70.862 0.286 7.76 13.06 7.5
7/8/2021 7:30:00 PM 21.56 70.808 0.285 7.75 12.07 7.39
7/8/2021 7:45:00 PM 21.5 70.7 0.285 7.74 15.58 7.33
7/8/2021 8:00:00 PM 21.48 70.664 0.284 7.73 13.62 7.29
7/8/2021 8:15:00 PM 21.42 70.556 0.285 7.72 14.01 7.12
7/8/2021 8:30:00 PM 21.39 70.502 0.285 7.71 12.35 7.11
7/8/2021 8:45:00 PM 21.35 70.43 0.286 7.7 13.06 7.08
7/8/2021 9:00:00 PM 21.32 70.376 0.285 7.69 13.43 7.01
7/8/2021 9:15:00 PM 21.29 70.32201 0.285 7.67 13.83 6.95
7/8/2021 9:30:00 PM 21.23 70.214 0.286 7.66 14.21 6.88
7/8/2021 9:45:00 PM 21.21 70.17799 0.286 7.65 14.66 6.84
7/8/2021 10:00:00 PM 21.15 70.07 0.287 7.65 15.13 6.82
7/8/2021 10:15:00 PM 21.12 70.016 0.288 7.64 14.4 6.78
7/8/2021 10:30:00 PM 21.07 69.926 0.29 7.63 14.23 6.69
7/8/2021 10:45:00 PM 21.05 69.89 0.29 7.62 15.1 6.67
7/8/2021 11:00:00 PM 20.97 69.746 0.291 7.61 15.22 6.6
7/8/2021 11:15:00 PM 20.93 69.674 0.292 7.61 14.87 6.52
7/8/2021 11:30:00 PM 20.85 69.53 0.293 7.6 264.89 6.5
7/8/2021 11:45:00 PM 20.82 69.476 0.293 7.59 48.37 6.45
7/9/2021 12:00:00 AM 20.77 69.386 0.294 7.59 19.26 6.47
7/9/2021 12:15:00 AM 20.73 69.314 0.293 7.59 15.63 6.45
7/9/2021 12:30:00 AM 20.66 69.188 0.295 7.58 15.25 6.39
7/9/2021 12:45:00 AM 20.61 69.098 0.296 7.58 14.61 6.29
7/9/2021 1:00:00 AM 20.55 68.99 0.297 7.58 14.61 6.38
7/9/2021 1:15:00 AM 20.49 68.882 0.298 7.57 14.08 6.4
7/9/2021 1:30:00 AM 20.46 68.828 0.298 7.58 15.42 6.39
7/9/2021 1:45:00 AM 20.37 68.666 0.301 7.57 14.95 6.38
7/9/2021 2:00:00 AM 20.31 68.558 0.302 7.57 14.55 6.43
7/9/2021 2:15:00 AM 20.29 68.522 0.301 7.57 15.09 6.43
7/9/2021 2:30:00 AM 20.26 68.468 0.302 7.57 15.13 6.43
7/9/2021 2:45:00 AM 20.2 68.36 0.303 7.57 15.12 6.44
7/9/2021 3:00:00 AM 20.14 68.252 0.304 7.57 14.91 6.44
7/9/2021 3:15:00 AM 20.1 68.18 0.305 7.57 14.95 6.46
7/9/2021 3:30:00 AM 20.05 68.09 0.306 7.57 14.92 6.43
7/9/2021 3:45:00 AM 19.98 67.964 0.308 7.57 16.19 6.41
7/9/2021 4:00:00 AM 19.95 67.91 0.308 7.57 15.05 6.4
7/9/2021 4:15:00 AM 19.91 67.838 0.309 7.57 14.69 6.43
7/9/2021 4:30:00 AM 19.88 67.784 0.31 7.57 15.35 6.42
7/9/2021 4:45:00 AM 19.81 67.658 0.312 7.57 14.99 6.42
7/9/2021 5:00:00 AM 19.77 67.586 0.312 7.57 16.15 6.44
7/9/2021 5:15:00 AM 19.73 67.514 0.313 7.57 15.1 6.4
7/9/2021 5:30:00 AM 19.67 67.406 0.314 7.57 15.58 6.44
7/9/2021 5:45:00 AM 19.64 67.352 0.315 7.57 15.25 6.37
7/9/2021 6:00:00 AM 19.59 67.262 0.316 7.57 16.89 6.34
7/9/2021 6:15:00 AM 19.57 67.226 0.317 7.57 15.68 6.46
7/9/2021 6:30:00 AM 19.56 67.208 0.317 7.58 17.18 6.49
7/9/2021 6:45:00 AM 19.54 67.172 0.318 7.58 33.91 6.52
7/9/2021 7:00:00 AM 19.51 67.118 0.319 7.58 16.86 6.56
7/9/2021 7:15:00 AM 19.45 67.01 0.32 7.58 15.04 6.5
7/9/2021 7:30:00 AM 19.44 66.992 0.321 7.59 13.8 6.54
7/9/2021 7:45:00 AM 19.43 66.974 0.321 7.59 13.8 6.65
7/9/2021 8:00:00 AM 19.42 66.956 0.322 7.59 12.5 6.73
7/9/2021 8:15:00 AM 19.42 66.956 0.322 7.6 12.76 6.8
7/9/2021 8:30:00 AM 19.44 66.992 0.324 7.61 72.69 6.86
7/9/2021 8:45:00 AM 19.48 67.064 0.323 7.62 20.51 7.01
7/9/2021 9:00:00 AM 19.49 67.082 0.324 7.63 12.98 7.08
7/9/2021 9:15:00 AM 19.52 67.136 0.325 7.65 12.28 7.18
7/9/2021 9:30:00 AM 19.56 67.208 0.325 7.66 11.98 7.28
7/9/2021 9:45:00 AM 19.63 67.334 0.325 7.67 11.84 7.37
7/9/2021 10:00:00 AM 19.75 67.55 0.325 7.69 11.04 7.48
7/9/2021 10:15:00 AM 19.84 67.712 0.325 7.71 11.56 7.71
7/9/2021 10:30:00 AM 19.84 67.712 0.325 7.71 10.99 7.7
7/9/2021 10:45:00 AM 19.98 67.964 0.325 7.73 10.72 7.86
7/9/2021 11:00:00 AM 20.11 68.198 0.324 7.75 9.83 7.86
7/9/2021 11:15:00 AM 20.2 68.36 0.324 7.77 9.97 8
7/9/2021 11:30:00 AM 20.28 68.504 0.323 7.78 10.35 8
7/9/2021 11:45:00 AM 20.35 68.63 0.322 7.78 10.27 8.1
7/9/2021 12:00:00 PM 20.37 68.666 0.322 7.79 10.01 8.19
7/9/2021 12:15:00 PM 20.38 68.684 0.322 7.79 9.96 8.07
7/9/2021 12:30:00 PM 20.36 68.648 0.322 7.79 10.52 8
7/9/2021 12:45:00 PM 20.45 68.81 0.321 7.81 9.78 8.27
7/9/2021 1:00:00 PM 20.49 68.882 0.322 7.82 10.54 8.28
7/9/2021 1:15:00 PM 20.62 69.116 0.322 7.83 9.72 8.38
7/9/2021 1:30:00 PM 20.83 69.494 0.321 7.85 9.53 8.46
7/9/2021 1:45:00 PM 20.9 69.62 0.322 7.86 9.54 8.51
7/9/2021 2:00:00 PM 21.12 70.016 0.322 7.87 9.62 8.57
7/9/2021 2:15:00 PM 21.34 70.412 0.322 7.89 9.25 8.62
7/9/2021 2:30:00 PM 21.51 70.718 0.321 7.91 9.04 8.52
7/9/2021 2:45:00 PM 21.69 71.042 0.322 7.93 9.32 8.79
7/9/2021 3:00:00 PM 21.64 70.952 0.323 7.91 9.06 8.55
7/9/2021 3:15:00 PM 21.53 70.754 0.326 7.89 8.88 8.2
7/9/2021 3:30:00 PM 21.62 70.916 0.326 7.89 9.8 8.19
7/9/2021 3:45:00 PM 21.64 70.952 0.325 7.88 11.56 8.09
7/9/2021 4:00:00 PM 21.67 71.006 0.326 7.88 9.4 8.16
7/9/2021 4:15:00 PM 21.72 71.096 0.325 7.89 10.13 8.15
7/9/2021 4:30:00 PM 21.78 71.204 0.326 7.9 9.7 8.04
7/9/2021 4:45:00 PM 21.85 71.33 0.325 7.9 9.37 8.14
7/9/2021 5:00:00 PM 21.92 71.456 0.325 7.9 9.66 8.09
7/9/2021 5:15:00 PM 21.87 71.366 0.326 7.88 9.92 7.86
7/9/2021 5:30:00 PM 21.85 71.33 0.326 7.87 9.17 7.94
7/9/2021 5:45:00 PM 21.9 71.42 0.327 7.87 11.18 7.68
7/9/2021 6:00:00 PM 21.92 71.456 0.328 7.87 9.01 7.83
7/9/2021 6:15:00 PM 21.92 71.456 0.329 7.88 30.04 7.84
7/9/2021 6:30:00 PM 21.94 71.492 0.329 7.88 12.47 7.72
7/9/2021 6:45:00 PM 21.88 71.384 0.33 7.87 9.67 7.63
7/9/2021 7:00:00 PM 21.92 71.456 0.328 7.86 9.33 7.55
7/9/2021 7:15:00 PM 21.89 71.402 0.328 7.85 9.07 7.47
7/9/2021 7:30:00 PM 21.82 71.276 0.329 7.83 10.24 7.26
7/9/2021 7:45:00 PM 21.83 71.294 0.329 7.82 9.98 7.1
7/9/2021 8:00:00 PM 21.73 71.114 0.33 7.8 10.3 7.07
7/9/2021 8:15:00 PM 21.73 71.114 0.33 7.79 10.41 7.01
7/9/2021 8:30:00 PM 21.68 71.024 0.33 7.78 10.57 7.01
7/9/2021 8:45:00 PM 21.63 70.934 0.331 7.77 10.85 6.98
7/9/2021 9:00:00 PM 21.47 70.646 0.333 7.74 11.95 6.72
7/9/2021 9:15:00 PM 21.47 70.646 0.331 7.74 10.94 6.78
7/9/2021 9:30:00 PM 21.41 70.538 0.332 7.73 11.06 6.58
7/9/2021 9:45:00 PM 21.31 70.358 0.333 7.72 11.89 6.63
7/9/2021 10:00:00 PM 21.26 70.268 0.333 7.71 11.36 6.54
7/9/2021 10:15:00 PM 21.14 70.052 0.335 7.69 11.55 6.48
7/9/2021 10:30:00 PM 21.11 69.998 0.333 7.69 12.56 6.39
7/9/2021 10:45:00 PM 21.05 69.89 0.334 7.68 11.59 6.42
7/9/2021 11:00:00 PM 20.97 69.746 0.334 7.67 11.81 6.4
7/9/2021 11:15:00 PM 20.9 69.62 0.334 7.66 11.93 6.44
7/9/2021 11:30:00 PM 20.94 69.692 0.331 7.67 12.6 6.5
7/9/2021 11:45:00 PM 21.07 69.926 0.324 7.68 14.13 6.58
7/10/2021 12:00:00 AM 21.2 70.16 0.316 7.69 16.68 6.63
7/10/2021 12:15:00 AM 21.31 70.358 0.31 7.7 19.65 6.7
7/10/2021 12:30:00 AM 21.37 70.466 0.305 7.7 21.6 6.75
7/10/2021 12:45:00 AM 21.38 70.484 0.301 7.7 22.09 6.78
7/10/2021 1:00:00 AM 21.34 70.412 0.298 7.7 21.98 6.78
7/10/2021 1:15:00 AM 21.29 70.32201 0.294 7.69 21.86 6.79
7/10/2021 1:30:00 AM 21.27 70.286 0.288 7.69 21.67 6.81
7/10/2021 1:45:00 AM 21.27 70.286 0.282 7.69 22.51 6.81
7/10/2021 2:00:00 AM 21.25 70.25 0.278 7.69 22.26 6.86
7/10/2021 2:15:00 AM 21.21 70.17799 0.274 7.68 21.16 6.88
7/10/2021 2:30:00 AM 21.13 70.034 0.269 7.67 21.14 6.91
7/10/2021 2:45:00 AM 21.03 69.854 0.263 7.66 21.57 6.93
7/10/2021 3:00:00 AM 20.87 69.566 0.259 7.65 22.61 6.94
7/10/2021 3:15:00 AM 20.69 69.242 0.255 7.64 21.19 7
7/10/2021 3:30:00 AM 20.54 68.972 0.252 7.63 20.93 7.01
7/10/2021 3:45:00 AM 20.37 68.666 0.251 7.63 21.72 7.04
7/10/2021 4:00:00 AM 20.25 68.45 0.249 7.62 20.56 7.08
7/10/2021 4:15:00 AM 20.14 68.252 0.249 7.62 20.13 7.07
7/10/2021 4:30:00 AM 20.04 68.07201 0.249 7.61 19.68 7.07
7/10/2021 4:45:00 AM 19.95 67.91 0.249 7.61 50.16 7.1
7/10/2021 5:00:00 AM 19.89 67.802 0.25 7.61 24.62 7.11
7/10/2021 5:15:00 AM 19.81 67.658 0.251 7.6 22.67 7.11
7/10/2021 5:30:00 AM 19.75 67.55 0.253 7.6 19.44 7.08
7/10/2021 5:45:00 AM 19.7 67.46 0.254 7.6 20.83 7.06
7/10/2021 6:00:00 AM 19.65 67.37 0.255 7.6 19.47 7.08
7/10/2021 6:15:00 AM 19.62 67.316 0.256 7.6 23.44 7.07
7/10/2021 6:30:00 AM 19.6 67.28 0.256 7.6 21.45 7.11
7/10/2021 6:45:00 AM 19.55 67.19 0.258 7.6 18.67 7.09
7/10/2021 7:00:00 AM 19.5 67.1 0.259 7.59 23.58 7.08
7/10/2021 7:15:00 AM 19.45 67.01 0.261 7.6 19.61 7.07
7/10/2021 7:30:00 AM 19.43 66.974 0.261 7.59 19.89 7.06
7/10/2021 7:45:00 AM 19.36 66.848 0.263 7.6 16.94 6.96
7/10/2021 8:00:00 AM 19.37 66.866 0.263 7.6 15.06 7.07
7/10/2021 8:15:00 AM 19.35 66.83 0.262 7.6 21.94 7.06
7/10/2021 8:30:00 AM 19.33 66.794 0.262 7.6 15.34 7.15
7/10/2021 8:45:00 AM 19.22 66.596 0.265 7.6 21.11 7.11
7/10/2021 9:00:00 AM 19.26 66.668 0.263 7.61 18.01 7.19
7/10/2021 9:15:00 AM 19.24 66.632 0.263 7.61 14.96 7.18
7/10/2021 9:30:00 AM 19.2 66.56 0.264 7.62 13.79 7.11
7/10/2021 9:45:00 AM 19.2 66.56 0.264 7.63 14.38 7.18
7/10/2021 10:00:00 AM 19.18 66.524 0.265 7.64 13.13 7.45
7/10/2021 10:15:00 AM 19.18 66.524 0.265 7.64 14.06 7.5
7/10/2021 10:30:00 AM 19.2 66.56 0.265 7.66 13.68 7.57
7/10/2021 10:45:00 AM 19.24 66.632 0.265 7.67 13.23 7.75
7/10/2021 11:00:00 AM 19.37 66.866 0.266 7.69 12.94 7.9
7/10/2021 11:15:00 AM 19.46 67.028 0.266 7.71 13.65 8.07
7/10/2021 11:30:00 AM 19.49 67.082 0.267 7.72 13.72 8.01
7/10/2021 11:45:00 AM 19.69 67.442 0.267 7.75 13.27 8.31
7/10/2021 12:00:00 PM 19.87 67.766 0.267 7.77 12.37 8.22
7/10/2021 12:15:00 PM 20.01 68.018 0.267 7.8 12.49 8.57
7/10/2021 12:30:00 PM 20.15 68.27 0.268 7.82 12.36 8.69
7/10/2021 12:45:00 PM 20.37 68.666 0.269 7.85 12.46 8.86
7/10/2021 1:00:00 PM 20.58 69.044 0.269 7.87 11.87 8.98
7/10/2021 1:15:00 PM 20.66 69.188 0.268 7.89 11.74 8.99
7/10/2021 1:30:00 PM 20.7 69.26 0.269 7.91 12.46 8.93
7/10/2021 1:45:00 PM 20.82 69.476 0.27 7.92 12.39 9.05
7/10/2021 2:00:00 PM 20.99 69.782 0.27 7.94 14.4 9.19
7/10/2021 2:15:00 PM 21.18 70.124 0.271 7.96 12.54 9.26
7/10/2021 2:30:00 PM 21.32 70.376 0.27 7.98 12.71 9.29
7/10/2021 2:45:00 PM 21.41 70.538 0.272 7.99 11.98 9.26
7/10/2021 3:00:00 PM 21.51 70.718 0.271 8.01 13.23 9.31
7/10/2021 3:15:00 PM 21.56 70.808 0.272 8.02 12.71 9.27
7/10/2021 3:30:00 PM 21.7 71.06 0.272 8.04 12.3 9.26
7/10/2021 3:45:00 PM 21.76 71.168 0.273 8.05 21.79 9.22
7/10/2021 4:00:00 PM 21.82 71.276 0.273 8.05 17.43 9.19
7/10/2021 4:15:00 PM 21.83 71.294 0.274 8.05 13.13 9.14
7/10/2021 4:30:00 PM 21.8 71.24 0.274 8.05 11.68 9.01
7/10/2021 4:45:00 PM 21.79 71.222 0.275 8.04 11.95 8.86
7/10/2021 5:00:00 PM 21.81 71.258 0.275 8.03 11.67 8.81
7/10/2021 5:15:00 PM 21.86 71.348 0.276 8.02 14.07 8.76
7/10/2021 5:30:00 PM 21.87 71.366 0.277 8.01 14.54 8.56
7/10/2021 5:45:00 PM 21.91 71.438 0.277 8.01 13.17 8.64
7/10/2021 6:00:00 PM 21.92 71.456 0.277 8 12.62 8.52
7/10/2021 6:15:00 PM 21.89 71.402 0.277 7.98 12.41 8.38
7/10/2021 6:30:00 PM 21.87 71.366 0.278 7.96 12.94 8.18
7/10/2021 6:45:00 PM 21.87 71.366 0.278 7.95 12.81 8.21
7/10/2021 7:00:00 PM 21.86 71.348 0.28 7.93 13.13 8.13
7/10/2021 7:15:00 PM 21.87 71.366 0.28 7.92 13.03 7.99
7/10/2021 7:30:00 PM 21.86 71.348 0.281 7.9 13.49 7.86
7/10/2021 7:45:00 PM 21.83 71.294 0.281 7.88 13.13 7.8
7/10/2021 8:00:00 PM 21.8 71.24 0.282 7.86 13.35 7.65
7/10/2021 8:15:00 PM 21.74 71.132 0.282 7.84 13.64 7.58
7/10/2021 8:30:00 PM 21.68 71.024 0.283 7.83 13.56 7.46
7/10/2021 8:45:00 PM 21.6 70.88 0.285 7.81 13.16 7.31
7/10/2021 9:00:00 PM 21.58 70.844 0.284 7.79 14.3 7.22
7/10/2021 9:15:00 PM 21.52 70.736 0.284 7.77 15.41 7.13
7/10/2021 9:30:00 PM 21.49 70.682 0.284 7.76 15.53 7.11
7/10/2021 9:45:00 PM 21.45 70.61 0.284 7.74 16.72 7
7/10/2021 10:00:00 PM 21.37 70.466 0.285 7.72 15.96 6.93
7/10/2021 10:15:00 PM 21.29 70.32201 0.285 7.71 16.64 6.83
7/10/2021 10:30:00 PM 21.24 70.232 0.285 7.69 17.01 6.78
7/10/2021 10:45:00 PM 21.17 70.106 0.285 7.68 16.56 6.68
7/10/2021 11:00:00 PM 21.08 69.944 0.285 7.67 16.62 6.64
7/10/2021 11:15:00 PM 21.03 69.854 0.285 7.66 16.7 6.69
7/10/2021 11:30:00 PM 20.97 69.746 0.285 7.65 16.85 6.62
7/10/2021 11:45:00 PM 20.86 69.548 0.286 7.64 16.29 6.63
7/11/2021 12:00:00 AM 20.79 69.422 0.286 7.63 16.75 6.6
7/11/2021 12:15:00 AM 20.73 69.314 0.286 7.63 16.07 6.6
7/11/2021 12:30:00 AM 20.62 69.116 0.287 7.62 15.49 6.59
7/11/2021 12:45:00 AM 20.57 69.026 0.286 7.62 18.9 6.58
7/11/2021 1:00:00 AM 20.46 68.828 0.287 7.61 17.14 6.58
7/11/2021 1:15:00 AM 20.41 68.738 0.287 7.61 16.91 6.52
7/11/2021 1:30:00 AM 20.32 68.576 0.287 7.6 17.03 6.54
7/11/2021 1:45:00 AM 20.23 68.414 0.287 7.6 16.25 6.58
7/11/2021 2:00:00 AM 20.15 68.27 0.288 7.6 16.45 6.59
7/11/2021 2:15:00 AM 20.07 68.126 0.288 7.59 17.73 6.57
7/11/2021 2:30:00 AM 19.98 67.964 0.288 7.59 16.84 6.57
7/11/2021 2:45:00 AM 19.92 67.856 0.288 7.59 16.62 6.6
7/11/2021 3:00:00 AM 19.79 67.622 0.289 7.58 17.24 6.51
7/11/2021 3:15:00 AM 19.74 67.532 0.288 7.59 16.75 6.58
7/11/2021 3:30:00 AM 19.65 67.37 0.289 7.58 17.45 6.59
7/11/2021 3:45:00 AM 19.57 67.226 0.289 7.58 17.14 6.65
7/11/2021 4:00:00 AM 19.47 67.046 0.291 7.58 16.71 6.64
7/11/2021 4:15:00 AM 19.39 66.902 0.291 7.58 19.6 6.6
7/11/2021 4:30:00 AM 19.3 66.74 0.292 7.58 18.07 6.67
7/11/2021 4:45:00 AM 19.26 66.668 0.291 7.58 17.46 6.71
7/11/2021 5:00:00 AM 19.18 66.524 0.292 7.58 17.85 6.76
7/11/2021 5:15:00 AM 19.1 66.38 0.293 7.58 19.6 6.78
7/11/2021 5:30:00 AM 19.03 66.254 0.293 7.58 22.77 6.78
7/11/2021 5:45:00 AM 18.95 66.11 0.294 7.58 19.5 6.79
7/11/2021 6:00:00 AM 18.89 66.002 0.294 7.58 18.76 6.74
7/11/2021 6:15:00 AM 18.82 65.876 0.296 7.58 17.63 6.73
7/11/2021 6:30:00 AM 18.78 65.804 0.295 7.58 16.38 6.76
7/11/2021 6:45:00 AM 18.72 65.696 0.296 7.58 19.8 6.84
7/11/2021 7:00:00 AM 18.68 65.624 0.295 7.59 16.07 6.89
7/11/2021 7:15:00 AM 18.66 65.588 0.295 7.59 16.2 6.94
7/11/2021 7:30:00 AM 18.6 65.48 0.295 7.59 17.55 6.94
7/11/2021 7:45:00 AM 18.56 65.408 0.296 7.59 17.24 7.05
7/11/2021 8:00:00 AM 18.54 65.372 0.295 7.6 16.69 7
7/11/2021 8:15:00 AM 18.52 65.336 0.294 7.61 17.08 7.12
7/11/2021 8:30:00 AM 18.49 65.282 0.295 7.61 15.92 7.2
7/11/2021 8:45:00 AM 18.48 65.264 0.295 7.62 16.53 7.29
7/11/2021 9:00:00 AM 18.46 65.228 0.295 7.62 14.68 7.37
7/11/2021 9:15:00 AM 18.48 65.264 0.295 7.64 14.56 7.49
7/11/2021 9:30:00 AM 18.47 65.246 0.296 7.65 13.21 7.58
7/11/2021 9:45:00 AM 18.49 65.282 0.295 7.66 13.39 7.66
7/11/2021 10:00:00 AM 18.5 65.3 0.296 7.66 13.92 7.75
7/11/2021 10:15:00 AM 18.53 65.354 0.296 7.67 14 7.84
7/11/2021 10:30:00 AM 18.57 65.426 0.296 7.69 13.35 7.95
7/11/2021 10:45:00 AM 18.59 65.462 0.296 7.7 12.98 8
7/11/2021 11:00:00 AM 17.51 63.518 0.279 7.25 11.66 7.6
7/11/2021 11:15:00 AM 18.52 65.336 0.294 7.66 12.8 8.13
7/11/2021 11:30:00 AM 18.68 65.624 0.296 7.72 12.9 8.24
7/11/2021 11:45:00 AM 18.72 65.696 0.297 7.74 12.18 8.29
7/11/2021 12:00:00 PM 18.73 65.714 0.299 7.75 11.79 8.33
7/11/2021 12:15:00 PM 18.78 65.804 0.298 7.77 12.62 8.39
7/11/2021 12:30:00 PM 18.79 65.82201 0.298 7.77 12.74 8.39
7/11/2021 12:45:00 PM 18.77 65.786 0.298 7.77 12.65 8.33
7/11/2021 1:00:00 PM 18.77 65.786 0.298 7.77 12.03 8.34
7/11/2021 1:15:00 PM 18.78 65.804 0.299 7.77 12.14 8.37
7/11/2021 1:30:00 PM 18.77 65.786 0.299 7.78 11.87 8.36
7/11/2021 1:45:00 PM 18.77 65.786 0.298 7.78 12.5 8.34
7/11/2021 2:00:00 PM 18.74 65.732 0.296 7.77 12.9 8.28
7/11/2021 2:15:00 PM 18.76 65.768 0.296 7.77 12.16 8.23
7/11/2021 2:30:00 PM 18.76 65.768 0.298 7.76 11.78 8.18
7/11/2021 2:45:00 PM 18.78 65.804 0.298 7.77 13.51 8.2
7/11/2021 3:00:00 PM 18.79 65.82201 0.298 7.77 11.68 8.18
7/11/2021 3:15:00 PM 18.77 65.786 0.296 7.76 12.27 8.15
7/11/2021 3:30:00 PM 18.78 65.804 0.293 7.77 12.22 8.15
7/11/2021 3:45:00 PM 18.8 65.84 0.294 7.76 13.34 8.11
7/11/2021 4:00:00 PM 18.81 65.858 0.294 7.76 13.28 8.06
7/11/2021 4:15:00 PM 18.83 65.894 0.294 7.76 12.77 8.03
7/11/2021 4:30:00 PM 18.86 65.948 0.293 7.75 13.02 8.01
7/11/2021 4:45:00 PM 18.02 64.436 0.28 7.4 13.42 7.58
7/11/2021 5:00:00 PM 18.74 65.732 0.291 7.69 13.3 7.83
7/11/2021 5:15:00 PM 18.83 65.894 0.293 7.72 12.58 7.79
7/11/2021 5:30:00 PM 18.85 65.93 0.293 7.72 14.24 7.76
7/11/2021 5:45:00 PM 18.83 65.894 0.295 7.71 12.51 7.72
7/11/2021 6:00:00 PM 18.83 65.894 0.294 7.71 12.32 7.69
7/11/2021 6:15:00 PM 18.82 65.876 0.292 7.71 12.76 7.69
7/11/2021 6:30:00 PM 18.78 65.804 0.288 7.71 13.76 7.72
7/11/2021 6:45:00 PM 18.8 65.84 0.284 7.7 14.53 7.68
7/11/2021 7:00:00 PM 18.79 65.82201 0.283 7.69 16.31 7.64
7/11/2021 7:15:00 PM 18.78 65.804 0.284 7.68 16.04 7.6
7/11/2021 7:30:00 PM 18.76 65.768 0.284 7.68 16.28 7.55
7/11/2021 7:45:00 PM 18.74 65.732 0.283 7.67 16.11 7.56
7/11/2021 8:00:00 PM 18.71 65.67799 0.283 7.66 18.45 7.52
7/11/2021 8:15:00 PM 18.68 65.624 0.283 7.65 16.52 7.5
7/11/2021 8:30:00 PM 18.66 65.588 0.283 7.65 17.71 7.52
7/11/2021 8:45:00 PM 18.62 65.516 0.281 7.66 17.1 7.57
7/11/2021 9:00:00 PM 18.61 65.498 0.276 7.66 21.11 7.65
7/11/2021 9:15:00 PM 18.63 65.534 0.274 7.64 22.07 7.59
7/11/2021 9:30:00 PM 18.64 65.552 0.273 7.63 24.95 7.55
7/11/2021 9:45:00 PM 18.62 65.516 0.271 7.61 25.39 7.51
7/11/2021 10:00:00 PM 18.63 65.534 0.27 7.6 25.38 7.49
7/11/2021 10:15:00 PM 18.62 65.516 0.271 7.59 24.6 7.46
7/11/2021 10:30:00 PM 18.61 65.498 0.273 7.59 25.61 7.44
7/11/2021 10:45:00 PM 18.63 65.534 0.272 7.59 26.68 7.43
7/11/2021 11:00:00 PM 18.68 65.624 0.268 7.59 31.73 7.44
7/11/2021 11:15:00 PM 18.75 65.75 0.263 7.59 46.35 7.47
7/11/2021 11:30:00 PM 18.84 65.912 0.258 7.6 66.59 7.54
7/11/2021 11:45:00 PM 18.89 66.002 0.251 7.61 63.55 7.61
7/12/2021 12:00:00 AM 18.91 66.038 0.241 7.62 97.55 7.68
7/12/2021 12:15:00 AM 18.9 66.02 0.231 7.62 74.61 7.73
7/12/2021 12:30:00 AM 18.82 65.876 0.221 7.6 69.6 7.79
7/12/2021 12:45:00 AM 18.68 65.624 0.209 7.58 68.26 7.86
7/12/2021 1:00:00 AM 18.52 65.336 0.199 7.56 72.33 7.91
7/12/2021 1:15:00 AM 18.39 65.102 0.192 7.53 72.35 7.93
7/12/2021 1:30:00 AM 18.31 64.958 0.186 7.51 74.91 7.94
7/12/2021 1:45:00 AM 18.26 64.868 0.181 7.5 74.62 7.96
7/12/2021 2:00:00 AM 18.2 64.76 0.178 7.49 75.11 7.96
7/12/2021 2:15:00 AM 18.15 64.67 0.175 7.47 80.63 7.97
7/12/2021 2:30:00 AM 18.08 64.544 0.172 7.45 77.86 7.99
7/12/2021 2:45:00 AM 18 64.4 0.169 7.44 78.56 8
7/12/2021 3:00:00 AM 17.92 64.256 0.166 7.42 85.26 8.01
7/12/2021 3:15:00 AM 17.84 64.112 0.163 7.4 75.39 8.02
7/12/2021 3:30:00 AM 17.76 63.968 0.159 7.39 77.58 8.03
7/12/2021 3:45:00 AM 17.69 63.842 0.155 7.38 76.87 8.03
7/12/2021 4:00:00 AM 17.62 63.716 0.152 7.36 69.17 8.01
7/12/2021 4:15:00 AM 17.57 63.626 0.149 7.35 85.77 8.04
7/12/2021 4:30:00 AM 17.53 63.554 0.145 7.33 69.62 8.06
7/12/2021 4:45:00 AM 17.49 63.482 0.143 7.32 68.8 8.06
7/12/2021 5:00:00 AM 17.45 63.41 0.141 7.31 65.74 8.06
7/12/2021 5:15:00 AM 17.41 63.338 0.139 7.31 66.49 8.08
7/12/2021 5:30:00 AM 17.38 63.284 0.138 7.31 65.09 8.07
7/12/2021 5:45:00 AM 17.35 63.23 0.137 7.3 76.14 8.08
7/12/2021 6:00:00 AM 17.31 63.158 0.137 7.3 63.98 8.08
7/12/2021 6:15:00 AM 17.29 63.122 0.136 7.3 58.69 8.09
7/12/2021 6:30:00 AM 17.26 63.068 0.136 7.29 59.45 8.09
7/12/2021 6:45:00 AM 17.24 63.032 0.135 7.29 57.41 8.09
7/12/2021 7:00:00 AM 17.22 62.996 0.135 7.29 54.75 8.08
7/12/2021 7:15:00 AM 17.2 62.96 0.136 7.3 56.5 8.08
7/12/2021 7:30:00 AM 17.18 62.924 0.136 7.3 51.83 8.09
7/12/2021 7:45:00 AM 17.18 62.924 0.136 7.3 48.83 8.06
7/12/2021 8:00:00 AM 17.17 62.906 0.136 7.3 48.68 8.07
7/12/2021 8:15:00 AM 17.16 62.888 0.137 7.3 46.97 8.05
7/12/2021 8:30:00 AM 17.15 62.87 0.137 7.31 45.48 8.06
7/12/2021 8:45:00 AM 17.16 62.888 0.138 7.31 44.5 8.07
7/12/2021 9:00:00 AM 17.18 62.924 0.139 7.32 41.89 8.09
7/12/2021 9:15:00 AM 17.2 62.96 0.139 7.32 42.07 8.13
7/12/2021 9:30:00 AM 17.23 63.014 0.14 7.33 40.78 8.15
7/12/2021 9:45:00 AM 17.25 63.05 0.141 7.34 39.13 8.16
7/12/2021 10:00:00 AM 17.27 63.086 0.142 7.35 38.6 8.17
7/12/2021 10:15:00 AM 17.3 63.14 0.144 7.35 35.72 8.2
7/12/2021 10:30:00 AM 17.33 63.194 0.145 7.36 36.43 8.16
7/12/2021 10:45:00 AM 17.4 63.32 0.147 7.38 34.13 8.24
7/12/2021 11:00:00 AM 17.48 63.464 0.149 7.39 35.48 8.27
7/12/2021 11:15:00 AM 17.55 63.59 0.15 7.4 33.11 8.26
7/12/2021 11:30:00 AM 17.7 63.86 0.151 7.42 30.41 8.36
7/12/2021 11:45:00 AM 17.84 64.112 0.153 7.43 53.98 8.4
7/12/2021 12:00:00 PM 17.99 64.382 0.155 7.45 33.12 8.44
7/12/2021 12:15:00 PM 18.2 64.76 0.157 7.47 37.98 8.44
7/12/2021 12:30:00 PM 18.43 65.174 0.158 7.49 30.73 8.54
7/12/2021 12:45:00 PM 18.64 65.552 0.16 7.51 28.6 8.6
7/12/2021 1:00:00 PM 18.82 65.876 0.163 7.53 28.62 8.64
7/12/2021 1:15:00 PM 18.95 66.11 0.164 7.55 35.24 8.66
7/12/2021 1:30:00 PM 19.09 66.362 0.166 7.56 27.35 8.69
7/12/2021 1:45:00 PM 19.27 66.686 0.167 7.58 25.91 8.7
7/12/2021 2:00:00 PM 19.43 66.974 0.169 7.59 26.44 8.68
7/12/2021 2:15:00 PM 19.59 67.262 0.171 7.61 24.55 8.68
7/12/2021 2:30:00 PM 19.77 67.586 0.171 7.63 46.8 8.73
7/12/2021 2:45:00 PM 19.87 67.766 0.173 7.63 28.14 8.7
7/12/2021 3:00:00 PM 20 68 0.174 7.64 27.26 8.71
7/12/2021 3:15:00 PM 20.12 68.216 0.176 7.66 24.42 8.68
7/12/2021 3:30:00 PM 20.21 68.378 0.177 7.66 25.89 8.64
7/12/2021 3:45:00 PM 20.28 68.504 0.178 7.66 25.07 8.63
7/12/2021 4:00:00 PM 20.38 68.684 0.178 7.67 25.99 8.61
7/12/2021 4:15:00 PM 20.52 68.936 0.179 7.68 26.06 8.59
7/12/2021 4:30:00 PM 20.57 69.026 0.181 7.68 23.28 8.55
7/12/2021 4:45:00 PM 20.63 69.134 0.181 7.68 22.86 8.51
7/12/2021 5:00:00 PM 20.65 69.17 0.183 7.68 22.83 8.44
7/12/2021 5:15:00 PM 20.72 69.296 0.183 7.68 23.18 8.43
7/12/2021 5:30:00 PM 20.72 69.296 0.184 7.67 24.78 8.32
7/12/2021 5:45:00 PM 20.72 69.296 0.185 7.66 22.9 8.22
7/12/2021 6:00:00 PM 20.74 69.332 0.186 7.66 22.74 8.17
7/12/2021 6:15:00 PM 20.78 69.404 0.185 7.66 40.48 8.2
7/12/2021 6:30:00 PM 19.87 67.766 0.179 7.32 21.64 7.81
7/12/2021 6:45:00 PM 20.61 69.098 0.188 7.6 22.46 7.98
7/12/2021 7:00:00 PM 20.72 69.296 0.189 7.63 22.93 8.02
7/12/2021 7:15:00 PM 20.68 69.224 0.191 7.63 21.95 7.97
7/12/2021 7:30:00 PM 20.64 69.152 0.193 7.62 23.1 7.82
7/12/2021 7:45:00 PM 20.63 69.134 0.194 7.62 25.37 7.89
7/12/2021 8:00:00 PM 20.58 69.044 0.198 7.61 23.29 7.75
7/12/2021 8:15:00 PM 20.57 69.026 0.199 7.61 22.81 7.68
7/12/2021 8:30:00 PM 20.56 69.008 0.199 7.6 23.85 7.65
7/12/2021 8:45:00 PM 20.55 68.99 0.201 7.59 24.15 7.65
7/12/2021 9:00:00 PM 20.53 68.954 0.201 7.59 23.97 7.59
7/12/2021 9:15:00 PM 20.48 68.864 0.203 7.58 25.34 7.57
7/12/2021 9:30:00 PM 20.46 68.828 0.203 7.58 25.88 7.54
7/12/2021 9:45:00 PM 20.41 68.738 0.204 7.57 27.21 7.52
7/12/2021 10:00:00 PM 20.38 68.684 0.204 7.56 26.9 7.51
7/12/2021 10:15:00 PM 19.03 66.254 0.191 7.07 25.78 7
7/12/2021 10:30:00 PM 20.13 68.234 0.204 7.49 26.75 7.42
7/12/2021 10:45:00 PM 20.26 68.468 0.206 7.54 27.13 7.48
7/12/2021 11:00:00 PM 20.24 68.432 0.207 7.54 27.01 7.47
7/12/2021 11:15:00 PM 20.2 68.36 0.208 7.54 26.87 7.45
7/12/2021 11:30:00 PM 20.17 68.306 0.208 7.53 26.27 7.45
7/12/2021 11:45:00 PM 20.13 68.234 0.209 7.53 26.56 7.42
7/13/2021 12:00:00 AM 20.09 68.162 0.21 7.53 26.51 7.43
7/13/2021 12:15:00 AM 20.04 68.07201 0.211 7.53 42.33 7.42
7/13/2021 12:30:00 AM 19.99 67.982 0.212 7.52 28.58 7.42
7/13/2021 12:45:00 AM 19.95 67.91 0.212 7.52 26.31 7.44
7/13/2021 1:00:00 AM 19.9 67.82 0.213 7.52 26.16 7.42
7/13/2021 1:15:00 AM 19.88 67.784 0.214 7.52 25.84 7.43
7/13/2021 1:30:00 AM 19.82 67.676 0.216 7.51 29.24 7.41
7/13/2021 1:45:00 AM 19.78 67.604 0.216 7.52 26.78 7.41
7/13/2021 2:00:00 AM 19.74 67.532 0.217 7.51 26.34 7.39
7/13/2021 2:15:00 AM 19.71 67.478 0.218 7.51 26.32 7.41
7/13/2021 2:30:00 AM 19.68 67.424 0.217 7.52 25.79 7.44
7/13/2021 2:45:00 AM 19.64 67.352 0.219 7.51 26.75 7.41
7/13/2021 3:00:00 AM 19.59 67.262 0.219 7.52 26.31 7.41
7/13/2021 3:15:00 AM 19.56 67.208 0.219 7.52 26.11 7.39
7/13/2021 3:30:00 AM 19.52 67.136 0.22 7.52 26.1 7.35
7/13/2021 3:45:00 AM 19.49 67.082 0.22 7.52 26.62 7.38
7/13/2021 4:00:00 AM 19.45 67.01 0.221 7.52 27.1 7.39
7/13/2021 4:15:00 AM 19.41 66.938 0.222 7.52 26.34 7.41
7/13/2021 4:30:00 AM 19.38 66.884 0.222 7.52 26.14 7.39
7/13/2021 4:45:00 AM 19.35 66.83 0.222 7.52 26.81 7.42
7/13/2021 5:00:00 AM 19.3 66.74 0.223 7.52 25.94 7.42
7/13/2021 5:15:00 AM 19.26 66.668 0.223 7.52 33.49 7.41
7/13/2021 5:30:00 AM 19.24 66.632 0.223 7.52 29.29 7.44
7/13/2021 5:45:00 AM 19.19 66.542 0.224 7.52 26.97 7.41
7/13/2021 6:00:00 AM 19.16 66.488 0.224 7.52 25.71 7.42
7/13/2021 6:15:00 AM 19.14 66.452 0.225 7.52 35.63 7.4
7/13/2021 6:30:00 AM 19.12 66.416 0.224 7.51 31.68 7.46
7/13/2021 6:45:00 AM 19.09 66.362 0.225 7.51 26.52 7.48
7/13/2021 7:00:00 AM 19.07 66.326 0.226 7.51 30.79 7.51
7/13/2021 7:15:00 AM 19.06 66.308 0.226 7.52 25.48 7.52
7/13/2021 7:30:00 AM 19.05 66.29 0.227 7.52 34.47 7.54
7/13/2021 7:45:00 AM 19.04 66.272 0.227 7.52 28.29 7.53
7/13/2021 8:00:00 AM 19.04 66.272 0.227 7.53 27.42 7.56
7/13/2021 8:15:00 AM 19.05 66.29 0.229 7.54 26.03 7.6
7/13/2021 8:30:00 AM 19.11 66.398 0.229 7.55 24.95 7.67
7/13/2021 8:45:00 AM 19.18 66.524 0.229 7.55 26.71 7.74
7/13/2021 9:00:00 AM 19.23 66.614 0.23 7.56 41.22 7.76
7/13/2021 9:15:00 AM 19.29 66.722 0.23 7.57 25.39 7.86
7/13/2021 9:30:00 AM 19.36 66.848 0.23 7.58 20.79 7.79
7/13/2021 9:45:00 AM 19.43 66.974 0.23 7.6 21.52 7.92
7/13/2021 10:00:00 AM 19.49 67.082 0.231 7.61 19.62 7.89
7/13/2021 10:15:00 AM 19.52 67.136 0.231 7.61 17.87 7.99
7/13/2021 10:30:00 AM 19.56 67.208 0.232 7.62 18.57 7.98
7/13/2021 10:45:00 AM 19.65 67.37 0.231 7.64 19.04 8.05
7/13/2021 11:00:00 AM 19.72 67.496 0.232 7.65 18.18 8
7/13/2021 11:15:00 AM 19.79 67.622 0.232 7.66 18.15 8.24
7/13/2021 11:30:00 AM 19.91 67.838 0.232 7.68 17.11 8.36
7/13/2021 11:45:00 AM 20.02 68.036 0.232 7.69 16.66 8.4
7/13/2021 12:00:00 PM 20.11 68.198 0.232 7.7 17.2 8.44
7/13/2021 12:15:00 PM 20.2 68.36 0.232 7.72 16.51 8.51
7/13/2021 12:30:00 PM 20.32 68.576 0.233 7.73 22.17 8.61
7/13/2021 12:45:00 PM 20.45 68.81 0.232 7.75 16.9 8.71
7/13/2021 1:00:00 PM 20.59 69.062 0.232 7.77 16.69 8.77
7/13/2021 1:15:00 PM 20.72 69.296 0.232 7.78 16.12 8.78
7/13/2021 1:30:00 PM 20.83 69.494 0.232 7.79 16.47 8.78
7/13/2021 1:45:00 PM 20.91 69.638 0.233 7.8 15.43 8.81
7/13/2021 2:00:00 PM 21.06 69.908 0.233 7.81 15.48 8.8
7/13/2021 2:15:00 PM 21.23 70.214 0.233 8.02 16.73 8.81
7/13/2021 2:30:00 PM 21.33 70.394 0.233 7.88 16.18 8.67
7/13/2021 2:45:00 PM 21.48 70.664 0.233 7.85 15.17 8.78
7/13/2021 3:00:00 PM 21.65 70.97 0.233 7.86 15.27 8.83
7/13/2021 3:15:00 PM 21.82 71.276 0.233 7.87 15.29 8.78
7/13/2021 3:30:00 PM 21.97 71.546 0.233 7.87 15.79 8.78
7/13/2021 3:45:00 PM 22.07 71.726 0.233 7.87 16.05 8.7
7/13/2021 4:00:00 PM 22.2 71.96 0.233 7.88 22.15 8.74
7/13/2021 4:15:00 PM 22.32 72.176 0.232 7.88 15.96 8.75
7/13/2021 4:30:00 PM 22.44 72.392 0.232 7.89 14.74 8.71
7/13/2021 4:45:00 PM 22.46 72.42799 0.232 7.88 14.57 8.61
7/13/2021 5:00:00 PM 22.46 72.42799 0.231 7.87 15.1 8.48
7/13/2021 5:15:00 PM 22.49 72.482 0.231 7.86 14.84 8.43
7/13/2021 5:30:00 PM 22.54 72.57201 0.231 7.85 14.72 8.37
7/13/2021 5:45:00 PM 22.59 72.662 0.231 7.84 16.18 8.33
7/13/2021 6:00:00 PM 22.6 72.68 0.232 7.83 15.55 8.2
7/13/2021 6:15:00 PM 22.58 72.644 0.231 7.81 15.95 8.03
7/13/2021 6:30:00 PM 22.57 72.626 0.231 7.8 15.34 7.99
7/13/2021 6:45:00 PM 22.6 72.68 0.23 7.79 15.16 7.93
7/13/2021 7:00:00 PM 22.61 72.698 0.23 7.78 15.82 7.87
7/13/2021 7:15:00 PM 22.62 72.716 0.23 7.77 15.59 7.81
7/13/2021 7:30:00 PM 22.62 72.716 0.229 7.75 15.62 7.76
7/13/2021 7:45:00 PM 22.59 72.662 0.229 7.74 16.2 7.66
7/13/2021 8:00:00 PM 22.57 72.626 0.228 7.72 17.63 7.56
7/13/2021 8:15:00 PM 22.53 72.554 0.228 7.71 17.31 7.52
7/13/2021 8:30:00 PM 22.48 72.464 0.228 7.69 17.74 7.43
7/13/2021 8:45:00 PM 22.42 72.356 0.229 7.68 16.98 7.33
7/13/2021 9:00:00 PM 22.39 72.302 0.228 7.66 18.5 7.29
7/13/2021 9:15:00 PM 22.33 72.194 0.228 7.65 18.81 7.22
7/13/2021 9:30:00 PM 22.28 72.104 0.228 7.64 20.08 7.18
7/13/2021 9:45:00 PM 22.18 71.924 0.226 7.64 22.64 7.17
7/13/2021 10:00:00 PM 22.06 71.708 0.224 7.63 25.31 7.15
7/13/2021 10:15:00 PM 22.01 71.618 0.225 7.63 27.47 7.12
7/13/2021 10:30:00 PM 21.95 71.51 0.226 7.62 25.13 7.12
7/13/2021 10:45:00 PM 21.87 71.366 0.225 7.61 26.34 7.05
7/13/2021 11:00:00 PM 21.79 71.222 0.225 7.6 25.46 7.05
7/13/2021 11:15:00 PM 21.72 71.096 0.226 7.6 23.97 7.01
7/13/2021 11:30:00 PM 21.65 70.97 0.227 7.58 23.08 6.98
7/13/2021 11:45:00 PM 21.57 70.826 0.229 7.57 23.8 6.95
7/14/2021 12:00:00 AM 21.49 70.682 0.23 7.56 24.35 6.96
7/14/2021 12:15:00 AM 21.42 70.556 0.229 7.55 25.36 6.94
7/14/2021 12:30:00 AM 21.34 70.412 0.228 7.54 25.51 6.95
7/14/2021 12:45:00 AM 21.25 70.25 0.228 7.54 26.23 6.95
7/14/2021 1:00:00 AM 21.18 70.124 0.229 7.53 26.32 6.96
7/14/2021 1:15:00 AM 21.1 69.98 0.229 7.52 25.07 6.95
7/14/2021 1:30:00 AM 21.03 69.854 0.23 7.52 25.35 6.93
7/14/2021 1:45:00 AM 20.96 69.728 0.23 7.51 24.59 6.92
7/14/2021 2:00:00 AM 20.9 69.62 0.23 7.51 45.11 6.88
7/14/2021 2:15:00 AM 20.83 69.494 0.231 7.5 28.8 6.9
7/14/2021 2:30:00 AM 20.76 69.368 0.232 7.5 28.1 6.92
7/14/2021 2:45:00 AM 20.7 69.26 0.234 7.5 25.19 6.9
7/14/2021 3:00:00 AM 20.65 69.17 0.235 7.5 25.99 6.9
7/14/2021 3:15:00 AM 20.61 69.098 0.236 7.5 30.96 6.96
7/14/2021 3:30:00 AM 20.59 69.062 0.237 7.51 26.94 7.01
7/14/2021 3:45:00 AM 20.58 69.044 0.236 7.51 26.32 7.02
7/14/2021 4:00:00 AM 20.55 68.99 0.235 7.51 27.54 7.03
7/14/2021 4:15:00 AM 20.55 68.99 0.232 7.52 34.02 7.04
7/14/2021 4:30:00 AM 20.55 68.99 0.228 7.52 33.47 7.1
7/14/2021 4:45:00 AM 20.56 69.008 0.222 7.53 39.31 7.2
7/14/2021 5:00:00 AM 20.56 69.008 0.216 7.53 43.7 7.23
7/14/2021 5:15:00 AM 20.53 68.954 0.209 7.53 48.78 7.32
7/14/2021 5:30:00 AM 20.46 68.828 0.203 7.53 50.95 7.33
7/14/2021 5:45:00 AM 20.34 68.612 0.196 7.52 60.44 7.36
7/14/2021 6:00:00 AM 20.17 68.306 0.19 7.5 53.82 7.43
7/14/2021 6:15:00 AM 19.99 67.982 0.184 7.48 51.65 7.5
7/14/2021 6:30:00 AM 19.83 67.694 0.179 7.45 62.55 7.45
7/14/2021 6:45:00 AM 19.69 67.442 0.175 7.42 66.18 7.47
7/14/2021 7:00:00 AM 19.59 67.262 0.171 7.41 75.72 7.51
7/14/2021 7:15:00 AM 19.5 67.1 0.168 7.4 70.08 7.52
7/14/2021 7:30:00 AM 19.45 67.01 0.165 7.39 67.96 7.57
7/14/2021 7:45:00 AM 19.42 66.956 0.162 7.38 71.65 7.61
7/14/2021 8:00:00 AM 19.41 66.938 0.16 7.37 71.7 7.65
7/14/2021 8:15:00 AM 19.38 66.884 0.159 7.37 56.6 7.67
7/14/2021 8:30:00 AM 19.36 66.848 0.157 7.37 69.78 7.69
7/14/2021 8:45:00 AM 19.34 66.812 0.156 7.37 75.39 7.71
7/14/2021 9:00:00 AM 19.33 66.794 0.155 7.37 56.8 7.67
7/14/2021 9:15:00 AM 19.33 66.794 0.155 7.38 85.08 7.72
7/14/2021 9:30:00 AM 19.33 66.794 0.155 7.38 88.16 7.78
7/14/2021 9:45:00 AM 19.35 66.83 0.155 7.39 63.55 7.8
7/14/2021 10:00:00 AM 19.37 66.866 0.155 7.39 53.24 7.86
7/14/2021 10:15:00 AM 19.39 66.902 0.155 7.4 63.32 7.88
7/14/2021 10:30:00 AM 19.45 67.01 0.155 7.41 42.86 7.91
7/14/2021 10:45:00 AM 19.56 67.208 0.156 7.42 148.88 7.98
7/14/2021 11:00:00 AM 19.64 67.352 0.157 7.43 80.21 8.04
7/14/2021 11:15:00 AM 19.74 67.532 0.157 7.44 57.57 8.12
7/14/2021 11:30:00 AM 19.86 67.748 0.158 7.46 43.75 8.16
7/14/2021 11:45:00 AM 19.99 67.982 0.158 7.47 39.12 8.25
7/14/2021 12:00:00 PM 20.08 68.144 0.158 7.49 39.64 8.27
7/14/2021 12:15:00 PM 20.18 68.324 0.159 7.5 32.9 8.33
7/14/2021 12:30:00 PM 20.3 68.54 0.16 7.52 41.81 8.39
7/14/2021 12:45:00 PM 20.38 68.684 0.161 7.53 40.53 8.4
7/14/2021 1:00:00 PM 20.46 68.828 0.161 7.54 34.49 8.42
7/14/2021 1:15:00 PM 20.55 68.99 0.163 7.55 35.75 8.43
7/14/2021 1:30:00 PM 20.63 69.134 0.164 7.57 32.92 8.47
7/14/2021 1:45:00 PM 20.75 69.35 0.165 7.58 35.36 8.48
7/14/2021 2:00:00 PM 20.84 69.512 0.166 7.59 32.51 8.47
7/14/2021 2:15:00 PM 20.85 69.53 0.166 7.59 30.69 8.41
7/14/2021 2:30:00 PM 20.84 69.512 0.168 7.6 30.2 8.37
7/14/2021 2:45:00 PM 20.82 69.476 0.168 7.59 31.63 8.29
7/14/2021 3:00:00 PM 20.78 69.404 0.169 7.58 30.89 8.22
7/14/2021 3:15:00 PM 20.77 69.386 0.169 7.58 29.62 8.17
7/14/2021 3:30:00 PM 20.79 69.422 0.171 7.57 28.22 8.15
7/14/2021 3:45:00 PM 20.85 69.53 0.172 7.57 29.5 8.1
7/14/2021 4:00:00 PM 20.92 69.656 0.173 7.56 31.29 8.08
7/14/2021 4:15:00 PM 20.97 69.746 0.175 7.56 30 8.07
7/14/2021 4:30:00 PM 21.01 69.818 0.175 7.55 27.54 8
7/14/2021 4:45:00 PM 21.04 69.872 0.176 7.55 29.03 8
7/14/2021 5:00:00 PM 21.04 69.872 0.178 7.55 28.26 7.94
7/14/2021 5:15:00 PM 21.07 69.926 0.179 7.55 26.73 7.94
7/14/2021 5:30:00 PM 21.13 70.034 0.18 7.55 27.68 7.96
7/14/2021 5:45:00 PM 21.2 70.16 0.18 7.56 27.56 7.93
7/14/2021 6:00:00 PM 21.24 70.232 0.181 7.56 26.39 7.93
7/14/2021 6:15:00 PM 21.28 70.304 0.182 7.56 26.73 7.91
7/14/2021 6:30:00 PM 21.29 70.32201 0.183 7.56 27.25 7.88
7/14/2021 6:45:00 PM 21.3 70.34 0.183 7.55 27.57 7.87
7/14/2021 7:00:00 PM 21.28 70.304 0.184 7.55 27.9 7.86
7/14/2021 7:15:00 PM 21.26 70.268 0.185 7.55 27.78 7.83
7/14/2021 7:30:00 PM 21.21 70.17799 0.186 7.55 27.57 7.8
7/14/2021 7:45:00 PM 21.17 70.106 0.188 7.54 29.07 7.78
7/14/2021 8:00:00 PM 21.11 69.998 0.19 7.54 28.31 7.72
7/14/2021 8:15:00 PM 21.07 69.926 0.191 7.53 27.99 7.68
7/14/2021 8:30:00 PM 21.04 69.872 0.192 7.53 29.25 7.67
7/14/2021 8:45:00 PM 20.98 69.764 0.194 7.52 28.04 7.6
7/14/2021 9:00:00 PM 20.93 69.674 0.195 7.51 28.79 7.6
7/14/2021 9:15:00 PM 20.9 69.62 0.195 7.51 29.69 7.57
7/14/2021 9:30:00 PM 20.84 69.512 0.196 7.5 30.29 7.53
7/14/2021 9:45:00 PM 20.8 69.44 0.197 7.49 32.16 7.48
7/14/2021 10:00:00 PM 20.75 69.35 0.198 7.48 32.06 7.44
7/14/2021 10:15:00 PM 20.69 69.242 0.198 7.48 33.31 7.4
7/14/2021 10:30:00 PM 20.64 69.152 0.199 7.47 32.69 7.38
7/14/2021 10:45:00 PM 20.59 69.062 0.199 7.47 32.53 7.36
7/14/2021 11:00:00 PM 20.53 68.954 0.199 7.46 32.07 7.35
7/14/2021 11:15:00 PM 20.48 68.864 0.199 7.46 33.19 7.34
7/14/2021 11:30:00 PM 20.43 68.774 0.2 7.46 33.11 7.33
7/14/2021 11:45:00 PM 20.37 68.666 0.201 7.46 32.68 7.31
7/15/2021 12:00:00 AM 20.32 68.576 0.2 7.46 33.58 7.32
7/15/2021 12:15:00 AM 20.27 68.486 0.201 7.45 35.6 7.31
7/15/2021 12:30:00 AM 20.21 68.378 0.2 7.46 35.95 7.31
7/15/2021 12:45:00 AM 20.15 68.27 0.201 7.45 33.37 7.31
7/15/2021 1:00:00 AM 20.1 68.18 0.201 7.46 34.91 7.33
7/15/2021 1:15:00 AM 20.05 68.09 0.2 7.46 32.34 7.34
7/15/2021 1:30:00 AM 19.99 67.982 0.201 7.46 31.56 7.35
7/15/2021 1:45:00 AM 19.94 67.892 0.201 7.45 34.93 7.35
7/15/2021 2:00:00 AM 19.88 67.784 0.201 7.46 31.91 7.35
7/15/2021 2:15:00 AM 19.82 67.676 0.202 7.45 31.87 7.35
7/15/2021 2:30:00 AM 19.76 67.568 0.203 7.46 32.88 7.34
7/15/2021 2:45:00 AM 19.71 67.478 0.203 7.46 31.88 7.33
7/15/2021 3:00:00 AM 19.66 67.388 0.204 7.46 31.98 7.33
7/15/2021 3:15:00 AM 19.61 67.298 0.205 7.46 34.57 7.36
7/15/2021 3:30:00 AM 19.57 67.226 0.205 7.46 32.22 7.35
7/15/2021 3:45:00 AM 19.53 67.154 0.206 7.46 31.64 7.32
7/15/2021 4:00:00 AM 19.49 67.082 0.206 7.46 32.11 7.34
7/15/2021 4:15:00 AM 19.44 66.992 0.208 7.46 32.1 7.35
7/15/2021 4:30:00 AM 19.4 66.92 0.208 7.46 40.67 7.33
7/15/2021 4:45:00 AM 19.37 66.866 0.209 7.46 35.5 7.32
7/15/2021 5:00:00 AM 19.33 66.794 0.209 7.46 33.35 7.33
7/15/2021 5:15:00 AM 19.3 66.74 0.21 7.46 33.7 7.32
7/15/2021 5:30:00 AM 19.27 66.686 0.21 7.46 35.21 7.36
7/15/2021 5:45:00 AM 19.23 66.614 0.211 7.46 45.8 7.4
7/15/2021 6:00:00 AM 19.2 66.56 0.211 7.46 37.14 7.41
7/15/2021 6:15:00 AM 19.18 66.524 0.212 7.47 34.25 7.41
7/15/2021 6:30:00 AM 19.15 66.47 0.213 7.47 33.58 7.4
7/15/2021 6:45:00 AM 19.13 66.434 0.213 7.47 33.91 7.4
7/15/2021 7:00:00 AM 19.11 66.398 0.214 7.47 33.78 7.41
7/15/2021 7:15:00 AM 19.08 66.344 0.214 7.47 32.99 7.42
7/15/2021 7:30:00 AM 19.06 66.308 0.215 7.48 34.55 7.47
7/15/2021 7:45:00 AM 19.05 66.29 0.215 7.48 30.73 7.38
7/15/2021 8:00:00 AM 19.04 66.272 0.216 7.48 29.84 7.47
7/15/2021 8:15:00 AM 19.04 66.272 0.217 7.49 33.2 7.49
7/15/2021 8:30:00 AM 19.05 66.29 0.217 7.49 37.28 7.59
7/15/2021 8:45:00 AM 19.06 66.308 0.218 7.5 31.39 7.58
7/15/2021 9:00:00 AM 19.09 66.362 0.218 7.51 32.52 7.71
7/15/2021 9:15:00 AM 19.12 66.416 0.219 7.52 36.66 7.73
7/15/2021 9:30:00 AM 19.19 66.542 0.219 7.53 34.96 7.68
7/15/2021 9:45:00 AM 19.25 66.65 0.22 7.53 31.51 7.78
7/15/2021 10:00:00 AM 19.33 66.794 0.22 7.55 40.48 7.96
7/15/2021 10:15:00 AM 19.41 66.938 0.221 7.56 30.03 8.04
7/15/2021 10:30:00 AM 19.53 67.154 0.221 7.58 27.37 8.01
7/15/2021 10:45:00 AM 19.66 67.388 0.222 7.6 27.41 8.02
7/15/2021 11:00:00 AM 19.76 67.568 0.222 7.61 26.22 8.16
7/15/2021 11:15:00 AM 19.87 67.766 0.223 7.63 27.8 8.26
7/15/2021 11:30:00 AM 20 68 0.223 7.64 30.64 8.38
7/15/2021 11:45:00 AM 20.08 68.144 0.223 7.65 112.7 8.42
7/15/2021 12:00:00 PM 20.15 68.27 0.224 7.66 36.65 8.44
7/15/2021 12:15:00 PM 20.27 68.486 0.224 7.67 25.81 8.51
7/15/2021 12:30:00 PM 20.41 68.738 0.225 7.69 22.93 8.52
7/15/2021 12:45:00 PM 20.57 69.026 0.226 7.7 22.24 8.56
7/15/2021 1:00:00 PM 20.75 69.35 0.225 7.71 21.47 8.6
7/15/2021 1:15:00 PM 20.92 69.656 0.224 7.73 24.14 8.62
7/15/2021 1:30:00 PM 21.11 69.998 0.225 7.75 21.77 8.7
7/15/2021 1:45:00 PM 21.33 70.394 0.226 7.77 20.77 8.78
7/15/2021 2:00:00 PM 21.5 70.7 0.226 7.79 20.7 8.81
7/15/2021 2:15:00 PM 21.68 71.024 0.226 7.8 29.33 8.82
7/15/2021 2:30:00 PM 21.77 71.186 0.226 7.8 25.48 8.81
7/15/2021 2:45:00 PM 21.91 71.438 0.226 7.81 23.12 8.79
7/15/2021 3:00:00 PM 22.06 71.708 0.226 7.83 24.04 8.83
7/15/2021 3:15:00 PM 22.17 71.906 0.226 7.83 22 8.75
7/15/2021 3:30:00 PM 22.38 72.284 0.226 7.85 21.92 8.79
7/15/2021 3:45:00 PM 22.53 72.554 0.226 7.85 21.76 8.8
7/15/2021 4:00:00 PM 22.62 72.716 0.226 7.86 22.56 8.72
7/15/2021 4:15:00 PM 22.76 72.968 0.226 7.86 24.5 8.72
7/15/2021 4:30:00 PM 22.87 73.166 0.227 7.86 21.38 8.7
7/15/2021 4:45:00 PM 23 73.4 0.226 7.86 20.93 8.6
7/15/2021 5:00:00 PM 23.1 73.58 0.226 7.86 21.62 8.55
7/15/2021 5:15:00 PM 23.16 73.688 0.226 7.86 21.68 8.45
7/15/2021 5:30:00 PM 23.23 73.814 0.225 7.85 21.2 8.45
7/15/2021 5:45:00 PM 23.29 73.922 0.225 7.85 21.94 8.33
7/15/2021 6:00:00 PM 23.3 73.94 0.224 7.84 28.61 8.27
7/15/2021 6:15:00 PM 23.29 73.922 0.224 7.82 22.47 8.19
7/15/2021 6:30:00 PM 23.26 73.868 0.224 7.81 23.18 8.11
7/15/2021 6:45:00 PM 23.24 73.832 0.224 7.79 22.52 8.01
7/15/2021 7:00:00 PM 23.2 73.76 0.223 7.77 24.91 7.93
7/15/2021 7:15:00 PM 23.14 73.652 0.223 7.76 22.53 7.84
7/15/2021 7:30:00 PM 23.09 73.562 0.223 7.74 22.54 7.74
7/15/2021 7:45:00 PM 23.03 73.454 0.223 7.72 22.85 7.64
7/15/2021 8:00:00 PM 22.97 73.346 0.223 7.71 23.4 7.58
7/15/2021 8:15:00 PM 22.9 73.22 0.222 7.69 24.05 7.52
7/15/2021 8:30:00 PM 22.8 73.04 0.223 7.67 23.44 7.44
7/15/2021 8:45:00 PM 22.71 72.878 0.223 7.66 25.56 7.33
7/15/2021 9:00:00 PM 22.62 72.716 0.223 7.64 25.66 7.25
7/15/2021 9:15:00 PM 22.53 72.554 0.223 7.63 26.11 7.23
7/15/2021 9:30:00 PM 22.42 72.356 0.225 7.61 29.25 7.18
7/15/2021 9:45:00 PM 22.35 72.23 0.225 7.6 26.76 7.14
7/15/2021 10:00:00 PM 22.27 72.086 0.225 7.59 28.43 7.07
7/15/2021 10:15:00 PM 22.2 71.96 0.226 7.58 39.88 7.05
7/15/2021 10:30:00 PM 22.12 71.816 0.226 7.57 31.82 7.03
7/15/2021 10:45:00 PM 22.04 71.672 0.227 7.56 34.64 7.03
7/15/2021 11:00:00 PM 21.95 71.51 0.227 7.56 36.97 6.99
7/15/2021 11:15:00 PM 21.86 71.348 0.228 7.55 33.65 7
7/15/2021 11:30:00 PM 21.77 71.186 0.229 7.54 33.08 6.98
7/15/2021 11:45:00 PM 21.68 71.024 0.23 7.53 32.34 6.88
7/16/2021 12:00:00 AM 21.6 70.88 0.224 7.53 36.61 6.91
7/16/2021 12:15:00 AM 21.52 70.736 0.23 7.52 35.56 6.9
7/16/2021 12:30:00 AM 21.43 70.574 0.232 7.52 31.97 6.86
7/16/2021 12:45:00 AM 21.35 70.43 0.233 7.51 30.9 6.85
7/16/2021 1:00:00 AM 21.28 70.304 0.234 7.51 32.35 6.85
7/16/2021 1:15:00 AM 21.2 70.16 0.235 7.51 26.74 6.89
7/16/2021 1:30:00 AM 21.12 70.016 0.236 7.51 26.09 6.89
7/16/2021 1:45:00 AM 21.05 69.89 0.237 7.51 26.37 6.91
7/16/2021 2:00:00 AM 20.98 69.764 0.238 7.5 26.81 6.84
7/16/2021 2:15:00 AM 20.9 69.62 0.239 7.5 26.75 6.83
7/16/2021 2:30:00 AM 20.84 69.512 0.24 7.5 26.01 6.8
7/16/2021 2:45:00 AM 20.78 69.404 0.241 7.5 25.47 6.85
7/16/2021 3:00:00 AM 20.7 69.26 0.242 7.5 26.14 6.81
7/16/2021 3:15:00 AM 20.64 69.152 0.243 7.5 28.08 6.85
7/16/2021 3:30:00 AM 20.56 69.008 0.245 7.49 26.43 6.81
7/16/2021 3:45:00 AM 20.49 68.882 0.246 7.49 26.96 6.8
7/16/2021 4:00:00 AM 20.43 68.774 0.247 7.49 26.53 6.77
7/16/2021 4:15:00 AM 20.35 68.63 0.248 7.49 26.62 6.81
7/16/2021 4:30:00 AM 20.29 68.522 0.249 7.49 27.05 6.87
7/16/2021 4:45:00 AM 20.23 68.414 0.25 7.49 31.02 6.87
7/16/2021 5:00:00 AM 20.17 68.306 0.25 7.48 27.66 6.87
7/16/2021 5:15:00 AM 20.12 68.216 0.251 7.48 28.04 6.81
7/16/2021 5:30:00 AM 20.05 68.09 0.252 7.48 28.49 6.72
7/16/2021 5:45:00 AM 20.02 68.036 0.252 7.48 28.27 6.77
7/16/2021 6:00:00 AM 19.96 67.92799 0.252 7.48 28.63 6.71
7/16/2021 6:15:00 AM 19.91 67.838 0.253 7.48 29.95 6.78
7/16/2021 6:30:00 AM 19.84 67.712 0.254 7.48 28.58 6.8
7/16/2021 6:45:00 AM 19.81 67.658 0.254 7.48 27.8 6.75
7/16/2021 7:00:00 AM 19.76 67.568 0.255 7.48 27.06 6.9
7/16/2021 7:15:00 AM 19.73 67.514 0.256 7.49 29.59 6.87
7/16/2021 7:30:00 AM 19.72 67.496 0.256 7.49 24.89 6.94
7/16/2021 7:45:00 AM 19.7 67.46 0.257 7.5 23.49 6.99
7/16/2021 8:00:00 AM 19.72 67.496 0.257 7.5 24.65 6.96
7/16/2021 8:15:00 AM 19.72 67.496 0.258 7.51 23.92 7.04
7/16/2021 8:30:00 AM 19.74 67.532 0.258 7.52 25 7.08
7/16/2021 8:45:00 AM 19.79 67.622 0.26 7.53 24.76 7.26
7/16/2021 9:00:00 AM 19.83 67.694 0.255 7.55 22.3 7.21
7/16/2021 9:15:00 AM 19.83 67.694 0.26 7.55 22.29 7.31
7/16/2021 9:30:00 AM 19.86 67.748 0.261 7.57 22.23 7.44
7/16/2021 9:45:00 AM 19.89 67.802 0.261 7.58 22.94 7.61
7/16/2021 10:00:00 AM 20 68 0.261 7.6 21.93 7.68